Provisional Data: Kitchen Creek near Huntington Mills, PA


Please select a monitoring station.
Please select start date.
Please select start date.

Toggle Unit: C/F Toggle Unit: C/F
Sample Time Temperature (C) Temperature (F) Specific Conductivity (mS/cm) pH   Turbidity (NTU+) DO (mg/L)
5/4/2021 12:00:00 AM 11.86 53.348 0.062 6.77 0.6 10.19
5/4/2021 12:15:00 AM 11.84 53.312 0.062 6.76 0.64 10.2
5/4/2021 12:30:00 AM 11.83 53.294 0.062 6.73 0.72 10.19
5/4/2021 12:45:00 AM 11.82 53.276 0.062 6.75 0.67 10.19
5/4/2021 1:00:00 AM 11.81 53.258 0.062 6.74 0.68 10.19
5/4/2021 1:15:00 AM 11.8 53.24 0.062 6.65 0.74 10.19
5/4/2021 1:30:00 AM 11.78 53.204 0.062 6.75 0.75 10.2
5/4/2021 1:45:00 AM 11.77 53.186 0.062 6.7 0.65 10.2
5/4/2021 2:00:00 AM 11.76 53.168 0.062 6.75 0.69 10.21
5/4/2021 2:15:00 AM 11.75 53.15 0.062 6.65 0.74 10.22
5/4/2021 2:30:00 AM 11.74 53.132 0.062 6.74 0.66 10.21
5/4/2021 2:45:00 AM 11.73 53.114 0.062 6.74 0.67 10.22
5/4/2021 3:00:00 AM 11.73 53.114 0.062 6.73 0.7 10.23
5/4/2021 3:15:00 AM 11.72 53.096 0.063 6.72 0.65 10.22
5/4/2021 3:30:00 AM 11.71 53.078 0.063 6.69 0.7 10.24
5/4/2021 3:45:00 AM 11.7 53.06 0.063 6.72 0.73 10.23
5/4/2021 4:00:00 AM 11.69 53.042 0.063 6.71 0.71 10.24
5/4/2021 4:15:00 AM 11.68 53.024 0.063 6.71 0.61 10.24
5/4/2021 4:30:00 AM 11.67 53.006 0.063 6.67 0.72 10.25
5/4/2021 4:45:00 AM 11.66 52.988 0.063 6.73 0.65 10.25
5/4/2021 5:00:00 AM 11.65 52.97 0.063 6.71 0.64 10.25
5/4/2021 5:15:00 AM 11.64 52.952 0.063 6.72 0.73 10.25
5/4/2021 5:30:00 AM 11.63 52.934 0.063 6.71 0.75 10.26
5/4/2021 5:45:00 AM 11.62 52.916 0.063 6.75 0.78 10.26
5/4/2021 6:00:00 AM 11.61 52.898 0.063 6.72 0.61 10.26
5/4/2021 6:15:00 AM 11.61 52.898 0.063 6.72 0.65 10.26
5/4/2021 6:30:00 AM 11.6 52.88 0.063 6.75 0.66 10.27
5/4/2021 6:45:00 AM 11.59 52.862 0.063 6.67 0.67 10.29
5/4/2021 7:00:00 AM 11.59 52.862 0.063 6.73 0.68 10.31
5/4/2021 7:15:00 AM 11.59 52.862 0.062 6.76 0.62 10.36
5/4/2021 7:30:00 AM 11.6 52.88 0.062 6.8 0.67 10.4
5/4/2021 7:45:00 AM 11.61 52.898 0.062 6.79 0.67 10.43
5/4/2021 8:00:00 AM 11.62 52.916 0.062 6.82 0.58 10.46
5/4/2021 8:15:00 AM 11.63 52.934 0.062 6.82 0.66 10.49
5/4/2021 8:30:00 AM 11.65 52.97 0.062 6.85 0.58 10.49
5/4/2021 8:45:00 AM 11.67 53.006 0.062 6.85 0.55 10.52
5/4/2021 9:00:00 AM 11.69 53.042 0.062 6.88 0.56 10.53
5/4/2021 9:15:00 AM 11.73 53.114 0.061 6.89 0.59 10.57
5/4/2021 9:30:00 AM 11.76 53.168 0.061 6.86 0.63 10.57
5/4/2021 9:45:00 AM 11.82 53.276 0.061 6.92 0.61 10.6
5/4/2021 10:00:00 AM 11.92 53.456 0.061 6.92 0.6 10.64
5/4/2021 10:15:00 AM 12.01 53.618 0.061 6.98 0.58 10.63
5/4/2021 10:30:00 AM 12.06 53.708 0.061 6.97 0.57 10.58
5/4/2021 10:45:00 AM 12.16 53.888 0.061 6.97 0.54 10.6
5/4/2021 11:00:00 AM 12.24 54.032 0.061 7.01 0.59 10.59
5/4/2021 11:15:00 AM 12.33 54.194 0.061 7.01 0.71 10.57
5/4/2021 11:30:00 AM 12.45 54.41 0.061 6.99 0.58 10.56
5/4/2021 11:45:00 AM 12.66 54.788 0.06 7.03 0.61 10.56
5/4/2021 12:00:00 PM 12.76 54.968 0.06 7.06 0.65 10.53
5/4/2021 12:15:00 PM 12.93 55.274 0.06 7.05 0.59 10.5
5/4/2021 12:30:00 PM 13.08 55.544 0.06 7.02 0.55 10.46
5/4/2021 12:45:00 PM 13.18 55.724 0.06 7.08 0.62 10.44
5/4/2021 1:00:00 PM 13.36 56.048 0.06 7.07 0.57 10.4
5/4/2021 1:15:00 PM 13.52 56.336 0.061 7.07 0.57 10.34
5/4/2021 1:30:00 PM 13.7 56.66 0.061 7.07 0.53 10.26
5/4/2021 1:45:00 PM 13.87 56.966 0.061 7.09 0.64 10.24
5/4/2021 2:00:00 PM 13.99 57.182 0.061 7.07 0.57 10.22
5/4/2021 2:15:00 PM 14.16 57.488 0.061 7.07 0.6 10.2
5/4/2021 2:30:00 PM 14.23 57.614 0.061 7.09 0.57 10.17
5/4/2021 2:45:00 PM 14.34 57.812 0.061 7.11 0.63 10.14
5/4/2021 3:00:00 PM 14.41 57.938 0.061 7.08 0.69 10.13
5/4/2021 3:15:00 PM 14.45 58.01 0.061 7.1 0.64 10.11
5/4/2021 3:30:00 PM 14.56 58.208 0.061 7.08 0.64 10.08
5/4/2021 3:45:00 PM 14.58 58.244 0.061 7.08 0.75 10.04
5/4/2021 4:00:00 PM 14.61 58.298 0.061 7.07 0.71 10
5/4/2021 4:15:00 PM 14.62 58.316 0.061 7.06 0.71 9.99
5/4/2021 4:30:00 PM 14.64 58.352 0.061 7.05 0.54 9.97
5/4/2021 4:45:00 PM 14.68 58.424 0.061 7.04 0.65 9.96
5/4/2021 5:00:00 PM 14.68 58.424 0.061 7.04 0.55 9.93
5/4/2021 5:15:00 PM 14.68 58.424 0.061 7.02 0.6 9.89
5/4/2021 5:30:00 PM 14.64 58.352 0.061 6.99 0.59 9.85
5/4/2021 5:45:00 PM 14.62 58.316 0.061 6.95 0.66 9.83
5/4/2021 6:00:00 PM 14.59 58.262 0.061 6.93 0.53 9.75
5/4/2021 6:15:00 PM 14.55 58.19 0.061 6.9 0.64 9.7
5/4/2021 6:30:00 PM 14.51 58.118 0.061 6.88 0.7 9.71
5/4/2021 6:45:00 PM 14.47 58.046 0.061 6.88 0.66 9.69
5/4/2021 7:00:00 PM 14.44 57.992 0.061 6.87 0.65 9.7
5/4/2021 7:15:00 PM 14.4 57.92 0.061 6.85 0.65 9.7
5/4/2021 7:30:00 PM 14.35 57.83 0.061 6.85 0.6 9.67
5/4/2021 7:45:00 PM 14.3 57.74 0.061 6.8 0.51 9.65
5/4/2021 8:00:00 PM 14.26 57.668 0.061 6.8 0.51 9.65
5/4/2021 8:15:00 PM 14.23 57.614 0.062 6.8 0.63 9.63
5/4/2021 8:30:00 PM 14.19 57.542 0.062 6.77 0.58 9.62
5/4/2021 8:45:00 PM 14.15 57.47 0.062 6.78 0.64 9.63
5/4/2021 9:00:00 PM 14.11 57.398 0.062 6.74 0.77 9.63
5/4/2021 9:15:00 PM 14.09 57.362 0.062 6.76 0.75 9.64
5/4/2021 9:30:00 PM 14.07 57.326 0.062 6.76 0.72 9.65
5/4/2021 9:45:00 PM 14.04 57.272 0.062 6.75 0.63 9.66
5/4/2021 10:00:00 PM 14.02 57.236 0.062 6.74 0.59 9.67
5/4/2021 10:15:00 PM 13.99 57.182 0.061 6.74 0.59 9.68
5/4/2021 10:30:00 PM 13.97 57.146 0.061 6.75 0.59 9.68
5/4/2021 10:45:00 PM 13.95 57.11 0.061 6.71 0.62 9.69
5/4/2021 11:00:00 PM 13.93 57.074 0.061 6.73 0.54 9.69
5/4/2021 11:15:00 PM 13.9 57.02 0.061 6.73 0.59 9.69
5/4/2021 11:30:00 PM 13.88 56.984 0.061 6.68 0.61 9.7
5/4/2021 11:45:00 PM 13.86 56.948 0.061 6.71 0.59 9.7
5/5/2021 12:00:00 AM 13.89 57.002 0.06 6.65 1.07 9.7
5/5/2021 12:15:00 AM 13.88 56.984 0.06 6.72 1.04 9.68
5/5/2021 12:30:00 AM 13.86 56.948 0.061 6.72 0.85 9.68
5/5/2021 12:45:00 AM 13.83 56.894 0.061 6.71 0.73 9.69
5/5/2021 1:00:00 AM 13.82 56.876 0.061 6.7 0.78 9.69
5/5/2021 1:15:00 AM 13.81 56.858 0.062 6.72 0.85 9.7
5/5/2021 1:30:00 AM 13.79 56.822 0.062 6.65 0.81 9.71
5/5/2021 1:45:00 AM 13.77 56.786 0.062 6.71 0.8 9.71
5/5/2021 2:00:00 AM 13.75 56.75 0.063 6.72 0.74 9.72
5/5/2021 2:15:00 AM 13.73 56.714 0.063 6.71 0.8 9.72
5/5/2021 2:30:00 AM 13.71 56.678 0.063 6.66 0.81 9.72
5/5/2021 2:45:00 AM 13.68 56.624 0.064 6.68 0.74 9.74
5/5/2021 3:00:00 AM 13.65 56.57 0.064 6.69 0.75 9.74
5/5/2021 3:15:00 AM 13.62 56.516 0.064 6.71 0.69 9.74
5/5/2021 3:30:00 AM 13.6 56.48 0.064 6.73 0.87 9.75
5/5/2021 3:45:00 AM 13.57 56.426 0.064 6.71 0.8 9.76
5/5/2021 4:00:00 AM 13.54 56.372 0.064 6.74 0.73 9.77
5/5/2021 4:15:00 AM 13.51 56.318 0.064 6.73 0.7 9.78
5/5/2021 4:30:00 AM 13.49 56.282 0.064 6.72 0.79 9.78
5/5/2021 4:45:00 AM 13.46 56.228 0.064 6.72 0.73 9.79
5/5/2021 5:00:00 AM 13.43 56.174 0.064 6.73 0.73 9.8
5/5/2021 5:15:00 AM 13.41 56.138 0.064 6.73 0.7 9.8
5/5/2021 5:30:00 AM 13.39 56.102 0.064 6.73 0.8 9.81
5/5/2021 5:45:00 AM 13.37 56.066 0.064 6.74 0.76 9.82
5/5/2021 6:00:00 AM 13.34 56.012 0.064 6.73 0.78 9.83
5/5/2021 6:15:00 AM 13.32 55.976 0.064 6.73 0.72 9.84
5/5/2021 6:30:00 AM 13.29 55.922 0.064 6.72 0.78 9.86
5/5/2021 6:45:00 AM 13.27 55.886 0.064 6.72 0.69 9.88
5/5/2021 7:00:00 AM 13.26 55.868 0.064 6.72 0.61 9.92
5/5/2021 7:15:00 AM 13.25 55.85 0.063 6.75 0.64 9.93
5/5/2021 7:30:00 AM 13.24 55.832 0.063 6.68 0.66 9.96
5/5/2021 7:45:00 AM 13.23 55.814 0.063 6.77 0.65 9.97
5/5/2021 8:00:00 AM 13.23 55.814 0.063 6.76 0.64 10
5/5/2021 8:15:00 AM 13.24 55.832 0.062 6.7 0.65 10.04
5/5/2021 8:30:00 AM 13.24 55.832 0.062 6.78 0.63 10.05
5/5/2021 8:45:00 AM 13.24 55.832 0.062 6.78 0.67 10.05
5/5/2021 9:00:00 AM 13.24 55.832 0.062 6.76 0.72 10.05
5/5/2021 9:15:00 AM 13.24 55.832 0.062 6.78 0.71 10.03
5/5/2021 9:30:00 AM 13.25 55.85 0.062 6.78 0.73 10.05
5/5/2021 9:45:00 AM 13.28 55.904 0.061 6.77 0.82 9.99
5/5/2021 10:00:00 AM 13.28 55.904 0.061 6.72 0.82 9.96
5/5/2021 10:15:00 AM 13.29 55.922 0.06 6.8 0.99 9.96
5/5/2021 10:30:00 AM 13.3 55.94 0.06 6.81 0.94 9.98
5/5/2021 10:45:00 AM 13.3 55.94 0.06 6.82 1.34 10
5/5/2021 11:00:00 AM 13.28 55.904 0.06 6.84 1.42 10
5/5/2021 11:15:00 AM 13.27 55.886 0.06 6.79 1.8 9.97
5/5/2021 11:30:00 AM 13.26 55.868 0.06 6.82 2.19 9.98
5/5/2021 11:45:00 AM 13.25 55.85 0.06 6.82 2.95 9.98
5/5/2021 12:00:00 PM 13.25 55.85 0.06 6.82 3.33 10.04
5/5/2021 12:15:00 PM 13.26 55.868 0.06 6.88 3.44 10.08
5/5/2021 12:30:00 PM 13.28 55.904 0.06 6.91 2.88 10.13
5/5/2021 12:45:00 PM 13.34 56.012 0.06 6.95 2.98 10.19
5/5/2021 1:00:00 PM 13.37 56.066 0.06 6.95 3.29 10.19
5/5/2021 1:15:00 PM 13.39 56.102 0.06 6.98 3.08 10.17
5/5/2021 1:30:00 PM 13.38 56.084 0.06 6.95 3 10.07
5/5/2021 1:45:00 PM 13.36 56.048 0.06 6.92 3.24 10.05
5/5/2021 2:00:00 PM 13.35 56.03 0.06 6.92 3.05 10.07
5/5/2021 2:15:00 PM 13.33 55.994 0.06 6.92 2.83 10.08
5/5/2021 2:30:00 PM 13.34 56.012 0.059 6.93 2.92 10.14
5/5/2021 2:45:00 PM 13.33 55.994 0.059 6.92 3.4 10.1
5/5/2021 3:00:00 PM 13.34 56.012 0.059 6.94 3.17 10.11
5/5/2021 3:15:00 PM 13.33 55.994 0.059 6.9 3.1 10.11
5/5/2021 3:30:00 PM 13.31 55.958 0.058 6.89 3.15 10.06
5/5/2021 3:45:00 PM 13.28 55.904 0.058 6.91 3.01 10.07
5/5/2021 4:00:00 PM 13.26 55.868 0.057 6.87 3.31 10.06
5/5/2021 4:15:00 PM 13.24 55.832 0.057 6.89 3.22 10.09
5/5/2021 4:30:00 PM 13.21 55.778 0.057 6.88 2.95 10.09
5/5/2021 4:45:00 PM 13.18 55.724 0.058 6.85 3.03 10.08
5/5/2021 5:00:00 PM 13.15 55.67 0.058 6.87 2.81 10.09
5/5/2021 5:15:00 PM 13.13 55.634 0.058 6.88 2.77 10.12
5/5/2021 5:30:00 PM 13.12 55.616 0.058 6.89 2.78 10.16
5/5/2021 5:45:00 PM 13.1 55.58 0.059 6.85 2.74 10.15
5/5/2021 6:00:00 PM 13.07 55.526 0.059 6.87 2.8 10.11
5/5/2021 6:15:00 PM 13.03 55.454 0.059 6.84 2.77 10.09
5/5/2021 6:30:00 PM 12.99 55.382 0.06 6.82 2.82 10.09
5/5/2021 6:45:00 PM 12.95 55.31 0.06 6.84 2.91 10.07
5/5/2021 7:00:00 PM 12.9 55.22 0.06 6.83 2.77 10.08
5/5/2021 7:15:00 PM 12.85 55.13 0.06 6.82 2.58 10.08
5/5/2021 7:30:00 PM 12.8 55.04 0.06 6.8 2.63 10.08
5/5/2021 7:45:00 PM 12.75 54.95 0.06 6.78 2.71 10.09
5/5/2021 8:00:00 PM 12.69 54.842 0.06 6.77 2.6 10.1
5/5/2021 8:15:00 PM 12.64 54.752 0.06 6.81 2.65 10.12
5/5/2021 8:30:00 PM 12.59 54.662 0.06 6.8 2.55 10.13
5/5/2021 8:45:00 PM 12.53 54.554 0.06 6.77 2.31 10.14
5/5/2021 9:00:00 PM 12.48 54.464 0.06 6.77 2.32 10.15
5/5/2021 9:15:00 PM 12.43 54.374 0.06 6.74 2.21 10.17
5/5/2021 9:30:00 PM 12.37 54.266 0.06 6.77 2.08 10.19
5/5/2021 9:45:00 PM 12.32 54.176 0.06 6.78 2.1 10.2
5/5/2021 10:00:00 PM 12.27 54.086 0.059 6.75 2.01 10.21
5/5/2021 10:15:00 PM 12.21 53.978 0.059 6.76 1.88 10.23
5/5/2021 10:30:00 PM 12.16 53.888 0.059 6.73 1.9 10.25
5/5/2021 10:45:00 PM 12.09 53.762 0.059 6.78 1.93 10.26
5/5/2021 11:00:00 PM 12.03 53.654 0.059 6.78 1.9 10.28
5/5/2021 11:15:00 PM 11.98 53.564 0.059 6.76 1.89 10.28
5/5/2021 11:30:00 PM 11.92 53.456 0.059 6.69 1.88 10.31
5/5/2021 11:45:00 PM 11.86 53.348 0.059 6.78 1.77 10.32
5/6/2021 12:00:00 AM 11.81 53.258 0.059 6.76 1.6 10.33
5/6/2021 12:15:00 AM 11.76 53.168 0.059 6.75 1.7 10.35
5/6/2021 12:30:00 AM 11.7 53.06 0.059 6.77 1.64 10.36
5/6/2021 12:45:00 AM 11.65 52.97 0.059 6.74 1.59 10.37
5/6/2021 1:00:00 AM 11.59 52.862 0.059 6.74 1.65 10.39
5/6/2021 1:15:00 AM 11.53 52.754 0.059 6.72 1.46 10.41
5/6/2021 1:30:00 AM 11.48 52.664 0.059 6.68 1.56 10.41
5/6/2021 1:45:00 AM 11.42 52.556 0.058 6.76 1.44 10.43
5/6/2021 2:00:00 AM 11.36 52.448 0.058 6.73 1.54 10.44
5/6/2021 2:15:00 AM 11.3 52.34 0.058 6.72 1.44 10.46
5/6/2021 2:30:00 AM 11.23 52.214 0.058 6.72 1.42 10.47
5/6/2021 2:45:00 AM 11.17 52.106 0.058 6.75 1.37 10.49
5/6/2021 3:00:00 AM 11.1 51.98 0.058 6.74 1.35 10.51
5/6/2021 3:15:00 AM 11.04 51.872 0.058 6.74 1.36 10.53
5/6/2021 3:30:00 AM 10.99 51.782 0.058 6.7 1.32 10.54
5/6/2021 3:45:00 AM 10.94 51.692 0.058 6.75 1.41 10.55
5/6/2021 4:00:00 AM 10.89 51.602 0.058 6.7 1.47 10.56
5/6/2021 4:15:00 AM 10.84 51.512 0.058 6.71 1.29 10.58
5/6/2021 4:30:00 AM 10.78 51.404 0.058 6.7 1.3 10.59
5/6/2021 4:45:00 AM 10.73 51.314 0.058 6.72 1.31 10.61
5/6/2021 5:00:00 AM 10.68 51.224 0.058 6.71 1.24 10.63
5/6/2021 5:15:00 AM 10.64 51.152 0.058 6.73 1.2 10.64
5/6/2021 5:30:00 AM 10.59 51.062 0.058 6.66 1.17 10.65
5/6/2021 5:45:00 AM 10.55 50.99 0.058 6.73 1.17 10.66
5/6/2021 6:00:00 AM 10.51 50.918 0.058 6.71 1.27 10.67
5/6/2021 6:15:00 AM 10.46 50.828 0.058 6.72 1.24 10.7
5/6/2021 6:30:00 AM 10.42 50.756 0.058 6.73 1.32 10.72
5/6/2021 6:45:00 AM 10.38 50.684 0.058 6.7 1.12 10.75
5/6/2021 7:00:00 AM 10.33 50.594 0.058 6.73 1.1 10.79
5/6/2021 7:15:00 AM 10.3 50.54 0.058 6.76 1.1 10.83
5/6/2021 7:30:00 AM 10.27 50.486 0.058 6.77 1.17 10.84
5/6/2021 7:45:00 AM 10.24 50.432 0.058 6.77 1.13 10.88
5/6/2021 8:00:00 AM 10.2 50.36 0.058 6.75 1.26 10.92
5/6/2021 8:15:00 AM 10.18 50.324 0.058 6.8 1.37 10.95
5/6/2021 8:30:00 AM 10.16 50.288 0.058 6.76 1.65 10.97
5/6/2021 8:45:00 AM 10.14 50.252 0.058 6.79 1.48 10.98
5/6/2021 9:00:00 AM 10.13 50.234 0.058 6.79 1.35 10.99
5/6/2021 9:15:00 AM 10.12 50.216 0.058 6.81 1.24 11
5/6/2021 9:30:00 AM 10.13 50.234 0.058 6.81 1.27 11.01
5/6/2021 9:45:00 AM 10.18 50.324 0.058 6.8 1.27 11.04
5/6/2021 10:00:00 AM 10.27 50.486 0.058 6.84 1.24 11.05
5/6/2021 10:15:00 AM 10.37 50.666 0.058 6.81 1.44 11.04
5/6/2021 10:30:00 AM 10.49 50.882 0.058 6.86 1.22 11.03
5/6/2021 10:45:00 AM 10.63 51.134 0.057 6.87 1.09 11.02
5/6/2021 11:00:00 AM 10.8 51.44 0.057 6.86 1.34 10.99
5/6/2021 11:15:00 AM 10.95 51.71 0.057 6.9 1.14 10.95
5/6/2021 11:30:00 AM 11.09 51.962 0.057 6.9 1.26 10.91
5/6/2021 11:45:00 AM 11.32 52.376 0.057 6.91 1.15 10.87
5/6/2021 12:00:00 PM 11.52 52.736 0.057 6.88 1.16 10.84
5/6/2021 12:15:00 PM 11.7 53.06 0.057 6.93 1.08 10.8
5/6/2021 12:30:00 PM 11.88 53.384 0.057 6.92 1.06 10.76
5/6/2021 12:45:00 PM 12 53.6 0.057 6.95 1.18 10.73
5/6/2021 1:00:00 PM 12.14 53.852 0.057 6.93 1.06 10.68
5/6/2021 1:15:00 PM 12.25 54.05 0.057 6.95 0.97 10.65
5/6/2021 1:30:00 PM 12.32 54.176 0.058 6.93 0.94 10.62
5/6/2021 1:45:00 PM 12.44 54.392 0.058 6.95 1 10.6
5/6/2021 2:00:00 PM 12.47 54.446 0.058 6.95 0.93 10.59
5/6/2021 2:15:00 PM 12.49 54.482 0.058 6.93 0.89 10.57
5/6/2021 2:30:00 PM 12.51 54.518 0.058 6.96 1.04 10.54
5/6/2021 2:45:00 PM 12.52 54.536 0.058 6.95 0.92 10.54
5/6/2021 3:00:00 PM 12.48 54.464 0.058 6.95 0.95 10.53
5/6/2021 3:15:00 PM 12.45 54.41 0.058 6.93 0.9 10.52
5/6/2021 3:30:00 PM 12.45 54.41 0.058 6.93 0.85 10.49
5/6/2021 3:45:00 PM 12.44 54.392 0.058 6.92 0.91 10.49
5/6/2021 4:00:00 PM 12.43 54.374 0.058 6.93 0.9 10.49
5/6/2021 4:15:00 PM 12.39 54.302 0.058 6.91 0.91 10.5
5/6/2021 4:30:00 PM 12.39 54.302 0.058 6.92 0.94 10.5
5/6/2021 4:45:00 PM 12.35 54.23 0.059 6.92 0.85 10.5
5/6/2021 5:00:00 PM 12.31 54.158 0.059 6.93 0.91 10.5
5/6/2021 5:15:00 PM 12.24 54.032 0.059 6.93 0.89 10.5
5/6/2021 5:30:00 PM 12.18 53.924 0.059 6.89 0.82 10.51
5/6/2021 5:45:00 PM 12.13 53.834 0.059 6.85 0.84 10.5
5/6/2021 6:00:00 PM 12.08 53.744 0.059 6.9 0.9 10.47
5/6/2021 6:15:00 PM 12.04 53.672 0.059 6.87 0.83 10.46
5/6/2021 6:30:00 PM 11.98 53.564 0.059 6.87 1.01 10.47
5/6/2021 6:45:00 PM 11.92 53.456 0.059 6.82 0.87 10.45
5/6/2021 7:00:00 PM 11.88 53.384 0.059 6.81 0.77 10.44
5/6/2021 7:15:00 PM 11.84 53.312 0.059 6.82 0.87 10.43
5/6/2021 7:30:00 PM 11.79 53.222 0.059 6.81 0.85 10.4
5/6/2021 7:45:00 PM 11.75 53.15 0.059 6.78 0.82 10.38
5/6/2021 8:00:00 PM 11.7 53.06 0.059 6.73 0.83 10.38
5/6/2021 8:15:00 PM 11.65 52.97 0.059 6.79 0.91 10.37
5/6/2021 8:30:00 PM 11.6 52.88 0.059 6.73 0.85 10.37
5/6/2021 8:45:00 PM 11.54 52.772 0.06 6.75 0.89 10.38
5/6/2021 9:00:00 PM 11.49 52.682 0.06 6.74 0.87 10.39
5/6/2021 9:15:00 PM 11.43 52.574 0.06 6.76 0.82 10.4
5/6/2021 9:30:00 PM 11.38 52.484 0.06 6.75 1.11 10.41
5/6/2021 9:45:00 PM 11.32 52.376 0.06 6.74 0.92 10.43
5/6/2021 10:00:00 PM 11.25 52.25 0.06 6.75 0.93 10.45
5/6/2021 10:15:00 PM 11.18 52.124 0.06 6.75 0.82 10.47
5/6/2021 10:30:00 PM 11.11 51.998 0.06 6.73 0.86 10.49
5/6/2021 10:45:00 PM 11.04 51.872 0.06 6.74 0.83 10.5
5/6/2021 11:00:00 PM 10.96 51.728 0.06 6.72 0.87 10.52
5/6/2021 11:15:00 PM 10.89 51.602 0.06 6.76 0.77 10.54
5/6/2021 11:30:00 PM 10.82 51.476 0.06 6.73 0.85 10.56
5/6/2021 11:45:00 PM 10.74 51.332 0.06 6.74 0.83 10.58
5/7/2021 12:00:00 AM 10.67 51.206 0.06 6.75 0.85 10.6
5/7/2021 12:15:00 AM 10.59 51.062 0.06 6.73 0.75 10.62
5/7/2021 12:30:00 AM 10.51 50.918 0.06 6.76 0.85 10.64
5/7/2021 12:45:00 AM 10.43 50.774 0.06 6.74 0.76 10.66
5/7/2021 1:00:00 AM 10.35 50.63 0.06 6.73 0.83 10.68
5/7/2021 1:15:00 AM 10.28 50.504 0.06 6.71 0.81 10.7
5/7/2021 1:30:00 AM 10.2 50.36 0.06 6.74 0.78 10.72
5/7/2021 1:45:00 AM 10.13 50.234 0.06 6.75 0.76 10.74
5/7/2021 2:00:00 AM 10.06 50.108 0.06 6.73 0.78 10.76
5/7/2021 2:15:00 AM 9.98 49.964 0.061 6.71 0.73 10.77
5/7/2021 2:30:00 AM 9.91 49.838 0.061 6.72 0.76 10.8
5/7/2021 2:45:00 AM 9.83 49.694 0.061 6.73 0.78 10.82
5/7/2021 3:00:00 AM 9.76 49.568 0.061 6.71 0.75 10.84
5/7/2021 3:15:00 AM 9.69 49.442 0.061 6.71 0.75 10.86
5/7/2021 3:30:00 AM 9.61 49.298 0.061 6.7 0.82 10.88
5/7/2021 3:45:00 AM 9.54 49.172 0.061 6.73 0.86 10.89
5/7/2021 4:00:00 AM 9.46 49.028 0.061 6.74 0.79 10.91
5/7/2021 4:15:00 AM 9.39 48.902 0.061 6.69 0.77 10.94
5/7/2021 4:30:00 AM 9.31 48.758 0.061 6.67 0.77 10.95
5/7/2021 4:45:00 AM 9.24 48.632 0.061 6.7 0.75 10.97
5/7/2021 5:00:00 AM 9.17 48.506 0.061 6.64 0.73 10.99
5/7/2021 5:15:00 AM 9.09 48.362 0.061 6.7 0.75 11.01
5/7/2021 5:30:00 AM 9.03 48.254 0.061 6.68 0.84 11.03
5/7/2021 5:45:00 AM 8.96 48.128 0.061 6.71 0.77 11.05
5/7/2021 6:00:00 AM 8.9 48.02 0.061 6.58 0.8 11.07
5/7/2021 6:15:00 AM 8.85 47.93 0.061 6.71 0.71 11.1
5/7/2021 6:30:00 AM 8.79 47.822 0.061 6.68 0.68 11.13
5/7/2021 6:45:00 AM 8.75 47.75 0.061 6.69 0.76 11.18
5/7/2021 7:00:00 AM 8.73 47.714 0.061 6.72 0.78 11.25
5/7/2021 7:15:00 AM 8.72 47.696 0.061 6.72 0.74 11.29
5/7/2021 7:30:00 AM 8.71 47.678 0.061 6.75 0.72 11.33
5/7/2021 7:45:00 AM 8.73 47.714 0.061 6.77 0.67 11.36
5/7/2021 8:00:00 AM 8.75 47.75 0.061 6.8 0.68 11.38
5/7/2021 8:15:00 AM 8.79 47.822 0.06 6.76 0.63 11.39
5/7/2021 8:30:00 AM 8.81 47.858 0.06 6.79 0.67 11.38
5/7/2021 8:45:00 AM 8.85 47.93 0.06 6.82 0.66 11.38
5/7/2021 9:00:00 AM 8.92 48.056 0.06 6.83 0.67 11.4
5/7/2021 9:15:00 AM 9 48.2 0.06 6.83 0.63 11.4
5/7/2021 9:30:00 AM 9.1 48.38 0.06 6.88 0.6 11.39
5/7/2021 9:45:00 AM 9.18 48.524 0.06 6.87 0.69 11.39
5/7/2021 10:00:00 AM 9.27 48.686 0.06 6.89 0.63 11.37
5/7/2021 10:15:00 AM 9.4 48.92 0.06 6.9 0.64 11.35
5/7/2021 10:30:00 AM 9.52 49.136 0.06 6.92 0.63 11.32
5/7/2021 10:45:00 AM 9.63 49.334 0.06 6.93 0.63 11.29
5/7/2021 11:00:00 AM 9.77 49.586 0.06 6.94 0.68 11.27
5/7/2021 11:15:00 AM 9.94 49.892 0.06 6.91 0.64 11.23
5/7/2021 11:30:00 AM 10.04 50.072 0.06 6.94 0.69 11.19
5/7/2021 11:45:00 AM 10.14 50.252 0.06 6.97 0.64 11.16
5/7/2021 12:00:00 PM 10.22 50.396 0.06 6.96 0.69 11.14
5/7/2021 12:15:00 PM 10.26 50.468 0.06 6.95 0.58 11.11
5/7/2021 12:30:00 PM 10.3 50.54 0.06 6.93 0.64 11.09
5/7/2021 12:45:00 PM 10.37 50.666 0.06 6.98 0.63 11.08
5/7/2021 1:00:00 PM 10.4 50.72 0.06 6.96 0.56 11.05
5/7/2021 1:15:00 PM 10.41 50.738 0.06 6.96 0.65 11.04
5/7/2021 1:30:00 PM 10.42 50.756 0.06 6.97 0.71 11.03
5/7/2021 1:45:00 PM 10.46 50.828 0.06 6.97 0.67 11.03
5/7/2021 2:00:00 PM 10.48 50.864 0.06 6.92 0.69 11.02
5/7/2021 2:15:00 PM 10.48 50.864 0.061 6.97 0.59 11
5/7/2021 2:30:00 PM 10.48 50.864 0.061 6.97 0.64 10.98
5/7/2021 2:45:00 PM 10.48 50.864 0.061 6.94 0.65 10.96
5/7/2021 3:00:00 PM 10.47 50.846 0.061 6.95 0.66 10.95
5/7/2021 3:15:00 PM 10.47 50.846 0.061 6.93 0.79 10.97
5/7/2021 3:30:00 PM 10.46 50.828 0.061 6.95 0.68 10.96
5/7/2021 3:45:00 PM 10.44 50.792 0.061 6.94 0.69 10.94
5/7/2021 4:00:00 PM 10.42 50.756 0.061 6.91 0.72 10.93
5/7/2021 4:15:00 PM 10.4 50.72 0.061 6.91 0.7 10.93
5/7/2021 4:30:00 PM 10.38 50.684 0.061 6.86 0.78 10.92
5/7/2021 4:45:00 PM 10.37 50.666 0.061 6.91 0.79 10.91
5/7/2021 5:00:00 PM 10.35 50.63 0.061 6.9 0.77 10.88
5/7/2021 5:15:00 PM 10.33 50.594 0.061 6.89 0.81 10.87
5/7/2021 5:30:00 PM 10.31 50.558 0.061 6.89 0.8 10.86
5/7/2021 5:45:00 PM 10.3 50.54 0.061 6.87 0.76 10.86
5/7/2021 6:00:00 PM 10.29 50.522 0.061 6.88 0.78 10.85
5/7/2021 6:15:00 PM 10.27 50.486 0.061 6.85 0.75 10.86
5/7/2021 6:30:00 PM 10.26 50.468 0.061 6.87 0.71 10.84
5/7/2021 6:45:00 PM 10.24 50.432 0.061 6.8 0.72 10.82
5/7/2021 7:00:00 PM 10.23 50.414 0.061 6.84 0.83 10.79
5/7/2021 7:15:00 PM 10.21 50.378 0.061 6.84 0.7 10.77
5/7/2021 7:30:00 PM 10.19 50.342 0.061 6.78 0.75 10.74
5/7/2021 7:45:00 PM 10.16 50.288 0.061 6.8 0.74 10.73
5/7/2021 8:00:00 PM 10.13 50.234 0.061 6.77 0.72 10.72
5/7/2021 8:15:00 PM 10.11 50.198 0.061 6.79 0.77 10.71
5/7/2021 8:30:00 PM 10.09 50.162 0.061 6.77 0.78 10.71
5/7/2021 8:45:00 PM 10.06 50.108 0.061 6.75 0.74 10.72
5/7/2021 9:00:00 PM 10.04 50.072 0.061 6.72 0.71 10.72
5/7/2021 9:15:00 PM 10.02 50.036 0.061 6.76 0.84 10.72
5/7/2021 9:30:00 PM 10 50 0.061 6.78 0.84 10.73
5/7/2021 9:45:00 PM 9.97 49.946 0.061 6.74 0.81 10.74
5/7/2021 10:00:00 PM 9.95 49.91 0.061 6.76 0.76 10.75
5/7/2021 10:15:00 PM 9.93 49.874 0.061 6.78 0.83 10.75
5/7/2021 10:30:00 PM 9.91 49.838 0.061 6.76 0.79 10.76
5/7/2021 10:45:00 PM 9.89 49.802 0.061 6.76 0.75 10.76
5/7/2021 11:00:00 PM 9.87 49.766 0.06 6.76 0.76 10.77
5/7/2021 11:15:00 PM 9.85 49.73 0.06 6.77 0.79 10.77
5/7/2021 11:30:00 PM 9.83 49.694 0.06 6.75 0.76 10.78
5/7/2021 11:45:00 PM 9.8 49.64 0.06 6.74 0.81 10.79
5/8/2021 12:00:00 AM 9.78 49.604 0.06 6.7 0.76 10.79
5/8/2021 12:15:00 AM 9.76 49.568 0.06 6.76 0.9 10.79
5/8/2021 12:30:00 AM 9.73 49.514 0.06 6.73 0.83 10.8
5/8/2021 12:45:00 AM 9.71 49.478 0.06 6.75 0.96 10.8
5/8/2021 1:00:00 AM 9.69 49.442 0.06 6.76 0.86 10.81
5/8/2021 1:15:00 AM 9.67 49.406 0.06 6.73 1.02 10.81
5/8/2021 1:30:00 AM 9.64 49.352 0.06 6.75 0.99 10.82
5/8/2021 1:45:00 AM 9.62 49.316 0.06 6.74 0.93 10.82
5/8/2021 2:00:00 AM 9.6 49.28 0.06 6.75 0.98 10.83
5/8/2021 2:15:00 AM 9.58 49.244 0.06 6.78 1.06 10.84
5/8/2021 2:30:00 AM 9.55 49.19 0.06 6.73 1.16 10.85
5/8/2021 2:45:00 AM 9.53 49.154 0.06 6.77 1.19 10.86
5/8/2021 3:00:00 AM 9.51 49.118 0.06 6.67 1.22 10.86
5/8/2021 3:15:00 AM 9.49 49.082 0.06 6.74 1.87 10.87
5/8/2021 3:30:00 AM 9.47 49.046 0.059 6.76 1.37 10.88
5/8/2021 3:45:00 AM 9.45 49.01 0.059 6.75 1.95 10.88
5/8/2021 4:00:00 AM 9.42 48.956 0.059 6.77 1.46 10.9
5/8/2021 4:15:00 AM 9.4 48.92 0.059 6.75 1.55 10.91
5/8/2021 4:30:00 AM 9.38 48.884 0.059 6.76 1.49 10.91
5/8/2021 4:45:00 AM 9.36 48.848 0.059 6.75 1.71 10.92
5/8/2021 5:00:00 AM 9.34 48.812 0.059 6.76 1.75 10.94
5/8/2021 5:15:00 AM 9.32 48.776 0.059 6.75 1.82 10.94
5/8/2021 5:30:00 AM 9.29 48.722 0.059 6.76 1.7 10.96
5/8/2021 5:45:00 AM 9.26 48.668 0.059 6.76 1.78 10.96
5/8/2021 6:00:00 AM 9.24 48.632 0.059 6.77 1.81 10.97
5/8/2021 6:15:00 AM 9.21 48.578 0.059 6.77 1.82 10.99
5/8/2021 6:30:00 AM 9.19 48.542 0.059 6.76 1.77 11.01
5/8/2021 6:45:00 AM 9.17 48.506 0.058 6.75 1.81 11.02
5/8/2021 7:00:00 AM 9.15 48.47 0.058 6.77 1.75 11.06
5/8/2021 7:15:00 AM 9.14 48.452 0.058 6.74 1.82 11.09
5/8/2021 7:30:00 AM 9.14 48.452 0.058 6.78 1.77 11.1
5/8/2021 7:45:00 AM 9.14 48.452 0.058 6.74 1.68 11.15
5/8/2021 8:00:00 AM 9.14 48.452 0.058 6.82 1.65 11.17
5/8/2021 8:15:00 AM 9.13 48.434 0.058 6.81 1.62 11.17
5/8/2021 8:30:00 AM 9.13 48.434 0.058 6.81 1.69 11.2
5/8/2021 8:45:00 AM 9.17 48.506 0.058 6.85 1.65 11.24
5/8/2021 9:00:00 AM 9.21 48.578 0.058 6.83 1.61 11.25
5/8/2021 9:15:00 AM 9.21 48.578 0.058 6.86 1.64 11.23
5/8/2021 9:30:00 AM 9.21 48.578 0.058 6.85 1.5 11.25
5/8/2021 9:45:00 AM 9.26 48.668 0.058 6.85 1.49 11.26
5/8/2021 10:00:00 AM 9.37 48.866 0.058 6.88 1.46 11.27
5/8/2021 10:15:00 AM 9.44 48.992 0.058 6.87 1.42 11.25
5/8/2021 10:30:00 AM 9.51 49.118 0.058 6.9 1.44 11.26
5/8/2021 10:45:00 AM 9.5 49.1 0.058 6.89 1.43 11.22
5/8/2021 11:00:00 AM 9.53 49.154 0.058 6.88 1.38 11.18
5/8/2021 11:15:00 AM 9.58 49.244 0.058 6.86 1.32 11.13
5/8/2021 11:30:00 AM 9.7 49.46 0.058 6.88 1.31 11.13
5/8/2021 11:45:00 AM 9.73 49.514 0.058 6.87 1.36 11.15
5/8/2021 12:00:00 PM 9.78 49.604 0.058 6.91 1.29 11.18
5/8/2021 12:15:00 PM 9.81 49.658 0.058 6.88 1.26 11.18
5/8/2021 12:30:00 PM 9.83 49.694 0.057 6.87 1.27 11.18
5/8/2021 12:45:00 PM 9.79 49.622 0.057 6.89 1.19 11.19
5/8/2021 1:00:00 PM 9.77 49.586 0.057 6.92 1.17 11.19
5/8/2021 1:15:00 PM 9.74 49.532 0.057 6.91 1.14 11.18
5/8/2021 1:30:00 PM 9.76 49.568 0.057 6.91 1.14 11.18
5/8/2021 1:45:00 PM 9.77 49.586 0.057 6.91 1.11 11.16
5/8/2021 2:00:00 PM 9.79 49.622 0.057 6.9 1.09 11.15
5/8/2021 2:15:00 PM 9.84 49.712 0.057 6.87 1.04 11.13
5/8/2021 2:30:00 PM 9.89 49.802 0.057 6.89 0.96 11.13
5/8/2021 2:45:00 PM 9.9 49.82 0.057 6.85 0.98 11.06
5/8/2021 3:00:00 PM 9.91 49.838 0.057 6.85 0.98 11.03
5/8/2021 3:15:00 PM 9.95 49.91 0.057 6.83 1.01 11.05
5/8/2021 3:30:00 PM 9.98 49.964 0.057 6.87 0.93 11.06
5/8/2021 3:45:00 PM 9.99 49.982 0.056 6.87 1 11.06
5/8/2021 4:00:00 PM 10.04 50.072 0.056 6.88 0.96 11.07
5/8/2021 4:15:00 PM 10 50 0.057 6.82 0.97 10.96
5/8/2021 4:30:00 PM 9.96 49.928 0.057 6.85 1.03 10.98
5/8/2021 4:45:00 PM 9.98 49.964 0.057 6.82 1.03 11.05
5/8/2021 5:00:00 PM 9.97 49.946 0.057 6.85 0.95 11.05
5/8/2021 5:15:00 PM 9.94 49.892 0.057 6.85 1 11.01
5/8/2021 5:30:00 PM 9.94 49.892 0.057 6.79 0.94 11.02
5/8/2021 5:45:00 PM 9.92 49.856 0.057 6.84 0.92 11
5/8/2021 6:00:00 PM 9.89 49.802 0.057 6.82 0.94 10.98
5/8/2021 6:15:00 PM 9.84 49.712 0.057 6.8 0.99 10.96
5/8/2021 6:30:00 PM 9.81 49.658 0.057 6.79 0.92 10.94
5/8/2021 6:45:00 PM 9.79 49.622 0.057 6.74 0.94 10.95
5/8/2021 7:00:00 PM 9.77 49.586 0.057 6.79 0.98 10.96
5/8/2021 7:15:00 PM 9.75 49.55 0.057 6.75 0.89 10.95
5/8/2021 7:30:00 PM 9.72 49.496 0.057 6.76 0.91 10.95
5/8/2021 7:45:00 PM 9.7 49.46 0.057 6.77 0.88 10.94
5/8/2021 8:00:00 PM 9.67 49.406 0.057 6.75 0.93 10.93
5/8/2021 8:15:00 PM 9.65 49.37 0.057 6.72 0.89 10.92
5/8/2021 8:30:00 PM 9.61 49.298 0.058 6.75 0.83 10.93
5/8/2021 8:45:00 PM 9.57 49.226 0.058 6.73 0.89 10.93
5/8/2021 9:00:00 PM 9.53 49.154 0.058 6.72 0.85 10.94
5/8/2021 9:15:00 PM 9.49 49.082 0.058 6.72 1 10.95
5/8/2021 9:30:00 PM 9.45 49.01 0.058 6.73 0.9 10.97
5/8/2021 9:45:00 PM 9.4 48.92 0.058 6.74 0.91 10.98
5/8/2021 10:00:00 PM 9.36 48.848 0.058 6.64 0.88 10.99
5/8/2021 10:15:00 PM 9.31 48.758 0.058 6.74 0.82 11.01
5/8/2021 10:30:00 PM 9.27 48.686 0.058 6.72 0.78 11.03
5/8/2021 10:45:00 PM 9.24 48.632 0.058 6.7 0.86 11.03
5/8/2021 11:00:00 PM 9.19 48.542 0.058 6.73 0.77 11.05
5/8/2021 11:15:00 PM 9.15 48.47 0.058 6.71 0.81 11.05
5/8/2021 11:30:00 PM 9.1 48.38 0.058 6.72 0.73 11.08
5/8/2021 11:45:00 PM 9.05 48.29 0.058 6.68 0.78 11.09
5/9/2021 12:00:00 AM 9 48.2 0.058 6.72 0.77 11.1
5/9/2021 12:15:00 AM 8.94 48.092 0.058 6.71 0.83 11.11
5/9/2021 12:30:00 AM 8.89 48.002 0.058 6.72 0.78 11.13
5/9/2021 12:45:00 AM 8.84 47.912 0.058 6.69 0.71 11.15
5/9/2021 1:00:00 AM 8.78 47.804 0.058 6.7 0.72 11.16
5/9/2021 1:15:00 AM 8.73 47.714 0.058 6.71 0.75 11.18
5/9/2021 1:30:00 AM 8.67 47.606 0.058 6.69 0.73 11.2
5/9/2021 1:45:00 AM 8.61 47.498 0.058 6.69 0.77 11.22
5/9/2021 2:00:00 AM 8.55 47.39 0.058 6.69 0.75 11.23
5/9/2021 2:15:00 AM 8.49 47.282 0.058 6.7 0.79 11.25
5/9/2021 2:30:00 AM 8.43 47.174 0.059 6.7 0.71 11.26
5/9/2021 2:45:00 AM 8.37 47.066 0.059 6.7 0.71 11.28
5/9/2021 3:00:00 AM 8.31 46.958 0.059 6.7 0.72 11.29
5/9/2021 3:15:00 AM 8.25 46.85 0.059 6.68 0.7 11.31
5/9/2021 3:30:00 AM 8.19 46.742 0.059 6.69 0.75 11.33
5/9/2021 3:45:00 AM 8.13 46.634 0.059 6.64 0.71 11.34
5/9/2021 4:00:00 AM 8.07 46.526 0.059 6.69 0.68 11.37
5/9/2021 4:15:00 AM 8.02 46.436 0.059 6.68 0.67 11.38
5/9/2021 4:30:00 AM 7.96 46.328 0.059 6.69 0.7 11.4
5/9/2021 4:45:00 AM 7.9 46.22 0.059 6.68 0.7 11.42
5/9/2021 5:00:00 AM 7.85 46.13 0.059 6.67 0.66 11.43
5/9/2021 5:15:00 AM 7.8 46.04 0.059 6.62 0.76 11.45
5/9/2021 5:30:00 AM 7.75 45.95 0.059 6.66 0.77 11.47
5/9/2021 5:45:00 AM 7.7 45.86 0.059 6.65 0.71 11.49
5/9/2021 6:00:00 AM 7.65 45.77 0.059 6.56 0.65 11.5
5/9/2021 6:15:00 AM 7.61 45.698 0.059 6.65 0.66 11.53
5/9/2021 6:30:00 AM 7.57 45.626 0.059 6.65 0.66 11.56
5/9/2021 6:45:00 AM 7.53 45.554 0.059 6.67 0.72 11.59
5/9/2021 7:00:00 AM 7.5 45.5 0.059 6.65 0.64 11.62
5/9/2021 7:15:00 AM 7.48 45.464 0.059 6.66 0.69 11.66
5/9/2021 7:30:00 AM 7.47 45.446 0.059 6.64 0.66 11.7
5/9/2021 7:45:00 AM 7.47 45.446 0.058 6.72 0.63 11.73
5/9/2021 8:00:00 AM 7.48 45.464 0.058 6.72 0.57 11.74
5/9/2021 8:15:00 AM 7.5 45.5 0.058 6.74 0.58 11.75
5/9/2021 8:30:00 AM 7.54 45.572 0.058 6.74 0.65 11.76
5/9/2021 8:45:00 AM 7.59 45.662 0.058 6.73 0.62 11.77
5/9/2021 9:00:00 AM 7.65 45.77 0.058 6.78 0.64 11.78
5/9/2021 9:15:00 AM 7.74 45.932 0.058 6.73 0.58 11.77
5/9/2021 9:30:00 AM 7.83 46.094 0.058 6.8 0.6 11.76
5/9/2021 9:45:00 AM 7.95 46.31 0.058 6.82 0.57 11.75
5/9/2021 10:00:00 AM 8.08 46.544 0.058 6.83 0.56 11.73
5/9/2021 10:15:00 AM 8.18 46.724 0.058 6.84 0.59 11.72
5/9/2021 10:30:00 AM 8.32 46.976 0.058 6.87 0.58 11.7
5/9/2021 10:45:00 AM 8.44 47.192 0.058 6.82 0.56 11.66
5/9/2021 11:00:00 AM 8.53 47.354 0.058 6.88 0.6 11.62
5/9/2021 11:15:00 AM 8.61 47.498 0.058 6.9 0.54 11.59
5/9/2021 11:30:00 AM 8.69 47.642 0.058 6.83 0.56 11.57
5/9/2021 11:45:00 AM 8.74 47.732 0.058 6.9 0.56 11.55
5/9/2021 12:00:00 PM 8.8 47.84 0.058 6.91 0.54 11.54
5/9/2021 12:15:00 PM 8.88 47.984 0.058 6.89 0.54 11.53
5/9/2021 12:30:00 PM 8.95 48.11 0.058 6.91 0.6 11.51
5/9/2021 12:45:00 PM 9 48.2 0.058 6.9 0.57 11.48
5/9/2021 1:00:00 PM 9.01 48.218 0.058 6.91 0.68 11.45
5/9/2021 1:15:00 PM 9 48.2 0.058 6.89 0.61 11.41
5/9/2021 1:30:00 PM 8.99 48.182 0.058 6.83 0.58 11.41
5/9/2021 1:45:00 PM 8.97 48.146 0.058 6.89 0.62 11.39
5/9/2021 2:00:00 PM 8.94 48.092 0.058 6.87 0.66 11.38
5/9/2021 2:15:00 PM 8.89 48.002 0.058 6.86 0.7 11.35
5/9/2021 2:30:00 PM 8.86 47.948 0.059 6.84 0.69 11.33
5/9/2021 2:45:00 PM 8.82 47.876 0.058 6.82 0.7 11.36
5/9/2021 3:00:00 PM 8.79 47.822 0.058 6.82 0.68 11.37
5/9/2021 3:15:00 PM 8.77 47.786 0.058 6.84 0.73 11.41
5/9/2021 3:30:00 PM 8.76 47.768 0.058 6.85 0.66 11.42
5/9/2021 3:45:00 PM 8.75 47.75 0.058 6.85 0.71 11.41
5/9/2021 4:00:00 PM 8.73 47.714 0.058 6.84 0.71 11.35
5/9/2021 4:15:00 PM 8.72 47.696 0.058 6.83 0.69 11.34
5/9/2021 4:30:00 PM 8.7 47.66 0.058 6.82 0.67 11.34
5/9/2021 4:45:00 PM 8.68 47.624 0.058 6.82 0.74 11.31
5/9/2021 5:00:00 PM 8.66 47.588 0.058 6.8 0.75 11.3
5/9/2021 5:15:00 PM 8.64 47.552 0.058 6.81 0.78 11.29
5/9/2021 5:30:00 PM 8.62 47.516 0.058 6.8 0.81 11.29
5/9/2021 5:45:00 PM 8.61 47.498 0.058 6.75 0.82 11.28
5/9/2021 6:00:00 PM 8.59 47.462 0.058 6.79 0.91 11.29
5/9/2021 6:15:00 PM 8.59 47.462 0.058 6.79 0.95 11.27
5/9/2021 6:30:00 PM 8.57 47.426 0.058 6.79 0.93 11.26
5/9/2021 6:45:00 PM 8.56 47.408 0.058 6.78 1.01 11.25
5/9/2021 7:00:00 PM 8.55 47.39 0.058 6.78 1.11 11.23
5/9/2021 7:15:00 PM 8.54 47.372 0.057 6.71 1.19 11.22
5/9/2021 7:30:00 PM 8.53 47.354 0.057 6.75 1.28 11.21
5/9/2021 7:45:00 PM 8.51 47.318 0.057 6.75 1.48 11.21
5/9/2021 8:00:00 PM 8.5 47.3 0.058 6.75 1.51 11.21
5/9/2021 8:15:00 PM 8.48 47.264 0.058 6.75 1.73 11.21
5/9/2021 8:30:00 PM 8.47 47.246 0.058 6.77 1.75 11.21
5/9/2021 8:45:00 PM 8.45 47.21 0.057 6.73 1.67 11.21
5/9/2021 9:00:00 PM 8.44 47.192 0.057 6.75 1.71 11.22
5/9/2021 9:15:00 PM 8.43 47.174 0.057 6.76 1.75 11.22
5/9/2021 9:30:00 PM 8.41 47.138 0.057 6.75 1.81 11.23
5/9/2021 9:45:00 PM 8.4 47.12 0.057 6.76 1.9 11.23
5/9/2021 10:00:00 PM 8.39 47.102 0.057 6.73 1.97 11.23
5/9/2021 10:15:00 PM 8.37 47.066 0.057 6.74 1.96 11.24
5/9/2021 10:30:00 PM 8.36 47.048 0.057 6.76 2.21 11.24
5/9/2021 10:45:00 PM 8.35 47.03 0.057 6.73 2.16 11.24
5/9/2021 11:00:00 PM 8.33 46.994 0.057 6.72 2.4 11.24
5/9/2021 11:15:00 PM 8.32 46.976 0.057 6.72 2.29 11.24
5/9/2021 11:30:00 PM 8.31 46.958 0.057 6.73 2.4 11.24
5/9/2021 11:45:00 PM 8.3 46.94 0.057 6.71 2.31 11.24
5/10/2021 12:00:00 AM 8.29 46.922 0.057 6.73 2.34 11.24
5/10/2021 12:15:00 AM 8.28 46.904 0.057 6.72 2.33 11.25
5/10/2021 12:30:00 AM 8.28 46.904 0.057 6.72 2.34 11.25
5/10/2021 12:45:00 AM 8.27 46.886 0.057 6.74 2.41 11.25
5/10/2021 1:00:00 AM 8.27 46.886 0.057 6.72 2.53 11.25
5/10/2021 1:15:00 AM 8.26 46.868 0.057 6.72 2.21 11.25
5/10/2021 1:30:00 AM 8.26 46.868 0.057 6.72 2.41 11.25
5/10/2021 1:45:00 AM 8.26 46.868 0.057 6.72 2.5 11.25
5/10/2021 2:00:00 AM 8.26 46.868 0.057 6.68 2.48 11.26
5/10/2021 2:15:00 AM 8.26 46.868 0.056 6.72 2.55 11.25
5/10/2021 2:30:00 AM 8.26 46.868 0.056 6.71 2.62 11.26
5/10/2021 2:45:00 AM 8.25 46.85 0.056 6.68 2.56 11.26
5/10/2021 3:00:00 AM 8.25 46.85 0.056 6.72 2.49 11.27
5/10/2021 3:15:00 AM 8.25 46.85 0.056 6.71 2.44 11.27
5/10/2021 3:30:00 AM 8.24 46.832 0.056 6.71 2.57 11.27
5/10/2021 3:45:00 AM 8.24 46.832 0.056 6.72 2.54 11.27
5/10/2021 4:00:00 AM 8.23 46.814 0.055 6.69 2.63 11.28
5/10/2021 4:15:00 AM 8.22 46.796 0.055 6.7 2.7 11.29
5/10/2021 4:30:00 AM 8.21 46.778 0.055 6.71 2.55 11.29
5/10/2021 4:45:00 AM 8.2 46.76 0.055 6.71 2.64 11.3
5/10/2021 5:00:00 AM 8.2 46.76 0.055 6.68 2.75 11.31
5/10/2021 5:15:00 AM 8.19 46.742 0.055 6.66 2.63 11.31
5/10/2021 5:30:00 AM 8.18 46.724 0.055 6.69 2.83 11.33
5/10/2021 5:45:00 AM 8.17 46.706 0.054 6.64 2.75 11.33
5/10/2021 6:00:00 AM 8.17 46.706 0.054 6.68 2.65 11.33
5/10/2021 6:15:00 AM 8.16 46.688 0.054 6.66 2.48 11.34
5/10/2021 6:30:00 AM 8.15 46.67 0.054 6.67 2.63 11.35
5/10/2021 6:45:00 AM 8.14 46.652 0.054 6.66 2.62 11.36
5/10/2021 7:00:00 AM 8.14 46.652 0.054 6.68 2.39 11.37
5/10/2021 7:15:00 AM 8.14 46.652 0.054 6.68 2.38 11.38
5/10/2021 7:30:00 AM 8.14 46.652 0.054 6.67 2.45 11.4
5/10/2021 7:45:00 AM 8.15 46.67 0.054 6.7 2.34 11.43
5/10/2021 8:00:00 AM 8.16 46.688 0.054 6.7 2.25 11.45
5/10/2021 8:15:00 AM 8.19 46.742 0.054 6.69 2.13 11.47
5/10/2021 8:30:00 AM 8.22 46.796 0.054 6.72 2.05 11.48
5/10/2021 8:45:00 AM 8.23 46.814 0.054 6.71 1.96 11.47
5/10/2021 9:00:00 AM 8.24 46.832 0.053 6.72 1.99 11.46
5/10/2021 9:15:00 AM 8.26 46.868 0.053 6.74 1.95 11.48
5/10/2021 9:30:00 AM 8.27 46.886 0.053 6.66 1.85 11.47
5/10/2021 9:45:00 AM 8.28 46.904 0.053 6.73 1.8 11.47
5/10/2021 10:00:00 AM 8.31 46.958 0.053 6.74 1.72 11.5
5/10/2021 10:15:00 AM 8.34 47.012 0.053 6.73 1.74 11.49
5/10/2021 10:30:00 AM 8.37 47.066 0.053 6.66 1.72 11.47
5/10/2021 10:45:00 AM 8.41 47.138 0.053 6.74 1.62 11.49
5/10/2021 11:00:00 AM 8.45 47.21 0.053 6.75 1.68 11.49
5/10/2021 11:15:00 AM 8.47 47.246 0.053 6.74 1.66 11.47
5/10/2021 11:30:00 AM 8.49 47.282 0.053 6.75 1.57 11.47
5/10/2021 11:45:00 AM 8.48 47.264 0.053 6.7 1.59 11.44
5/10/2021 12:00:00 PM 8.5 47.3 0.053 6.73 1.55 11.47
5/10/2021 12:15:00 PM 8.57 47.426 0.053 6.76 1.47 11.49
5/10/2021 12:30:00 PM 8.83 47.894 0.053 6.74 1.53 11.47
5/10/2021 12:45:00 PM 8.9 48.02 0.053 6.78 1.42 11.43
5/10/2021 1:00:00 PM 9.01 48.218 0.053 6.75 1.42 11.4
5/10/2021 1:15:00 PM 9.16 48.488 0.053 6.77 1.46 11.36
5/10/2021 1:30:00 PM 9.18 48.524 0.053 6.77 1.62 11.34
5/10/2021 1:45:00 PM 9.19 48.542 0.053 6.74 1.34 11.3
5/10/2021 2:00:00 PM 9.28 48.704 0.053 6.77 1.52 11.3
5/10/2021 2:15:00 PM 9.36 48.848 0.053 6.79 1.34 11.29
5/10/2021 2:30:00 PM 9.41 48.938 0.053 6.77 1.37 11.28
5/10/2021 2:45:00 PM 9.5 49.1 0.053 6.77 1.37 11.24
5/10/2021 3:00:00 PM 9.5 49.1 0.053 6.77 1.28 11.23
5/10/2021 3:15:00 PM 9.53 49.154 0.053 6.78 1.29 11.21
5/10/2021 3:30:00 PM 9.55 49.19 0.053 6.78 1.29 11.17
5/10/2021 3:45:00 PM 9.53 49.154 0.053 6.75 1.36 11.18
5/10/2021 4:00:00 PM 9.52 49.136 0.053 6.76 1.23 11.18
5/10/2021 4:15:00 PM 9.52 49.136 0.053 6.77 1.33 11.18
5/10/2021 4:30:00 PM 9.56 49.208 0.054 6.76 1.27 11.15
5/10/2021 4:45:00 PM 9.6 49.28 0.054 6.69 1.34 11.11
5/10/2021 5:00:00 PM 9.68 49.424 0.054 6.76 1.25 11.1
5/10/2021 5:15:00 PM 9.76 49.568 0.054 6.72 1.29 11.06
5/10/2021 5:30:00 PM 9.83 49.694 0.054 6.73 1.27 11.04
5/10/2021 5:45:00 PM 9.88 49.784 0.054 6.72 1.2 11.03
5/10/2021 6:00:00 PM 9.93 49.874 0.054 6.75 1.26 11
5/10/2021 6:15:00 PM 9.97 49.946 0.054 6.74 1.19 10.97
5/10/2021 6:30:00 PM 10 50 0.054 6.62 1.28 10.94
5/10/2021 6:45:00 PM 10.03 50.054 0.054 6.73 1.27 10.93
5/10/2021 7:00:00 PM 10.06 50.108 0.054 6.7 1.17 10.91
5/10/2021 7:15:00 PM 10.08 50.144 0.054 6.7 1.23 10.9
5/10/2021 7:30:00 PM 10.1 50.18 0.054 6.7 1.23 10.88
5/10/2021 7:45:00 PM 10.09 50.162 0.054 6.59 1.18 10.87
5/10/2021 8:00:00 PM 10.07 50.126 0.054 6.7 1.19 10.86
5/10/2021 8:15:00 PM 10.04 50.072 0.055 6.68 1.21 10.85
5/10/2021 8:30:00 PM 10.01 50.018 0.055 6.67 1.15 10.85
5/10/2021 8:45:00 PM 9.97 49.946 0.055 6.67 1.19 10.86
5/10/2021 9:00:00 PM 9.92 49.856 0.055 6.66 1.16 10.88
5/10/2021 9:15:00 PM 9.88 49.784 0.055 6.67 1.2 10.89
5/10/2021 9:30:00 PM 9.84 49.712 0.055 6.68 1.22 10.9
5/10/2021 9:45:00 PM 9.79 49.622 0.055 6.67 1.71 10.91
5/10/2021 10:00:00 PM 9.75 49.55 0.055 6.67 1.14 10.92
5/10/2021 10:15:00 PM 9.7 49.46 0.055 6.65 1.16 10.94
5/10/2021 10:30:00 PM 9.66 49.388 0.055 6.68 1.11 10.94
5/10/2021 10:45:00 PM 9.62 49.316 0.055 6.65 1.09 10.96
5/10/2021 11:00:00 PM 9.58 49.244 0.055 6.64 1.08 10.97
5/10/2021 11:15:00 PM 9.54 49.172 0.055 6.65 1.13 10.98
5/10/2021 11:30:00 PM 9.5 49.1 0.055 6.64 1.36 10.99
5/10/2021 11:45:00 PM 9.46 49.028 0.055 6.64 1 11
5/11/2021 12:00:00 AM 9.41 48.938 0.056 6.66 1.04 11.02
5/11/2021 12:15:00 AM 9.37 48.866 0.056 6.65 0.99 11.03
5/11/2021 12:30:00 AM 9.32 48.776 0.056 6.62 1 11.04
5/11/2021 12:45:00 AM 9.27 48.686 0.056 6.66 1.04 11.06
5/11/2021 1:00:00 AM 9.22 48.596 0.056 6.63 1.03 11.07
5/11/2021 1:15:00 AM 9.16 48.488 0.056 6.66 0.99 11.09
5/11/2021 1:30:00 AM 9.11 48.398 0.056 6.64 1 11.1
5/11/2021 1:45:00 AM 9.06 48.308 0.056 6.65 1.04 11.12
5/11/2021 2:00:00 AM 9.01 48.218 0.056 6.64 1.07 11.14
5/11/2021 2:15:00 AM 8.95 48.11 0.056 6.63 0.96 11.15
5/11/2021 2:30:00 AM 8.89 48.002 0.056 6.64 1 11.17
5/11/2021 2:45:00 AM 8.84 47.912 0.056 6.64 0.95 11.18
5/11/2021 3:00:00 AM 8.78 47.804 0.056 6.6 1.01 11.2
5/11/2021 3:15:00 AM 8.72 47.696 0.056 6.64 0.98 11.21
5/11/2021 3:30:00 AM 8.67 47.606 0.056 6.63 0.92 11.23
5/11/2021 3:45:00 AM 8.61 47.498 0.056 6.64 1.03 11.25
5/11/2021 4:00:00 AM 8.56 47.408 0.056 6.65 1 11.26
5/11/2021 4:15:00 AM 8.52 47.336 0.056 6.64 0.96 11.28
5/11/2021 4:30:00 AM 8.47 47.246 0.056 6.63 0.98 11.29
5/11/2021 4:45:00 AM 8.41 47.138 0.057 6.62 0.95 11.31
5/11/2021 5:00:00 AM 8.36 47.048 0.057 6.65 0.96 11.32
5/11/2021 5:15:00 AM 8.3 46.94 0.057 6.62 1.13 11.34
5/11/2021 5:30:00 AM 8.25 46.85 0.057 6.63 0.93 11.36
5/11/2021 5:45:00 AM 8.19 46.742 0.057 6.63 0.98 11.37
5/11/2021 6:00:00 AM 8.14 46.652 0.057 6.65 0.89 11.39
5/11/2021 6:15:00 AM 8.08 46.544 0.057 6.63 0.89 11.42
5/11/2021 6:30:00 AM 8.03 46.454 0.057 6.63 0.88 11.44
5/11/2021 6:45:00 AM 7.99 46.382 0.057 6.63 0.89 11.47
5/11/2021 7:00:00 AM 7.95 46.31 0.057 6.64 0.94 11.49
5/11/2021 7:15:00 AM 7.91 46.238 0.057 6.65 0.95 11.53
5/11/2021 7:30:00 AM 7.88 46.184 0.057 6.66 0.82 11.55
5/11/2021 7:45:00 AM 7.86 46.148 0.056 6.66 0.88 11.57
5/11/2021 8:00:00 AM 7.85 46.13 0.056 6.68 0.86 11.59
5/11/2021 8:15:00 AM 7.85 46.13 0.056 6.69 0.83 11.61
5/11/2021 8:30:00 AM 7.87 46.166 0.056 6.64 0.77 11.63
5/11/2021 8:45:00 AM 7.92 46.256 0.056 6.71 0.8 11.65
5/11/2021 9:00:00 AM 7.98 46.364 0.056 6.72 0.81 11.66
5/11/2021 9:15:00 AM 8.04 46.472 0.056 6.73 0.81 11.66
5/11/2021 9:30:00 AM 8.08 46.544 0.056 6.71 0.86 11.65
5/11/2021 9:45:00 AM 8.18 46.724 0.056 6.74 0.87 11.64
5/11/2021 10:00:00 AM 8.29 46.922 0.056 6.77 0.85 11.64
5/11/2021 10:15:00 AM 8.39 47.102 0.056 6.76 0.78 11.61
5/11/2021 10:30:00 AM 8.54 47.372 0.056 6.78 0.83 11.58
5/11/2021 10:45:00 AM 8.63 47.534 0.056 6.78 0.84 11.54
5/11/2021 11:00:00 AM 8.74 47.732 0.056 6.8 0.84 11.51
5/11/2021 11:15:00 AM 8.95 48.11 0.056 6.8 0.88 11.49
5/11/2021 11:30:00 AM 9.18 48.524 0.056 6.8 0.81 11.44
5/11/2021 11:45:00 AM 9.39 48.902 0.056 6.81 0.9 11.37
5/11/2021 12:00:00 PM 9.59 49.262 0.056 6.8 0.81 11.33
5/11/2021 12:15:00 PM 9.75 49.55 0.056 6.82 0.84 11.3
5/11/2021 12:30:00 PM 9.81 49.658 0.056 6.82 1.01 11.25
5/11/2021 12:45:00 PM 9.78 49.604 0.056 6.82 0.87 11.24
5/11/2021 1:00:00 PM 9.95 49.91 0.056 6.8 0.86 11.23
5/11/2021 1:15:00 PM 9.96 49.928 0.056 6.84 0.84 11.2
5/11/2021 1:30:00 PM 9.83 49.694 0.056 6.83 0.81 11.2
5/11/2021 1:45:00 PM 9.67 49.406 0.056 6.83 0.85 11.24
5/11/2021 2:00:00 PM 9.53 49.154 0.056 6.81 0.97 11.28
5/11/2021 2:15:00 PM 9.45 49.01 0.056 6.82 0.86 11.28
5/11/2021 2:30:00 PM 9.46 49.028 0.056 6.81 0.91 11.3
5/11/2021 2:45:00 PM 9.43 48.974 0.056 6.79 1.03 11.24
5/11/2021 3:00:00 PM 9.37 48.866 0.056 6.77 0.84 11.16
5/11/2021 3:15:00 PM 9.34 48.812 0.056 6.77 0.9 11.2
5/11/2021 3:30:00 PM 9.39 48.902 0.056 6.8 0.88 11.24
5/11/2021 3:45:00 PM 9.43 48.974 0.056 6.79 0.79 11.21
5/11/2021 4:00:00 PM 9.51 49.118 0.056 6.8 0.83 11.22
5/11/2021 4:15:00 PM 9.52 49.136 0.056 6.81 0.8 11.19
5/11/2021 4:30:00 PM 9.53 49.154 0.056 6.78 0.77 11.18
5/11/2021 4:45:00 PM 9.56 49.208 0.056 6.8 0.81 11.16
5/11/2021 5:00:00 PM 9.57 49.226 0.056 6.77 0.79 11.1
5/11/2021 5:15:00 PM 9.58 49.244 0.056 6.77 0.79 11.14
5/11/2021 5:30:00 PM 9.61 49.298 0.056 6.75 0.89 11.12
5/11/2021 5:45:00 PM 9.62 49.316 0.056 6.77 0.83 11.12
5/11/2021 6:00:00 PM 9.63 49.334 0.056 6.76 0.92 11.11
5/11/2021 6:15:00 PM 9.65 49.37 0.056 6.78 0.84 11.09
5/11/2021 6:30:00 PM 9.67 49.406 0.056 6.72 0.85 11.08
5/11/2021 6:45:00 PM 9.69 49.442 0.056 6.75 0.83 11.06
5/11/2021 7:00:00 PM 9.68 49.424 0.056 6.74 0.88 11.05
5/11/2021 7:15:00 PM 9.66 49.388 0.056 6.75 0.91 11.03
5/11/2021 7:30:00 PM 9.64 49.352 0.056 6.73 0.84 11.02
5/11/2021 7:45:00 PM 9.62 49.316 0.056 6.71 0.83 11
5/11/2021 8:00:00 PM 9.59 49.262 0.056 6.74 0.84 11.01
5/11/2021 8:15:00 PM 9.56 49.208 0.056 6.7 0.85 11
5/11/2021 8:30:00 PM 9.52 49.136 0.056 6.69 0.86 11
5/11/2021 8:45:00 PM 9.47 49.046 0.056 6.72 0.86 11.01
5/11/2021 9:00:00 PM 9.41 48.938 0.056 6.69 0.89 11.02
5/11/2021 9:15:00 PM 9.35 48.83 0.056 6.69 0.89 11.05
5/11/2021 9:30:00 PM 9.3 48.74 0.056 6.71 0.89 11.06
5/11/2021 9:45:00 PM 9.24 48.632 0.056 6.69 0.85 11.07
5/11/2021 10:00:00 PM 9.18 48.524 0.056 6.69 0.89 11.09
5/11/2021 10:15:00 PM 9.13 48.434 0.056 6.68 0.85 11.11
5/11/2021 10:30:00 PM 9.07 48.326 0.056 6.69 0.96 11.13
5/11/2021 10:45:00 PM 9.02 48.236 0.056 6.68 0.95 11.14
5/11/2021 11:00:00 PM 8.97 48.146 0.056 6.7 0.82 11.16
5/11/2021 11:15:00 PM 8.91 48.038 0.056 6.69 0.85 11.18
5/11/2021 11:30:00 PM 8.86 47.948 0.056 6.7 0.86 11.19
5/11/2021 11:45:00 PM 8.81 47.858 0.056 6.7 0.91 11.21
5/12/2021 12:00:00 AM 8.75 47.75 0.056 6.71 0.85 11.23
5/12/2021 12:15:00 AM 8.69 47.642 0.056 6.69 0.79 11.25
5/12/2021 12:30:00 AM 8.63 47.534 0.056 6.66 0.92 11.27
5/12/2021 12:45:00 AM 8.56 47.408 0.056 6.68 0.78 11.28
5/12/2021 1:00:00 AM 8.5 47.3 0.056 6.69 0.84 11.3
5/12/2021 1:15:00 AM 8.43 47.174 0.056 6.67 0.83 11.32
5/12/2021 1:30:00 AM 8.36 47.048 0.056 6.68 0.86 11.34
5/12/2021 1:45:00 AM 8.3 46.94 0.056 6.68 0.74 11.36
5/12/2021 2:00:00 AM 8.23 46.814 0.056 6.68 0.84 11.38
5/12/2021 2:15:00 AM 8.17 46.706 0.056 6.69 0.86 11.4
5/12/2021 2:30:00 AM 8.1 46.58 0.056 6.63 0.74 11.41
5/12/2021 2:45:00 AM 8.03 46.454 0.056 6.67 0.82 11.44
5/12/2021 3:00:00 AM 7.97 46.346 0.056 6.67 0.79 11.45
5/12/2021 3:15:00 AM 7.9 46.22 0.056 6.65 0.79 11.47
5/12/2021 3:30:00 AM 7.84 46.112 0.056 6.68 0.8 11.49
5/12/2021 3:45:00 AM 7.77 45.986 0.056 6.66 0.78 11.51
5/12/2021 4:00:00 AM 7.71 45.878 0.056 6.68 0.86 11.53
5/12/2021 4:15:00 AM 7.65 45.77 0.056 6.66 0.77 11.55
5/12/2021 4:30:00 AM 7.59 45.662 0.056 6.66 0.72 11.57
5/12/2021 4:45:00 AM 7.53 45.554 0.054 6.61 0.82 11.58
5/12/2021 5:00:00 AM 7.48 45.464 0.056 6.69 0.87 11.61
5/12/2021 5:15:00 AM 7.42 45.356 0.056 6.67 0.8 11.62
5/12/2021 5:30:00 AM 7.36 45.248 0.056 6.69 0.7 11.64
5/12/2021 5:45:00 AM 7.31 45.158 0.056 6.68 0.78 11.66
5/12/2021 6:00:00 AM 7.27 45.086 0.056 6.65 0.75 11.68
5/12/2021 6:15:00 AM 7.23 45.014 0.056 6.66 0.72 11.71
5/12/2021 6:30:00 AM 7.2 44.96 0.056 6.67 0.77 11.73
5/12/2021 6:45:00 AM 7.18 44.924 0.056 6.68 0.75 11.76
5/12/2021 7:00:00 AM 7.16 44.888 0.056 6.67 0.81 11.79
5/12/2021 7:15:00 AM 7.14 44.852 0.056 6.66 0.76 11.83
5/12/2021 7:30:00 AM 7.14 44.852 0.056 6.71 0.74 11.87
5/12/2021 7:45:00 AM 7.14 44.852 0.055 6.7 0.76 11.89
5/12/2021 8:00:00 AM 7.15 44.87 0.055 6.68 0.67 11.91
5/12/2021 8:15:00 AM 7.17 44.906 0.055 6.74 0.75 11.93
5/12/2021 8:30:00 AM 7.21 44.978 0.055 6.75 0.77 11.95
5/12/2021 8:45:00 AM 7.26 45.068 0.055 6.75 0.74 11.94
5/12/2021 9:00:00 AM 7.33 45.194 0.055 6.74 0.74 11.93
5/12/2021 9:15:00 AM 7.41 45.338 0.055 6.76 0.68 11.91
5/12/2021 9:30:00 AM 7.49 45.482 0.055 6.77 0.68 11.9
5/12/2021 9:45:00 AM 7.59 45.662 0.055 6.79 0.66 11.89
5/12/2021 10:00:00 AM 7.7 45.86 0.055 6.79 0.63 11.86
5/12/2021 10:15:00 AM 7.84 46.112 0.055 6.8 0.6 11.84
5/12/2021 10:30:00 AM 8 46.4 0.055 6.8 0.72 11.8
5/12/2021 10:45:00 AM 8.17 46.706 0.055 6.82 0.63 11.77
5/12/2021 11:00:00 AM 8.38 47.084 0.055 6.82 0.6 11.72
5/12/2021 11:15:00 AM 8.62 47.516 0.055 6.83 0.63 11.67
5/12/2021 11:30:00 AM 8.78 47.804 0.055 6.83 0.66 11.59
5/12/2021 11:45:00 AM 8.98 48.164 0.054 6.84 0.75 11.55
5/12/2021 12:00:00 PM 9.16 48.488 0.055 6.84 0.59 11.51
5/12/2021 12:15:00 PM 9.32 48.776 0.054 6.85 0.68 11.44
5/12/2021 12:30:00 PM 9.41 48.938 0.054 6.84 0.61 11.39
5/12/2021 12:45:00 PM 9.63 49.334 0.054 6.85 0.6 11.36
5/12/2021 1:00:00 PM 9.87 49.766 0.054 6.86 0.7 11.33
5/12/2021 1:15:00 PM 9.86 49.748 0.055 6.85 0.58 11.28
5/12/2021 1:30:00 PM 9.98 49.964 0.055 6.86 0.6 11.26
5/12/2021 1:45:00 PM 10.13 50.234 0.055 6.86 0.73 11.2
5/12/2021 2:00:00 PM 10.21 50.378 0.055 6.87 0.63 11.19
5/12/2021 2:15:00 PM 10.27 50.486 0.055 6.8 0.66 11.15
5/12/2021 2:30:00 PM 10.41 50.738 0.055 6.89 0.63 11.14
5/12/2021 2:45:00 PM 10.4 50.72 0.055 6.89 0.66 11.1
5/12/2021 3:00:00 PM 10.41 50.738 0.055 6.87 0.73 11.11
5/12/2021 3:15:00 PM 10.4 50.72 0.055 6.89 0.86 11.09
5/12/2021 3:30:00 PM 10.38 50.684 0.055 6.87 0.79 11.07
5/12/2021 3:45:00 PM 10.35 50.63 0.055 6.87 0.74 11.06
5/12/2021 4:00:00 PM 10.36 50.648 0.055 6.87 0.76 11.06
5/12/2021 4:15:00 PM 10.4 50.72 0.055 6.83 0.68 11.07
5/12/2021 4:30:00 PM 10.36 50.648 0.055 6.86 0.78 11.04
5/12/2021 4:45:00 PM 10.39 50.702 0.055 6.83 0.76 11.05
5/12/2021 5:00:00 PM 10.42 50.756 0.055 6.85 0.67 11.02
5/12/2021 5:15:00 PM 10.44 50.792 0.055 6.86 0.65 11.02
5/12/2021 5:30:00 PM 10.44 50.792 0.055 6.83 0.6 11.01
5/12/2021 5:45:00 PM 10.45 50.81 0.055 6.82 0.61 10.98
5/12/2021 6:00:00 PM 10.45 50.81 0.055 6.81 0.58 10.94
5/12/2021 6:15:00 PM 10.42 50.756 0.055 6.79 0.61 10.92
5/12/2021 6:30:00 PM 10.42 50.756 0.055 6.83 0.64 10.93
5/12/2021 6:45:00 PM 10.41 50.738 0.055 6.78 0.64 10.91
5/12/2021 7:00:00 PM 10.38 50.684 0.055 6.78 0.64 10.87
5/12/2021 7:15:00 PM 10.35 50.63 0.055 6.75 0.57 10.86
5/12/2021 7:30:00 PM 10.33 50.594 0.055 6.66 0.63 10.86
5/12/2021 7:45:00 PM 10.3 50.54 0.055 6.75 0.58 10.85
5/12/2021 8:00:00 PM 10.27 50.486 0.055 6.73 0.61 10.85
5/12/2021 8:15:00 PM 10.23 50.414 0.055 6.7 0.58 10.84
5/12/2021 8:30:00 PM 10.19 50.342 0.055 6.74 0.68 10.84
5/12/2021 8:45:00 PM 10.15 50.27 0.055 6.61 0.68 10.85
5/12/2021 9:00:00 PM 10.1 50.18 0.055 6.72 0.67 10.86
5/12/2021 9:15:00 PM 10.04 50.072 0.055 6.73 0.66 10.87
5/12/2021 9:30:00 PM 9.99 49.982 0.055 6.7 0.62 10.89
5/12/2021 9:45:00 PM 9.93 49.874 0.055 6.71 0.68 10.91
5/12/2021 10:00:00 PM 9.87 49.766 0.055 6.7 0.62 10.93
5/12/2021 10:15:00 PM 9.81 49.658 0.055 6.72 0.64 10.94
5/12/2021 10:30:00 PM 9.75 49.55 0.055 6.71 0.76 10.96
5/12/2021 10:45:00 PM 9.68 49.424 0.055 6.7 0.63 10.98
5/12/2021 11:00:00 PM 9.61 49.298 0.055 6.7 0.78 11.01
5/12/2021 11:15:00 PM 9.54 49.172 0.055 6.71 0.7 11.02
5/12/2021 11:30:00 PM 9.47 49.046 0.055 6.69 0.64 11.04
5/12/2021 11:45:00 PM 9.4 48.92 0.055 6.72 0.7 11.06
5/13/2021 12:00:00 AM 9.33 48.794 0.055 6.67 0.58 11.08
5/13/2021 12:15:00 AM 9.27 48.686 0.055 6.69 0.67 11.1
5/13/2021 12:30:00 AM 9.2 48.56 0.055 6.7 0.69 11.12
5/13/2021 12:45:00 AM 9.14 48.452 0.055 6.71 0.69 11.13
5/13/2021 1:00:00 AM 9.07 48.326 0.055 6.7 0.66 11.15
5/13/2021 1:15:00 AM 9.01 48.218 0.055 6.67 0.61 11.17
5/13/2021 1:30:00 AM 8.94 48.092 0.055 6.71 0.61 11.18
5/13/2021 1:45:00 AM 8.89 48.002 0.055 6.71 0.6 11.2
5/13/2021 2:00:00 AM 8.82 47.876 0.055 6.69 0.62 11.22
5/13/2021 2:15:00 AM 8.76 47.768 0.055 6.71 0.64 11.24
5/13/2021 2:30:00 AM 8.69 47.642 0.055 6.69 0.58 11.26
5/13/2021 2:45:00 AM 8.62 47.516 0.055 6.69 0.61 11.28
5/13/2021 3:00:00 AM 8.56 47.408 0.055 6.69 0.66 11.29
5/13/2021 3:15:00 AM 8.49 47.282 0.055 6.68 0.65 11.31
5/13/2021 3:30:00 AM 8.42 47.156 0.055 6.65 0.65 11.33
5/13/2021 3:45:00 AM 8.36 47.048 0.055 6.69 0.59 11.35
5/13/2021 4:00:00 AM 8.29 46.922 0.055 6.68 0.65 11.37
5/13/2021 4:15:00 AM 8.22 46.796 0.055 6.69 0.63 11.39
5/13/2021 4:30:00 AM 8.16 46.688 0.055 6.7 0.65 11.41
5/13/2021 4:45:00 AM 8.1 46.58 0.055 6.6 0.64 11.42
5/13/2021 5:00:00 AM 8.04 46.472 0.055 6.7 0.63 11.45
5/13/2021 5:15:00 AM 7.98 46.364 0.055 6.67 0.67 11.46
5/13/2021 5:30:00 AM 7.92 46.256 0.055 6.7 0.6 11.48
5/13/2021 5:45:00 AM 7.87 46.166 0.055 6.67 0.63 11.5
5/13/2021 6:00:00 AM 7.82 46.076 0.055 6.67 0.65 11.52
5/13/2021 6:15:00 AM 7.76 45.968 0.055 6.68 0.61 11.55
5/13/2021 6:30:00 AM 7.72 45.896 0.055 6.7 0.64 11.58
5/13/2021 6:45:00 AM 7.68 45.824 0.055 6.69 0.57 11.61
5/13/2021 7:00:00 AM 7.64 45.752 0.055 6.69 0.56 11.63
5/13/2021 7:15:00 AM 7.62 45.716 0.054 6.68 0.59 11.66
5/13/2021 7:30:00 AM 7.6 45.68 0.054 6.71 0.57 11.69
5/13/2021 7:45:00 AM 7.59 45.662 0.054 6.71 0.55 11.71
5/13/2021 8:00:00 AM 7.59 45.662 0.054 6.7 0.59 11.74
5/13/2021 8:15:00 AM 7.61 45.698 0.054 6.72 0.57 11.77
5/13/2021 8:30:00 AM 7.64 45.752 0.054 6.67 0.54 11.79
5/13/2021 8:45:00 AM 7.71 45.878 0.054 6.76 0.55 11.8
5/13/2021 9:00:00 AM 7.79 46.022 0.054 6.76 0.55 11.8
5/13/2021 9:15:00 AM 7.88 46.184 0.054 6.7 0.55 11.79
5/13/2021 9:30:00 AM 7.99 46.382 0.054 6.79 0.52 11.78
5/13/2021 9:45:00 AM 8.11 46.598 0.054 6.81 0.47 11.76
5/13/2021 10:00:00 AM 8.26 46.868 0.054 6.81 0.54 11.73
5/13/2021 10:15:00 AM 8.41 47.138 0.054 6.8 0.52 11.71
5/13/2021 10:30:00 AM 8.5 47.3 0.054 6.82 0.51 11.66
5/13/2021 10:45:00 AM 8.61 47.498 0.054 6.83 0.58 11.63
5/13/2021 11:00:00 AM 8.7 47.66 0.054 6.81 0.46 11.58
5/13/2021 11:15:00 AM 8.76 47.768 0.054 6.84 0.5 11.57
5/13/2021 11:30:00 AM 8.92 48.056 0.054 6.85 0.44 11.58
5/13/2021 11:45:00 AM 9.06 48.308 0.054 6.88 0.56 11.54
5/13/2021 12:00:00 PM 9.17 48.506 0.054 6.84 0.45 11.49
5/13/2021 12:15:00 PM 9.38 48.884 0.054 6.84 0.49 11.47
5/13/2021 12:30:00 PM 9.68 49.424 0.054 6.89 0.48 11.39
5/13/2021 12:45:00 PM 9.98 49.964 0.054 6.87 0.48 11.36
5/13/2021 1:00:00 PM 10 50 0.054 6.89 0.47 11.28
5/13/2021 1:15:00 PM 10.23 50.414 0.054 6.91 0.42 11.27
5/13/2021 1:30:00 PM 10.24 50.432 0.054 6.88 0.47 11.16
5/13/2021 1:45:00 PM 10.27 50.486 0.054 6.89 0.5 11.15
5/13/2021 2:00:00 PM 10.2 50.36 0.054 6.87 0.53 11.11
5/13/2021 2:15:00 PM 10.14 50.252 0.054 6.89 0.51 11.13
5/13/2021 2:30:00 PM 10.09 50.162 0.054 6.84 0.47 11.06
5/13/2021 2:45:00 PM 10.05 50.09 0.054 6.84 0.53 11.13
5/13/2021 3:00:00 PM 10.08 50.144 0.054 6.86 0.51 11.2
5/13/2021 3:15:00 PM 10.15 50.27 0.054 6.9 0.57 11.2
5/13/2021 3:30:00 PM 10.16 50.288 0.054 6.89 0.52 11.18
5/13/2021 3:45:00 PM 10.22 50.396 0.054 6.9 0.5 11.18
5/13/2021 4:00:00 PM 10.29 50.522 0.054 6.89 0.54 11.15
5/13/2021 4:15:00 PM 10.34 50.612 0.054 6.89 0.49 11.1
5/13/2021 4:30:00 PM 10.37 50.666 0.054 6.89 0.53 11.08
5/13/2021 4:45:00 PM 10.43 50.774 0.054 6.88 0.54 11.06
5/13/2021 5:00:00 PM 10.51 50.918 0.054 6.88 0.53 11.04
5/13/2021 5:15:00 PM 10.51 50.918 0.054 6.88 0.57 11
5/13/2021 5:30:00 PM 10.48 50.864 0.054 6.83 0.49 10.94
5/13/2021 5:45:00 PM 10.48 50.864 0.054 6.84 0.6 10.92
5/13/2021 6:00:00 PM 10.47 50.846 0.054 6.79 0.55 10.91
5/13/2021 6:15:00 PM 10.47 50.846 0.054 6.81 0.51 10.89
5/13/2021 6:30:00 PM 10.47 50.846 0.054 6.78 0.49 10.88
5/13/2021 6:45:00 PM 10.47 50.846 0.054 6.82 0.5 10.87
5/13/2021 7:00:00 PM 10.47 50.846 0.054 6.78 0.56 10.86
5/13/2021 7:15:00 PM 10.45 50.81 0.054 6.8 0.61 10.84
5/13/2021 7:30:00 PM 10.43 50.774 0.054 6.76 0.57 10.84
5/13/2021 7:45:00 PM 10.41 50.738 0.054 6.78 0.56 10.83
5/13/2021 8:00:00 PM 10.38 50.684 0.054 6.75 0.57 10.82
5/13/2021 8:15:00 PM 10.36 50.648 0.054 6.74 0.6 10.8
5/13/2021 8:30:00 PM 10.33 50.594 0.054 6.74 0.55 10.8
5/13/2021 8:45:00 PM 10.29 50.522 0.054 6.73 0.59 10.8
5/13/2021 9:00:00 PM 10.25 50.45 0.054 6.74 0.69 10.81
5/13/2021 9:15:00 PM 10.2 50.36 0.054 6.7 0.66 10.82
5/13/2021 9:30:00 PM 10.15 50.27 0.054 6.71 0.61 10.84
5/13/2021 9:45:00 PM 10.1 50.18 0.054 6.74 0.56 10.85
5/13/2021 10:00:00 PM 10.05 50.09 0.054 6.73 0.57 10.86
5/13/2021 10:15:00 PM 10 50 0.054 6.74 0.65 10.88
5/13/2021 10:30:00 PM 9.94 49.892 0.054 6.72 0.62 10.9
5/13/2021 10:45:00 PM 9.89 49.802 0.054 6.71 0.55 10.91
5/13/2021 11:00:00 PM 9.83 49.694 0.054 6.73 0.55 10.93
5/13/2021 11:15:00 PM 9.77 49.586 0.054 6.73 0.57 10.94
5/13/2021 11:30:00 PM 9.71 49.478 0.054 6.72 0.63 10.96
5/13/2021 11:45:00 PM 9.66 49.388 0.054 6.72 0.58 10.98
5/14/2021 12:00:00 AM 9.59 49.262 0.054 6.7 0.62 11
5/14/2021 12:15:00 AM 9.53 49.154 0.054 6.71 0.57 11
5/14/2021 12:30:00 AM 9.47 49.046 0.055 6.72 0.6 11.03
5/14/2021 12:45:00 AM 9.41 48.938 0.055 6.71 0.57 11.04
5/14/2021 1:00:00 AM 9.35 48.83 0.055 6.71 0.59 11.06
5/14/2021 1:15:00 AM 9.29 48.722 0.055 6.7 0.65 11.08
5/14/2021 1:30:00 AM 9.23 48.614 0.055 6.71 0.59 11.1
5/14/2021 1:45:00 AM 9.17 48.506 0.055 6.72 0.55 11.11
5/14/2021 2:00:00 AM 9.11 48.398 0.055 6.71 0.59 11.13
5/14/2021 2:15:00 AM 9.05 48.29 0.055 6.65 0.57 11.15
5/14/2021 2:30:00 AM 8.99 48.182 0.055 6.7 0.55 11.16
5/14/2021 2:45:00 AM 8.93 48.074 0.055 6.62 0.57 11.18
5/14/2021 3:00:00 AM 8.88 47.984 0.055 6.72 0.6 11.2
5/14/2021 3:15:00 AM 8.82 47.876 0.055 6.69 0.58 11.21
5/14/2021 3:30:00 AM 8.76 47.768 0.055 6.72 0.59 11.23
5/14/2021 3:45:00 AM 8.71 47.678 0.055 6.71 0.62 11.24
5/14/2021 4:00:00 AM 8.65 47.57 0.055 6.71 0.58 11.26
5/14/2021 4:15:00 AM 8.6 47.48 0.055 6.7 0.57 11.28
5/14/2021 4:30:00 AM 8.55 47.39 0.055 6.7 0.55 11.29
5/14/2021 4:45:00 AM 8.49 47.282 0.055 6.68 0.61 11.31
5/14/2021 5:00:00 AM 8.44 47.192 0.055 6.7 0.61 11.32
5/14/2021 5:15:00 AM 8.39 47.102 0.055 6.71 0.54 11.34
5/14/2021 5:30:00 AM 8.33 46.994 0.055 6.71 0.56 11.36
5/14/2021 5:45:00 AM 8.28 46.904 0.055 6.7 0.59 11.37
5/14/2021 6:00:00 AM 8.23 46.814 0.055 6.7 0.53 11.39
5/14/2021 6:15:00 AM 8.18 46.724 0.055 6.72 0.62 11.43
5/14/2021 6:30:00 AM 8.13 46.634 0.055 6.72 0.55 11.45
5/14/2021 6:45:00 AM 8.09 46.562 0.055 6.72 0.6 11.48
5/14/2021 7:00:00 AM 8.06 46.508 0.055 6.71 0.55 11.51
5/14/2021 7:15:00 AM 8.03 46.454 0.055 6.74 0.58 11.54
5/14/2021 7:30:00 AM 8.01 46.418 0.055 6.74 0.59 11.57
5/14/2021 7:45:00 AM 8.01 46.418 0.055 6.75 0.52 11.6
5/14/2021 8:00:00 AM 8.01 46.418 0.055 6.75 0.52 11.63
5/14/2021 8:15:00 AM 8.03 46.454 0.055 6.77 0.54 11.65
5/14/2021 8:30:00 AM 8.07 46.526 0.055 6.79 0.49 11.67
5/14/2021 8:45:00 AM 8.12 46.616 0.055 6.79 0.5 11.68
5/14/2021 9:00:00 AM 8.2 46.76 0.055 6.81 0.51 11.69
5/14/2021 9:15:00 AM 8.3 46.94 0.055 6.81 0.54 11.68
5/14/2021 9:30:00 AM 8.4 47.12 0.054 6.82 0.55 11.68
5/14/2021 9:45:00 AM 8.52 47.336 0.054 6.82 0.47 11.66
5/14/2021 10:00:00 AM 8.66 47.588 0.054 6.86 0.48 11.64
5/14/2021 10:15:00 AM 8.81 47.858 0.054 6.84 0.43 11.61
5/14/2021 10:30:00 AM 8.98 48.164 0.054 6.86 0.54 11.59
5/14/2021 10:45:00 AM 9.18 48.524 0.054 6.88 0.5 11.54
5/14/2021 11:00:00 AM 9.4 48.92 0.054 6.87 0.51 11.49
5/14/2021 11:15:00 AM 9.64 49.352 0.054 6.9 0.46 11.44
5/14/2021 11:30:00 AM 9.9 49.82 0.054 6.92 0.42 11.38
5/14/2021 11:45:00 AM 10.18 50.324 0.054 6.94 0.41 11.32
5/14/2021 12:00:00 PM 10.5 50.9 0.054 6.94 0.47 11.26
5/14/2021 12:15:00 PM 10.57 51.026 0.054 6.89 0.42 11.07
5/14/2021 12:30:00 PM 10.53 50.954 0.054 6.84 0.52 11.01
5/14/2021 12:45:00 PM 10.52 50.936 0.054 6.89 0.47 11.06
5/14/2021 1:00:00 PM 10.56 51.008 0.054 6.93 0.41 11.13
5/14/2021 1:15:00 PM 10.7 51.26 0.054 6.92 0.43 11.15
5/14/2021 1:30:00 PM 10.88 51.584 0.054 6.95 0.42 11.12
5/14/2021 1:45:00 PM 11.07 51.926 0.054 6.97 0.44 11.09
5/14/2021 2:00:00 PM 11.22 52.196 0.054 6.99 0.43 11.04
5/14/2021 2:15:00 PM 11.26 52.268 0.054 6.97 0.43 10.98
5/14/2021 2:30:00 PM 11.16 52.088 0.054 6.97 0.42 10.96
5/14/2021 2:45:00 PM 11.05 51.89 0.054 6.95 0.51 10.98
5/14/2021 3:00:00 PM 10.93 51.674 0.054 6.95 0.45 11.01
5/14/2021 3:15:00 PM 10.86 51.548 0.054 6.95 0.48 11.03
5/14/2021 3:30:00 PM 10.87 51.566 0.054 6.95 0.51 11.03
5/14/2021 3:45:00 PM 10.95 51.71 0.054 6.95 0.51 11.02
5/14/2021 4:00:00 PM 10.96 51.728 0.054 6.94 0.43 10.98
5/14/2021 4:15:00 PM 10.96 51.728 0.054 6.92 0.48 10.93
5/14/2021 4:30:00 PM 11.01 51.818 0.054 6.88 0.48 10.89
5/14/2021 4:45:00 PM 11.05 51.89 0.054 6.91 0.45 10.86
5/14/2021 5:00:00 PM 11.09 51.962 0.054 6.91 0.5 10.85
5/14/2021 5:15:00 PM 11.11 51.998 0.054 6.89 0.42 10.83
5/14/2021 5:30:00 PM 11.12 52.016 0.054 6.84 0.49 10.82
5/14/2021 5:45:00 PM 11.15 52.07 0.054 6.9 0.5 10.84
5/14/2021 6:00:00 PM 11.17 52.106 0.054 6.91 0.5 10.84
5/14/2021 6:15:00 PM 11.17 52.106 0.054 6.89 0.55 10.81
5/14/2021 6:30:00 PM 11.17 52.106 0.054 6.88 0.51 10.76
5/14/2021 6:45:00 PM 11.18 52.124 0.054 6.86 0.47 10.72
5/14/2021 7:00:00 PM 11.2 52.16 0.054 6.82 0.5 10.7
5/14/2021 7:15:00 PM 11.2 52.16 0.054 6.83 0.44 10.67
5/14/2021 7:30:00 PM 11.18 52.124 0.054 6.78 0.47 10.66
5/14/2021 7:45:00 PM 11.15 52.07 0.055 6.81 0.47 10.63
5/14/2021 8:00:00 PM 11.13 52.034 0.055 6.71 0.47 10.61
5/14/2021 8:15:00 PM 11.11 51.998 0.055 6.77 0.51 10.6
5/14/2021 8:30:00 PM 11.08 51.944 0.055 6.77 0.51 10.59
5/14/2021 8:45:00 PM 11.04 51.872 0.055 6.75 0.51 10.59
5/14/2021 9:00:00 PM 11 51.8 0.055 6.77 0.52 10.6
5/14/2021 9:15:00 PM 10.96 51.728 0.055 6.77 0.49 10.61
5/14/2021 9:30:00 PM 10.92 51.656 0.055 6.76 0.6 10.61
5/14/2021 9:45:00 PM 10.88 51.584 0.055 6.66 0.58 10.63
5/14/2021 10:00:00 PM 10.83 51.494 0.055 6.77 0.62 10.65
5/14/2021 10:15:00 PM 10.78 51.404 0.055 6.75 0.54 10.65
5/14/2021 10:30:00 PM 10.73 51.314 0.055 6.76 0.62 10.67
5/14/2021 10:45:00 PM 10.67 51.206 0.055 6.76 0.61 10.69
5/14/2021 11:00:00 PM 10.62 51.116 0.055 6.75 0.58 10.69
5/14/2021 11:15:00 PM 10.56 51.008 0.055 6.66 0.59 10.71
5/14/2021 11:30:00 PM 10.51 50.918 0.055 6.76 0.54 10.72
5/14/2021 11:45:00 PM 10.45 50.81 0.055 6.76 0.54 10.74
5/15/2021 12:00:00 AM 10.4 50.72 0.055 6.75 0.57 10.75
5/15/2021 12:15:00 AM 10.34 50.612 0.055 6.72 0.55 10.77
5/15/2021 12:30:00 AM 10.29 50.522 0.055 6.75 0.65 10.79
5/15/2021 12:45:00 AM 10.23 50.414 0.055 6.73 0.63 10.8
5/15/2021 1:00:00 AM 10.17 50.306 0.055 6.73 0.55 10.82
5/15/2021 1:15:00 AM 10.11 50.198 0.055 6.74 0.57 10.83
5/15/2021 1:30:00 AM 10.06 50.108 0.055 6.74 0.57 10.85
5/15/2021 1:45:00 AM 10 50 0.055 6.74 0.57 10.86
5/15/2021 2:00:00 AM 9.94 49.892 0.055 6.73 0.55 10.88
5/15/2021 2:15:00 AM 9.89 49.802 0.055 6.74 0.55 10.89
5/15/2021 2:30:00 AM 9.83 49.694 0.055 6.73 0.58 10.91
5/15/2021 2:45:00 AM 9.78 49.604 0.055 6.71 0.57 10.92
5/15/2021 3:00:00 AM 9.72 49.496 0.055 6.73 0.52 10.94
5/15/2021 3:15:00 AM 9.67 49.406 0.055 6.74 0.62 10.95
5/15/2021 3:30:00 AM 9.61 49.298 0.055 6.74 0.56 10.98
5/15/2021 3:45:00 AM 9.56 49.208 0.055 6.72 0.56 10.99
5/15/2021 4:00:00 AM 9.5 49.1 0.055 6.71 0.58 11.01
5/15/2021 4:15:00 AM 9.45 49.01 0.055 6.73 0.54 11.02
5/15/2021 4:30:00 AM 9.4 48.92 0.055 6.73 0.56 11.03
5/15/2021 4:45:00 AM 9.34 48.812 0.055 6.73 0.58 11.05
5/15/2021 5:00:00 AM 9.28 48.704 0.056 6.72 0.59 11.06
5/15/2021 5:15:00 AM 9.23 48.614 0.056 6.74 0.54 11.09
5/15/2021 5:30:00 AM 9.18 48.524 0.055 6.72 0.54 11.09
5/15/2021 5:45:00 AM 9.12 48.416 0.055 6.73 0.54 11.12
5/15/2021 6:00:00 AM 9.07 48.326 0.055 6.7 0.58 11.14
5/15/2021 6:15:00 AM 9.02 48.236 0.055 6.73 0.69 11.17
5/15/2021 6:30:00 AM 8.98 48.164 0.055 6.74 0.58 11.21
5/15/2021 6:45:00 AM 8.94 48.092 0.055 6.76 0.53 11.24
5/15/2021 7:00:00 AM 8.91 48.038 0.055 6.75 0.51 11.26
5/15/2021 7:15:00 AM 8.88 47.984 0.055 6.77 0.54 11.29
5/15/2021 7:30:00 AM 8.87 47.966 0.055 6.76 0.51 11.32
5/15/2021 7:45:00 AM 8.86 47.948 0.055 6.76 0.52 11.35
5/15/2021 8:00:00 AM 8.86 47.948 0.055 6.78 0.52 11.38
5/15/2021 8:15:00 AM 8.88 47.984 0.055 6.77 0.5 11.4
5/15/2021 8:30:00 AM 8.91 48.038 0.055 6.81 0.48 11.43
5/15/2021 8:45:00 AM 8.97 48.146 0.055 6.81 0.47 11.44
5/15/2021 9:00:00 AM 9.04 48.272 0.054 6.82 0.49 11.45
5/15/2021 9:15:00 AM 9.13 48.434 0.054 6.83 0.47 11.45
5/15/2021 9:30:00 AM 9.23 48.614 0.054 6.84 0.45 11.44
5/15/2021 9:45:00 AM 9.36 48.848 0.054 6.85 0.54 11.43
5/15/2021 10:00:00 AM 9.5 49.1 0.054 6.86 0.52 11.41
5/15/2021 10:15:00 AM 9.65 49.37 0.054 6.87 0.43 11.38
5/15/2021 10:30:00 AM 9.82 49.676 0.054 6.89 0.44 11.36
5/15/2021 10:45:00 AM 10.01 50.018 0.054 6.89 0.51 11.32
5/15/2021 11:00:00 AM 10.22 50.396 0.054 6.92 0.43 11.27
5/15/2021 11:15:00 AM 10.45 50.81 0.054 6.92 0.44 11.22
5/15/2021 11:30:00 AM 10.7 51.26 0.054 6.94 0.46 11.17
5/15/2021 11:45:00 AM 10.97 51.746 0.054 6.94 0.45 11.1
5/15/2021 12:00:00 PM 11.25 52.25 0.054 6.97 0.42 11.04
5/15/2021 12:15:00 PM 11.55 52.79 0.054 6.96 0.41 10.98
5/15/2021 12:30:00 PM 11.86 53.348 0.054 6.99 0.41 10.92
5/15/2021 12:45:00 PM 12.11 53.798 0.054 6.98 0.4 10.83
5/15/2021 1:00:00 PM 12.05 53.69 0.054 6.98 0.45 10.77
5/15/2021 1:15:00 PM 12.09 53.762 0.054 6.98 0.42 10.77
5/15/2021 1:30:00 PM 12.1 53.78 0.054 6.98 0.44 10.78
5/15/2021 1:45:00 PM 12.11 53.798 0.054 6.98 0.41 10.79
5/15/2021 2:00:00 PM 12.11 53.798 0.054 6.99 0.42 10.76
5/15/2021 2:15:00 PM 12.08 53.744 0.055 6.99 0.48 10.72
5/15/2021 2:30:00 PM 12.04 53.672 0.055 6.97 0.45 10.75
5/15/2021 2:45:00 PM 12.14 53.852 0.055 6.99 0.44 10.77
5/15/2021 3:00:00 PM 12.13 53.834 0.055 6.97 0.42 10.75
5/15/2021 3:15:00 PM 12.1 53.78 0.055 6.97 0.47 10.71
5/15/2021 3:30:00 PM 12.09 53.762 0.055 6.99 0.45 10.72
5/15/2021 3:45:00 PM 12.05 53.69 0.055 6.93 0.47 10.63
5/15/2021 4:00:00 PM 11.98 53.564 0.055 6.87 0.45 10.56
5/15/2021 4:15:00 PM 11.89 53.402 0.055 6.89 0.44 10.6
5/15/2021 4:30:00 PM 11.82 53.276 0.055 6.89 0.4 10.66
5/15/2021 4:45:00 PM 11.74 53.132 0.055 6.9 0.49 10.69
5/15/2021 5:00:00 PM 11.71 53.078 0.055 6.86 0.41 10.74
5/15/2021 5:15:00 PM 11.68 53.024 0.055 6.92 0.46 10.73
5/15/2021 5:30:00 PM 11.65 52.97 0.055 6.89 0.47 10.7
5/15/2021 5:45:00 PM 11.63 52.934 0.055 6.9 0.42 10.7
5/15/2021 6:00:00 PM 11.61 52.898 0.055 6.89 0.42 10.69
5/15/2021 6:15:00 PM 11.59 52.862 0.055 6.89 0.54 10.7
5/15/2021 6:30:00 PM 11.56 52.808 0.055 6.86 0.47 10.69
5/15/2021 6:45:00 PM 11.53 52.754 0.055 6.86 0.47 10.66
5/15/2021 7:00:00 PM 11.52 52.736 0.055 6.84 0.47 10.64
5/15/2021 7:15:00 PM 11.52 52.736 0.055 6.83 0.54 10.64
5/15/2021 7:30:00 PM 11.52 52.736 0.055 6.81 0.46 10.58
5/15/2021 7:45:00 PM 11.51 52.718 0.055 6.81 0.5 10.56
5/15/2021 8:00:00 PM 11.48 52.664 0.055 6.75 0.42 10.54
5/15/2021 8:15:00 PM 11.45 52.61 0.055 6.78 0.47 10.52
5/15/2021 8:30:00 PM 11.41 52.538 0.055 6.76 0.56 10.51
5/15/2021 8:45:00 PM 11.38 52.484 0.055 6.77 0.6 10.51
5/15/2021 9:00:00 PM 11.35 52.43 0.055 6.73 0.49 10.51
5/15/2021 9:15:00 PM 11.32 52.376 0.055 6.75 0.58 10.52
5/15/2021 9:30:00 PM 11.29 52.322 0.055 6.75 0.53 10.52
5/15/2021 9:45:00 PM 11.27 52.286 0.055 6.75 0.57 10.53
5/15/2021 10:00:00 PM 11.24 52.232 0.055 6.76 0.43 10.54
5/15/2021 10:15:00 PM 11.21 52.178 0.055 6.74 0.53 10.54
5/15/2021 10:30:00 PM 11.17 52.106 0.055 6.75 0.63 10.55
5/15/2021 10:45:00 PM 11.14 52.052 0.055 6.66 0.68 10.56
5/15/2021 11:00:00 PM 11.11 51.998 0.055 6.77 0.6 10.57
5/15/2021 11:15:00 PM 11.08 51.944 0.055 6.75 0.58 10.57
5/15/2021 11:30:00 PM 11.06 51.908 0.056 6.74 0.6 10.58
5/15/2021 11:45:00 PM 11.03 51.854 0.056 6.75 0.62 10.59
5/16/2021 12:00:00 AM 11.01 51.818 0.056 6.75 0.53 10.59
5/16/2021 12:15:00 AM 10.98 51.764 0.056 6.74 0.54 10.6
5/16/2021 12:30:00 AM 10.95 51.71 0.056 6.76 0.55 10.61
5/16/2021 12:45:00 AM 10.92 51.656 0.056 6.75 0.52 10.62
5/16/2021 1:00:00 AM 10.9 51.62 0.056 6.77 0.54 10.62
5/16/2021 1:15:00 AM 10.87 51.566 0.056 6.71 0.57 10.63
5/16/2021 1:30:00 AM 10.85 51.53 0.056 6.74 0.56 10.64
5/16/2021 1:45:00 AM 10.82 51.476 0.056 6.75 0.56 10.64
5/16/2021 2:00:00 AM 10.8 51.44 0.056 6.75 0.5 10.65
5/16/2021 2:15:00 AM 10.77 51.386 0.056 6.76 0.6 10.66
5/16/2021 2:30:00 AM 10.74 51.332 0.056 6.75 0.57 10.67
5/16/2021 2:45:00 AM 10.71 51.278 0.056 6.76 0.52 10.68
5/16/2021 3:00:00 AM 10.67 51.206 0.056 6.74 0.56 10.68
5/16/2021 3:15:00 AM 10.64 51.152 0.056 6.75 0.55 10.69
5/16/2021 3:30:00 AM 10.61 51.098 0.056 6.76 0.49 10.7
5/16/2021 3:45:00 AM 10.58 51.044 0.056 6.75 0.52 10.71
5/16/2021 4:00:00 AM 10.56 51.008 0.056 6.75 0.56 10.72
5/16/2021 4:15:00 AM 10.52 50.936 0.056 6.75 0.57 10.73
5/16/2021 4:30:00 AM 10.48 50.864 0.056 6.74 0.57 10.74
5/16/2021 4:45:00 AM 10.44 50.792 0.056 6.76 0.55 10.75
5/16/2021 5:00:00 AM 10.39 50.702 0.056 6.74 0.55 10.76
5/16/2021 5:15:00 AM 10.34 50.612 0.056 6.75 0.54 10.77
5/16/2021 5:30:00 AM 10.3 50.54 0.056 6.75 0.58 10.78
5/16/2021 5:45:00 AM 10.25 50.45 0.056 6.74 0.55 10.8
5/16/2021 6:00:00 AM 10.2 50.36 0.056 6.76 0.53 10.83
5/16/2021 6:15:00 AM 10.16 50.288 0.056 6.75 0.53 10.85
5/16/2021 6:30:00 AM 10.12 50.216 0.056 6.75 0.54 10.88
5/16/2021 6:45:00 AM 10.08 50.144 0.056 6.76 0.54 10.92
5/16/2021 7:00:00 AM 10.06 50.108 0.056 6.78 0.79 10.97
5/16/2021 7:15:00 AM 10.05 50.09 0.056 6.81 0.54 11.02
5/16/2021 7:30:00 AM 10.05 50.09 0.056 6.81 0.5 11.06
5/16/2021 7:45:00 AM 10.05 50.09 0.056 6.84 0.51 11.09
5/16/2021 8:00:00 AM 10.07 50.126 0.056 6.84 0.51 11.12
5/16/2021 8:15:00 AM 10.1 50.18 0.056 6.86 0.51 11.14
5/16/2021 8:30:00 AM 10.15 50.27 0.055 6.85 0.43 11.16
5/16/2021 8:45:00 AM 10.19 50.342 0.055 6.88 0.52 11.17
5/16/2021 9:00:00 AM 10.24 50.432 0.055 6.88 0.53 11.17
5/16/2021 9:15:00 AM 10.29 50.522 0.055 6.92 0.51 11.18
5/16/2021 9:30:00 AM 10.36 50.648 0.055 6.9 0.54 11.18
5/16/2021 9:45:00 AM 10.43 50.774 0.055 6.93 0.48 11.18
5/16/2021 10:00:00 AM 10.51 50.918 0.055 6.92 0.47 11.18
5/16/2021 10:15:00 AM 10.6 51.08 0.055 6.95 0.53 11.17
5/16/2021 10:30:00 AM 10.67 51.206 0.055 6.95 0.53 11.13
5/16/2021 10:45:00 AM 10.72 51.296 0.055 6.97 0.49 11.09
5/16/2021 11:00:00 AM 10.8 51.44 0.055 6.95 0.63 11.08
5/16/2021 11:15:00 AM 10.86 51.548 0.055 6.95 0.48 11.07
5/16/2021 11:30:00 AM 10.94 51.692 0.055 6.97 0.54 11.06
5/16/2021 11:45:00 AM 11.04 51.872 0.055 7 0.5 11.07
5/16/2021 12:00:00 PM 11.17 52.106 0.055 6.94 0.52 11.06
5/16/2021 12:15:00 PM 11.31 52.358 0.055 7.03 0.48 11.03
5/16/2021 12:30:00 PM 11.43 52.574 0.055 7.04 0.5 10.99
5/16/2021 12:45:00 PM 11.52 52.736 0.055 7.01 0.48 10.95
5/16/2021 1:00:00 PM 11.6 52.88 0.055 7.03 0.48 10.92
5/16/2021 1:15:00 PM 11.71 53.078 0.055 7.03 0.43 10.9
5/16/2021 1:30:00 PM 11.81 53.258 0.055 7.01 0.43 10.89
5/16/2021 1:45:00 PM 11.92 53.456 0.055 7.05 0.42 10.86
5/16/2021 2:00:00 PM 11.96 53.528 0.055 7.04 0.45 10.82
5/16/2021 2:15:00 PM 11.98 53.564 0.055 7.02 0.5 10.76
5/16/2021 2:30:00 PM 12.02 53.636 0.055 7 0.44 10.74
5/16/2021 2:45:00 PM 12.09 53.762 0.055 7.01 0.41 10.76
5/16/2021 3:00:00 PM 12.14 53.852 0.055 7 0.41 10.76
5/16/2021 3:15:00 PM 12.19 53.942 0.055 7.02 0.54 10.74
5/16/2021 3:30:00 PM 12.22 53.996 0.055 7.02 0.63 10.73
5/16/2021 3:45:00 PM 12.25 54.05 0.055 7.02 0.7 10.72
5/16/2021 4:00:00 PM 12.29 54.122 0.055 7.02 0.66 10.69
5/16/2021 4:15:00 PM 12.32 54.176 0.055 7.01 0.64 10.66
5/16/2021 4:30:00 PM 12.35 54.23 0.055 7 0.59 10.64
5/16/2021 4:45:00 PM 12.35 54.23 0.055 7 0.64 10.61
5/16/2021 5:00:00 PM 12.35 54.23 0.055 6.99 0.69 10.59
5/16/2021 5:15:00 PM 12.33 54.194 0.055 6.97 0.64 10.56
5/16/2021 5:30:00 PM 12.33 54.194 0.055 6.95 0.66 10.55
5/16/2021 5:45:00 PM 12.33 54.194 0.055 6.94 0.69 10.55
5/16/2021 6:00:00 PM 12.31 54.158 0.055 6.96 0.65 10.54
5/16/2021 6:15:00 PM 12.3 54.14 0.055 6.95 0.68 10.52
5/16/2021 6:30:00 PM 12.28 54.104 0.055 6.92 0.77 10.51
5/16/2021 6:45:00 PM 12.26 54.068 0.055 6.92 0.69 10.49
5/16/2021 7:00:00 PM 12.23 54.014 0.055 6.89 0.68 10.47
5/16/2021 7:15:00 PM 12.2 53.96 0.055 6.8 0.67 10.45
5/16/2021 7:30:00 PM 12.16 53.888 0.055 6.87 0.71 10.42
5/16/2021 7:45:00 PM 12.12 53.816 0.055 6.84 0.5 10.39
5/16/2021 8:00:00 PM 12.08 53.744 0.056 6.77 0.62 10.37
5/16/2021 8:15:00 PM 12.03 53.654 0.056 6.82 0.47 10.37
5/16/2021 8:30:00 PM 11.98 53.564 0.056 6.83 0.54 10.36
5/16/2021 8:45:00 PM 11.94 53.492 0.056 6.8 0.47 10.36
5/16/2021 9:00:00 PM 11.9 53.42 0.056 6.8 0.51 10.37
5/16/2021 9:15:00 PM 11.86 53.348 0.056 6.8 0.53 10.39
5/16/2021 9:30:00 PM 11.81 53.258 0.056 6.8 0.54 10.39
5/16/2021 9:45:00 PM 11.76 53.168 0.056 6.8 0.57 10.4
5/16/2021 10:00:00 PM 11.71 53.078 0.056 6.8 0.54 10.41
5/16/2021 10:15:00 PM 11.66 52.988 0.056 6.79 0.51 10.43
5/16/2021 10:30:00 PM 11.61 52.898 0.056 6.78 0.54 10.43
5/16/2021 10:45:00 PM 11.55 52.79 0.056 6.8 0.47 10.45
5/16/2021 11:00:00 PM 11.5 52.7 0.056 6.79 0.55 10.47
5/16/2021 11:15:00 PM 11.45 52.61 0.056 6.8 0.62 10.47
5/16/2021 11:30:00 PM 11.39 52.502 0.056 6.8 0.56 10.49
5/16/2021 11:45:00 PM 11.34 52.412 0.056 6.79 0.59 10.51
5/17/2021 12:00:00 AM 11.28 52.304 0.056 6.8 0.59 10.52
5/17/2021 12:15:00 AM 11.23 52.214 0.056 6.79 0.55 10.54
5/17/2021 12:30:00 AM 11.17 52.106 0.056 6.79 0.51 10.55
5/17/2021 12:45:00 AM 11.12 52.016 0.056 6.8 0.48 10.56
5/17/2021 1:00:00 AM 11.06 51.908 0.056 6.8 0.54 10.58
5/17/2021 1:15:00 AM 11 51.8 0.056 6.79 0.49 10.6
5/17/2021 1:30:00 AM 10.95 51.71 0.056 6.79 0.54 10.61
5/17/2021 1:45:00 AM 10.89 51.602 0.056 6.79 0.54 10.62
5/17/2021 2:00:00 AM 10.83 51.494 0.056 6.79 0.52 10.64
5/17/2021 2:15:00 AM 10.77 51.386 0.056 6.79 0.55 10.65
5/17/2021 2:30:00 AM 10.72 51.296 0.057 6.78 0.53 10.67
5/17/2021 2:45:00 AM 10.66 51.188 0.057 6.8 0.51 10.68
5/17/2021 3:00:00 AM 10.6 51.08 0.057 6.79 0.52 10.7
5/17/2021 3:15:00 AM 10.54 50.972 0.057 6.8 0.64 10.72
5/17/2021 3:30:00 AM 10.48 50.864 0.057 6.79 0.59 10.73
5/17/2021 3:45:00 AM 10.43 50.774 0.057 6.79 0.57 10.75
5/17/2021 4:00:00 AM 10.37 50.666 0.057 6.79 0.54 10.76
5/17/2021 4:15:00 AM 10.31 50.558 0.057 6.78 0.58 10.78
5/17/2021 4:30:00 AM 10.25 50.45 0.057 6.8 0.57 10.8
5/17/2021 4:45:00 AM 10.19 50.342 0.057 6.78 0.58 10.81
5/17/2021 5:00:00 AM 10.13 50.234 0.057 6.79 0.52 10.82
5/17/2021 5:15:00 AM 10.07 50.126 0.057 6.78 0.69 10.84
5/17/2021 5:30:00 AM 10.01 50.018 0.057 6.77 0.51 10.86
5/17/2021 5:45:00 AM 9.95 49.91 0.057 6.77 0.83 10.88
5/17/2021 6:00:00 AM 9.9 49.82 0.057 6.79 0.76 10.91
5/17/2021 6:15:00 AM 9.84 49.712 0.057 6.79 0.59 10.94
5/17/2021 6:30:00 AM 9.79 49.622 0.057 6.79 0.56 10.98
5/17/2021 6:45:00 AM 9.74 49.532 0.057 6.81 0.63 11.01
5/17/2021 7:00:00 AM 9.7 49.46 0.057 6.79 0.53 11.04
5/17/2021 7:15:00 AM 9.67 49.406 0.057 6.8 0.49 11.07
5/17/2021 7:30:00 AM 9.65 49.37 0.057 6.81 0.51 11.09
5/17/2021 7:45:00 AM 9.64 49.352 0.056 6.83 0.49 11.12
5/17/2021 8:00:00 AM 9.64 49.352 0.056 6.84 0.48 11.16
5/17/2021 8:15:00 AM 9.66 49.388 0.056 6.85 0.53 11.18
5/17/2021 8:30:00 AM 9.69 49.442 0.056 6.86 0.52 11.2
5/17/2021 8:45:00 AM 9.75 49.55 0.056 6.86 0.48 11.22
5/17/2021 9:00:00 AM 9.82 49.676 0.056 6.88 0.47 11.24
5/17/2021 9:15:00 AM 9.91 49.838 0.056 6.89 0.47 11.23
5/17/2021 9:30:00 AM 10 50 0.056 6.92 0.47 11.24
5/17/2021 9:45:00 AM 10.12 50.216 0.056 6.92 0.45 11.22
5/17/2021 10:00:00 AM 10.25 50.45 0.056 6.96 0.54 11.21
5/17/2021 10:15:00 AM 10.39 50.702 0.056 6.94 0.46 11.19
5/17/2021 10:30:00 AM 10.55 50.99 0.056 6.97 0.41 11.16
5/17/2021 10:45:00 AM 10.73 51.314 0.056 6.98 0.48 11.14
5/17/2021 11:00:00 AM 10.93 51.674 0.056 6.99 0.47 11.1
5/17/2021 11:15:00 AM 11.14 52.052 0.056 6.97 0.43 11.05
5/17/2021 11:30:00 AM 11.39 52.502 0.055 6.98 0.41 10.99
5/17/2021 11:45:00 AM 11.64 52.952 0.055 7.01 0.45 10.93
5/17/2021 12:00:00 PM 11.92 53.456 0.055 7.03 0.44 10.87
5/17/2021 12:15:00 PM 12.21 53.978 0.055 7.01 0.39 10.8
5/17/2021 12:30:00 PM 12.5 54.5 0.055 7.03 0.42 10.74
5/17/2021 12:45:00 PM 12.77 54.986 0.055 7.04 0.41 10.67
5/17/2021 1:00:00 PM 13.01 55.418 0.055 7.05 0.39 10.61
5/17/2021 1:15:00 PM 13.22 55.796 0.055 7.05 0.44 10.55
5/17/2021 1:30:00 PM 13.38 56.084 0.055 7.05 0.43 10.5
5/17/2021 1:45:00 PM 13.52 56.336 0.055 7.04 0.43 10.46
5/17/2021 2:00:00 PM 13.61 56.498 0.055 7.03 0.39 10.42
5/17/2021 2:15:00 PM 13.66 56.588 0.055 7.06 0.46 10.4
5/17/2021 2:30:00 PM 13.69 56.642 0.055 7.04 0.39 10.38
5/17/2021 2:45:00 PM 13.72 56.696 0.056 7.05 0.46 10.36
5/17/2021 3:00:00 PM 13.72 56.696 0.056 7.04 0.62 10.34
5/17/2021 3:15:00 PM 13.7 56.66 0.056 7.02 0.42 10.3
5/17/2021 3:30:00 PM 13.66 56.588 0.056 7.01 0.43 10.28
5/17/2021 3:45:00 PM 13.65 56.57 0.056 7.01 0.35 10.28
5/17/2021 4:00:00 PM 13.64 56.552 0.056 7 0.41 10.28
5/17/2021 4:15:00 PM 13.64 56.552 0.056 7 0.4 10.28
5/17/2021 4:30:00 PM 13.58 56.444 0.056 6.98 0.38 10.21
5/17/2021 4:45:00 PM 13.52 56.336 0.056 6.96 0.4 10.19
5/17/2021 5:00:00 PM 13.52 56.336 0.056 6.95 0.42 10.2
5/17/2021 5:15:00 PM 13.49 56.282 0.056 6.94 0.42 10.2
5/17/2021 5:30:00 PM 13.46 56.228 0.056 6.95 0.48 10.19
5/17/2021 5:45:00 PM 13.42 56.156 0.056 6.94 0.42 10.18
5/17/2021 6:00:00 PM 13.38 56.084 0.056 6.91 0.45 10.17
5/17/2021 6:15:00 PM 13.33 55.994 0.056 6.92 0.41 10.16
5/17/2021 6:30:00 PM 13.27 55.886 0.056 6.88 0.36 10.16
5/17/2021 6:45:00 PM 13.21 55.778 0.056 6.88 0.44 10.15
5/17/2021 7:00:00 PM 13.13 55.634 0.056 6.85 0.45 10.16
5/17/2021 7:15:00 PM 13.06 55.508 0.056 6.87 0.49 10.17
5/17/2021 7:30:00 PM 12.99 55.382 0.057 6.86 0.48 10.17
5/17/2021 7:45:00 PM 12.93 55.274 0.057 6.85 0.47 10.17
5/17/2021 8:00:00 PM 12.87 55.166 0.057 6.84 0.49 10.17
5/17/2021 8:15:00 PM 12.82 55.076 0.057 6.84 0.42 10.17
5/17/2021 8:30:00 PM 12.76 54.968 0.057 6.7 0.47 10.16
5/17/2021 8:45:00 PM 12.7 54.86 0.057 6.83 0.53 10.17
5/17/2021 9:00:00 PM 12.63 54.734 0.057 6.83 0.5 10.18
5/17/2021 9:15:00 PM 12.57 54.626 0.057 6.82 0.57 10.2
5/17/2021 9:30:00 PM 12.5 54.5 0.057 6.82 0.57 10.21
5/17/2021 9:45:00 PM 12.44 54.392 0.057 6.79 0.54 10.23
5/17/2021 10:00:00 PM 12.38 54.284 0.057 6.83 0.56 10.25
5/17/2021 10:15:00 PM 12.32 54.176 0.057 6.78 0.52 10.26
5/17/2021 10:30:00 PM 12.26 54.068 0.057 6.81 0.46 10.27
5/17/2021 10:45:00 PM 12.2 53.96 0.057 6.8 0.51 10.29
5/17/2021 11:00:00 PM 12.14 53.852 0.057 6.76 0.55 10.31
5/17/2021 11:15:00 PM 12.09 53.762 0.057 6.76 0.68 10.32
5/17/2021 11:30:00 PM 12.03 53.654 0.057 6.81 0.55 10.34
5/17/2021 11:45:00 PM 11.97 53.546 0.057 6.8 0.53 10.35
5/18/2021 12:00:00 AM 11.91 53.438 0.057 6.8 0.55 10.37
5/18/2021 12:15:00 AM 11.85 53.33 0.057 6.81 0.6 10.38
5/18/2021 12:30:00 AM 11.79 53.222 0.057 6.81 0.55 10.39
5/18/2021 12:45:00 AM 11.73 53.114 0.057 6.8 0.55 10.41
5/18/2021 1:00:00 AM 11.67 53.006 0.057 6.79 0.51 10.42
5/18/2021 1:15:00 AM 11.61 52.898 0.057 6.81 0.53 10.44
5/18/2021 1:30:00 AM 11.54 52.772 0.057 6.78 0.51 10.46
5/18/2021 1:45:00 AM 11.48 52.664 0.057 6.75 0.55 10.48
5/18/2021 2:00:00 AM 11.42 52.556 0.057 6.79 0.53 10.49
5/18/2021 2:15:00 AM 11.35 52.43 0.057 6.79 0.53 10.51
5/18/2021 2:30:00 AM 11.29 52.322 0.057 6.8 0.61 10.53
5/18/2021 2:45:00 AM 11.23 52.214 0.057 6.79 0.51 10.54
5/18/2021 3:00:00 AM 11.16 52.088 0.057 6.79 0.54 10.56
5/18/2021 3:15:00 AM 11.1 51.98 0.057 6.79 0.62 10.58
5/18/2021 3:30:00 AM 11.04 51.872 0.057 6.79 0.6 10.59
5/18/2021 3:45:00 AM 10.98 51.764 0.057 6.74 0.6 10.6
5/18/2021 4:00:00 AM 10.93 51.674 0.057 6.8 0.57 10.62
5/18/2021 4:15:00 AM 10.87 51.566 0.057 6.73 0.62 10.64
5/18/2021 4:30:00 AM 10.81 51.458 0.057 6.79 0.57 10.65
5/18/2021 4:45:00 AM 10.75 51.35 0.057 6.78 0.57 10.67
5/18/2021 5:00:00 AM 10.69 51.242 0.057 6.79 0.61 10.69
5/18/2021 5:15:00 AM 10.63 51.134 0.057 6.78 0.53 10.7
5/18/2021 5:30:00 AM 10.57 51.026 0.057 6.78 0.61 10.72
5/18/2021 5:45:00 AM 10.51 50.918 0.058 6.77 0.64 10.74
5/18/2021 6:00:00 AM 10.46 50.828 0.058 6.78 0.61 10.77
5/18/2021 6:15:00 AM 10.42 50.756 0.058 6.78 0.67 10.79
5/18/2021 6:30:00 AM 10.37 50.666 0.058 6.77 0.54 10.82
5/18/2021 6:45:00 AM 10.34 50.612 0.058 6.79 0.58 10.85
5/18/2021 7:00:00 AM 10.31 50.558 0.058 6.82 0.58 10.88
5/18/2021 7:15:00 AM 10.29 50.522 0.058 6.8 0.5 10.91
5/18/2021 7:30:00 AM 10.28 50.504 0.058 6.82 0.55 10.93
5/18/2021 7:45:00 AM 10.28 50.504 0.058 6.83 0.53 10.96
5/18/2021 8:00:00 AM 10.29 50.522 0.057 6.84 0.49 10.98
5/18/2021 8:15:00 AM 10.31 50.558 0.057 6.84 0.45 11.01
5/18/2021 8:30:00 AM 10.35 50.63 0.057 6.79 0.46 11.03
5/18/2021 8:45:00 AM 10.4 50.72 0.057 6.88 0.45 11.05
5/18/2021 9:00:00 AM 10.48 50.864 0.057 6.89 0.45 11.06
5/18/2021 9:15:00 AM 10.57 51.026 0.057 6.9 0.43 11.07
5/18/2021 9:30:00 AM 10.68 51.224 0.057 6.88 0.5 11.06
5/18/2021 9:45:00 AM 10.8 51.44 0.057 6.93 0.55 11.06
5/18/2021 10:00:00 AM 10.95 51.71 0.057 6.93 0.46 11.04
5/18/2021 10:15:00 AM 11.1 51.98 0.057 6.96 0.45 11.02
5/18/2021 10:30:00 AM 11.26 52.268 0.057 6.98 0.47 11
5/18/2021 10:45:00 AM 11.45 52.61 0.057 6.97 0.48 10.96
5/18/2021 11:00:00 AM 11.67 53.006 0.057 6.99 0.45 10.92
5/18/2021 11:15:00 AM 11.9 53.42 0.057 7.01 0.44 10.87
5/18/2021 11:30:00 AM 12.15 53.87 0.057 7.02 0.45 10.82
5/18/2021 11:45:00 AM 12.43 54.374 0.056 7.04 0.48 10.76
5/18/2021 12:00:00 PM 12.73 54.914 0.056 7.03 0.46 10.69
5/18/2021 12:15:00 PM 13.06 55.508 0.056 7.05 0.39 10.64
5/18/2021 12:30:00 PM 13.34 56.012 0.056 7.04 0.41 10.54
5/18/2021 12:45:00 PM 13.6 56.48 0.056 7.05 0.39 10.5
5/18/2021 1:00:00 PM 13.89 57.002 0.056 7.08 0.47 10.45
5/18/2021 1:15:00 PM 13.95 57.11 0.056 7.08 0.47 10.38
5/18/2021 1:30:00 PM 14.12 57.416 0.056 7.07 0.45 10.36
5/18/2021 1:45:00 PM 14.06 57.308 0.056 7.04 0.41 10.34
5/18/2021 2:00:00 PM 14.02 57.236 0.056 7.08 0.43 10.32
5/18/2021 2:15:00 PM 13.93 57.074 0.056 7.05 0.48 10.28
5/18/2021 2:30:00 PM 13.92 57.056 0.056 7.05 0.39 10.32
5/18/2021 2:45:00 PM 13.84 56.912 0.056 7.04 0.46 10.31
5/18/2021 3:00:00 PM 13.84 56.912 0.056 7.01 0.39 10.32
5/18/2021 3:15:00 PM 13.76 56.768 0.056 7.05 0.46 10.31
5/18/2021 3:30:00 PM 13.79 56.822 0.056 7.05 0.41 10.33
5/18/2021 3:45:00 PM 13.79 56.822 0.056 7 0.47 10.33
5/18/2021 4:00:00 PM 13.78 56.804 0.056 7.04 0.43 10.28
5/18/2021 4:15:00 PM 13.76 56.768 0.056 7.03 0.43 10.27
5/18/2021 4:30:00 PM 13.75 56.75 0.056 6.99 0.44 10.26
5/18/2021 4:45:00 PM 13.75 56.75 0.056 7 0.49 10.24
5/18/2021 5:00:00 PM 13.75 56.75 0.056 6.99 0.51 10.19
5/18/2021 5:15:00 PM 13.72 56.696 0.056 6.96 0.46 10.17
5/18/2021 5:30:00 PM 13.7 56.66 0.056 6.96 0.48 10.16
5/18/2021 5:45:00 PM 13.67 56.606 0.056 6.91 0.47 10.16
5/18/2021 6:00:00 PM 13.63 56.534 0.056 6.95 0.41 10.16
5/18/2021 6:15:00 PM 13.6 56.48 0.056 6.92 0.45 10.16
5/18/2021 6:30:00 PM 13.57 56.426 0.056 6.92 0.4 10.15
5/18/2021 6:45:00 PM 13.53 56.354 0.056 6.89 0.41 10.14
5/18/2021 7:00:00 PM 13.49 56.282 0.056 6.88 0.6 10.12
5/18/2021 7:15:00 PM 13.45 56.21 0.057 6.89 0.54 10.11
5/18/2021 7:30:00 PM 13.41 56.138 0.057 6.87 0.49 10.1
5/18/2021 7:45:00 PM 13.37 56.066 0.057 6.86 0.51 10.08
5/18/2021 8:00:00 PM 13.32 55.976 0.057 6.81 0.54 10.07
5/18/2021 8:15:00 PM 13.26 55.868 0.057 6.84 0.56 10.05
5/18/2021 8:30:00 PM 13.2 55.76 0.057 6.82 0.51 10.05
5/18/2021 8:45:00 PM 13.14 55.652 0.057 6.81 0.57 10.05
5/18/2021 9:00:00 PM 13.09 55.562 0.057 6.8 0.54 10.06
5/18/2021 9:15:00 PM 13.04 55.472 0.057 6.82 0.49 10.07
5/18/2021 9:30:00 PM 12.98 55.364 0.057 6.81 0.5 10.08
5/18/2021 9:45:00 PM 12.92 55.256 0.057 6.81 0.52 10.1
5/18/2021 10:00:00 PM 12.87 55.166 0.057 6.81 0.52 10.11
5/18/2021 10:15:00 PM 12.82 55.076 0.057 6.82 0.52 10.13
5/18/2021 10:30:00 PM 12.77 54.986 0.057 6.8 0.55 10.14
5/18/2021 10:45:00 PM 12.72 54.896 0.057 6.82 0.56 10.15
5/18/2021 11:00:00 PM 12.67 54.806 0.057 6.81 0.63 10.16
5/18/2021 11:15:00 PM 12.62 54.716 0.057 6.8 0.49 10.18
5/18/2021 11:30:00 PM 12.57 54.626 0.057 6.81 0.91 10.19
5/18/2021 11:45:00 PM 12.52 54.536 0.058 6.81 0.48 10.21
5/19/2021 12:00:00 AM 12.47 54.446 0.058 6.8 0.56 10.22
5/19/2021 12:15:00 AM 12.42 54.356 0.058 6.8 0.52 10.23
5/19/2021 12:30:00 AM 12.37 54.266 0.058 6.81 0.48 10.24
5/19/2021 12:45:00 AM 12.32 54.176 0.058 6.81 0.5 10.26
5/19/2021 1:00:00 AM 12.27 54.086 0.058 6.8 0.63 10.27
5/19/2021 1:15:00 AM 12.22 53.996 0.058 6.79 0.52 10.28
5/19/2021 1:30:00 AM 12.17 53.906 0.058 6.81 0.5 10.29
5/19/2021 1:45:00 AM 12.12 53.816 0.058 6.8 0.52 10.31
5/19/2021 2:00:00 AM 12.06 53.708 0.058 6.8 0.47 10.32
5/19/2021 2:15:00 AM 12.01 53.618 0.058 6.81 0.54 10.33
5/19/2021 2:30:00 AM 11.96 53.528 0.058 6.8 0.49 10.34
5/19/2021 2:45:00 AM 11.91 53.438 0.058 6.81 0.49 10.35
5/19/2021 3:00:00 AM 11.86 53.348 0.058 6.79 0.49 10.36
5/19/2021 3:15:00 AM 11.81 53.258 0.058 6.8 0.54 10.38
5/19/2021 3:30:00 AM 11.76 53.168 0.058 6.78 0.45 10.39
5/19/2021 3:45:00 AM 11.71 53.078 0.058 6.8 0.43 10.4
5/19/2021 4:00:00 AM 11.66 52.988 0.058 6.78 0.51 10.42
5/19/2021 4:15:00 AM 11.61 52.898 0.058 6.74 0.44 10.43
5/19/2021 4:30:00 AM 11.56 52.808 0.058 6.8 0.43 10.45
5/19/2021 4:45:00 AM 11.51 52.718 0.058 6.8 0.46 10.46
5/19/2021 5:00:00 AM 11.46 52.628 0.058 6.79 0.51 10.48
5/19/2021 5:15:00 AM 11.41 52.538 0.058 6.71 0.51 10.49
5/19/2021 5:30:00 AM 11.36 52.448 0.058 6.8 0.47 10.5
5/19/2021 5:45:00 AM 11.32 52.376 0.058 6.8 0.56 10.52
5/19/2021 6:00:00 AM 11.27 52.286 0.058 6.78 0.51 10.54
5/19/2021 6:15:00 AM 11.23 52.214 0.058 6.8 0.49 10.57
5/19/2021 6:30:00 AM 11.19 52.142 0.058 6.81 0.53 10.6
5/19/2021 6:45:00 AM 11.16 52.088 0.058 6.77 0.46 10.63
5/19/2021 7:00:00 AM 11.13 52.034 0.058 6.82 0.4 10.66
5/19/2021 7:15:00 AM 11.11 51.998 0.058 6.83 0.39 10.69
5/19/2021 7:30:00 AM 11.11 51.998 0.058 6.83 0.47 10.71
5/19/2021 7:45:00 AM 11.11 51.998 0.058 6.78 0.43 10.74
5/19/2021 8:00:00 AM 11.12 52.016 0.058 6.85 0.41 10.76
5/19/2021 8:15:00 AM 11.14 52.052 0.058 6.86 0.4 10.78
5/19/2021 8:30:00 AM 11.18 52.124 0.058 6.87 0.42 10.81
5/19/2021 8:45:00 AM 11.23 52.214 0.058 6.87 0.41 10.82
5/19/2021 9:00:00 AM 11.31 52.358 0.058 6.88 0.38 10.84
5/19/2021 9:15:00 AM 11.39 52.502 0.058 6.9 0.42 10.84
5/19/2021 9:30:00 AM 11.49 52.682 0.057 6.91 0.36 10.84
5/19/2021 9:45:00 AM 11.61 52.898 0.057 6.92 0.36 10.84
5/19/2021 10:00:00 AM 11.75 53.15 0.057 6.95 0.48 10.83
5/19/2021 10:15:00 AM 11.89 53.402 0.057 6.95 0.59 10.82
5/19/2021 10:30:00 AM 12.05 53.69 0.057 6.97 0.39 10.79
5/19/2021 10:45:00 AM 12.24 54.032 0.057 6.98 0.38 10.76
5/19/2021 11:00:00 AM 12.45 54.41 0.057 7 0.55 10.72
5/19/2021 11:15:00 AM 12.68 54.824 0.057 7 0.36 10.67
5/19/2021 11:30:00 AM 12.92 55.256 0.057 7.02 0.36 10.62
5/19/2021 11:45:00 AM 13.19 55.742 0.057 7.03 0.33 10.56
5/19/2021 12:00:00 PM 13.49 56.282 0.057 7.03 0.33 10.5
5/19/2021 12:15:00 PM 13.79 56.822 0.057 7.05 0.35 10.43
5/19/2021 12:30:00 PM 14.1 57.38 0.057 7.05 0.32 10.37
5/19/2021 12:45:00 PM 14.39 57.902 0.057 7.05 0.36 10.29
5/19/2021 1:00:00 PM 14.66 58.388 0.057 7.04 0.37 10.22
5/19/2021 1:15:00 PM 14.89 58.802 0.057 7.06 0.31 10.17
5/19/2021 1:30:00 PM 15.1 59.18 0.057 7.07 0.37 10.12
5/19/2021 1:45:00 PM 15.26 59.468 0.057 7.05 0.36 10.06
5/19/2021 2:00:00 PM 15.38 59.684 0.057 7.07 0.33 10.01
5/19/2021 2:15:00 PM 15.46 59.828 0.057 7.06 0.3 9.98
5/19/2021 2:30:00 PM 15.51 59.918 0.057 7.05 0.34 9.94
5/19/2021 2:45:00 PM 15.54 59.972 0.057 7.05 0.39 9.92
5/19/2021 3:00:00 PM 15.51 59.918 0.057 7.02 0.29 9.9
5/19/2021 3:15:00 PM 15.49 59.882 0.057 7.03 0.28 9.88
5/19/2021 3:30:00 PM 15.38 59.684 0.057 7.01 0.38 9.86
5/19/2021 3:45:00 PM 15.33 59.594 0.057 7.02 0.33 9.9
5/19/2021 4:00:00 PM 15.34 59.612 0.057 7.01 0.36 9.91
5/19/2021 4:15:00 PM 15.35 59.63 0.057 7.02 0.35 9.91
5/19/2021 4:30:00 PM 15.35 59.63 0.058 6.94 0.31 9.88
5/19/2021 4:45:00 PM 15.34 59.612 0.058 6.98 0.36 9.88
5/19/2021 5:00:00 PM 15.33 59.594 0.058 6.98 0.34 9.82
5/19/2021 5:15:00 PM 15.33 59.594 0.058 6.98 0.28 9.8
5/19/2021 5:30:00 PM 15.34 59.612 0.058 6.94 0.3 9.78
5/19/2021 5:45:00 PM 15.33 59.594 0.058 6.94 0.35 9.75
5/19/2021 6:00:00 PM 15.31 59.558 0.058 6.91 0.38 9.74
5/19/2021 6:15:00 PM 15.26 59.468 0.058 6.93 0.47 9.77
5/19/2021 6:30:00 PM 15.21 59.378 0.058 6.91 0.41 9.79
5/19/2021 6:45:00 PM 15.17 59.306 0.058 6.91 0.46 9.79
5/19/2021 7:00:00 PM 15.12 59.216 0.058 6.92 0.41 9.78
5/19/2021 7:15:00 PM 15.08 59.144 0.058 6.8 0.39 9.76
5/19/2021 7:30:00 PM 15.02 59.036 0.058 6.88 0.39 9.72
5/19/2021 7:45:00 PM 14.95 58.91 0.058 6.86 0.41 9.7
5/19/2021 8:00:00 PM 14.89 58.802 0.058 6.87 0.38 9.69
5/19/2021 8:15:00 PM 14.81 58.658 0.058 6.84 0.44 9.69
5/19/2021 8:30:00 PM 14.74 58.532 0.058 6.84 0.38 9.69
5/19/2021 8:45:00 PM 14.66 58.388 0.058 6.83 0.42 9.69
5/19/2021 9:00:00 PM 14.58 58.244 0.058 6.83 0.53 9.71
5/19/2021 9:15:00 PM 14.51 58.118 0.058 6.81 0.41 9.73
5/19/2021 9:30:00 PM 14.44 57.992 0.058 6.83 0.54 9.73
5/19/2021 9:45:00 PM 14.37 57.866 0.058 6.83 0.48 9.75
5/19/2021 10:00:00 PM 14.32 57.776 0.058 6.82 0.49 9.77
5/19/2021 10:15:00 PM 14.27 57.686 0.058 6.83 0.47 9.78
5/19/2021 10:30:00 PM 14.22 57.596 0.058 6.81 0.45 9.79
5/19/2021 10:45:00 PM 14.17 57.506 0.058 6.82 1.02 9.8
5/19/2021 11:00:00 PM 14.13 57.434 0.059 6.81 0.46 9.81
5/19/2021 11:15:00 PM 14.08 57.344 0.059 6.82 0.44 9.83
5/19/2021 11:30:00 PM 14.04 57.272 0.059 6.73 0.35 9.84
5/19/2021 11:45:00 PM 13.99 57.182 0.059 6.83 0.41 9.84
5/20/2021 12:00:00 AM 13.95 57.11 0.059 6.81 0.35 9.86
5/20/2021 12:15:00 AM 13.91 57.038 0.059 6.82 0.39 9.87
5/20/2021 12:30:00 AM 13.87 56.966 0.059 6.82 0.38 9.88
5/20/2021 12:45:00 AM 13.82 56.876 0.059 6.82 0.45 9.89
5/20/2021 1:00:00 AM 13.78 56.804 0.059 6.82 0.41 9.9
5/20/2021 1:15:00 AM 13.74 56.732 0.059 6.81 0.33 9.9
5/20/2021 1:30:00 AM 13.69 56.642 0.059 6.82 0.34 9.92
5/20/2021 1:45:00 AM 13.65 56.57 0.059 6.79 0.43 9.93
5/20/2021 2:00:00 AM 13.6 56.48 0.059 6.82 0.36 9.94
5/20/2021 2:15:00 AM 13.56 56.408 0.059 6.82 0.43 9.95
5/20/2021 2:30:00 AM 13.51 56.318 0.059 6.8 0.41 9.96
5/20/2021 2:45:00 AM 13.47 56.246 0.059 6.81 0.33 9.97
5/20/2021 3:00:00 AM 13.42 56.156 0.059 6.81 0.36 9.99
5/20/2021 3:15:00 AM 13.38 56.084 0.059 6.81 0.4 10
5/20/2021 3:30:00 AM 13.34 56.012 0.059 6.81 0.43 10
5/20/2021 3:45:00 AM 13.3 55.94 0.059 6.8 0.39 10.02
5/20/2021 4:00:00 AM 13.26 55.868 0.059 6.81 0.33 10.03
5/20/2021 4:15:00 AM 13.22 55.796 0.059 6.81 0.36 10.04
5/20/2021 4:30:00 AM 13.18 55.724 0.059 6.81 0.27 10.05
5/20/2021 4:45:00 AM 13.14 55.652 0.059 6.8 0.36 10.06
5/20/2021 5:00:00 AM 13.1 55.58 0.059 6.82 0.39 10.08
5/20/2021 5:15:00 AM 13.06 55.508 0.059 6.81 0.46 10.08
5/20/2021 5:30:00 AM 13.02 55.436 0.059 6.78 0.33 10.09
5/20/2021 5:45:00 AM 12.98 55.364 0.059 6.81 0.38 10.1
5/20/2021 6:00:00 AM 12.94 55.292 0.059 6.8 0.39 10.12
5/20/2021 6:15:00 AM 12.9 55.22 0.059 6.81 0.39 10.15
5/20/2021 6:30:00 AM 12.87 55.166 0.059 6.8 0.3 10.18
5/20/2021 6:45:00 AM 12.84 55.112 0.059 6.82 0.45 10.21
5/20/2021 7:00:00 AM 12.82 55.076 0.059 6.82 0.35 10.23
5/20/2021 7:15:00 AM 12.8 55.04 0.059 6.83 0.26 10.27
5/20/2021 7:30:00 AM 12.79 55.022 0.059 6.84 0.33 10.28
5/20/2021 7:45:00 AM 12.78 55.004 0.059 6.85 0.28 10.3
5/20/2021 8:00:00 AM 12.78 55.004 0.059 6.86 0.34 10.33
5/20/2021 8:15:00 AM 12.79 55.022 0.059 6.86 0.27 10.36
5/20/2021 8:30:00 AM 12.83 55.094 0.059 6.86 0.28 10.39
5/20/2021 8:45:00 AM 12.88 55.184 0.059 6.88 0.39 10.42
5/20/2021 9:00:00 AM 12.94 55.292 0.059 6.89 0.33 10.46
5/20/2021 9:15:00 AM 13.02 55.436 0.059 6.92 0.28 10.47
5/20/2021 9:30:00 AM 13.1 55.58 0.059 6.93 0.31 10.48
5/20/2021 9:45:00 AM 13.21 55.778 0.059 6.95 0.37 10.49
5/20/2021 10:00:00 AM 13.35 56.03 0.059 6.98 0.27 10.49
5/20/2021 10:15:00 AM 13.51 56.318 0.058 7 0.28 10.48
5/20/2021 10:30:00 AM 13.65 56.57 0.058 7.01 0.41 10.45
5/20/2021 10:45:00 AM 13.78 56.804 0.058 7.03 0.23 10.43
5/20/2021 11:00:00 AM 13.93 57.074 0.058 7.03 0.31 10.4
5/20/2021 11:15:00 AM 14.13 57.434 0.058 7.05 0.3 10.36
5/20/2021 11:30:00 AM 14.37 57.866 0.058 7.04 0.32 10.31
5/20/2021 11:45:00 AM 14.59 58.262 0.058 7.05 0.28 10.25
5/20/2021 12:00:00 PM 14.84 58.712 0.058 7.06 0.29 10.19
5/20/2021 12:15:00 PM 15.12 59.216 0.058 7.07 0.27 10.14
5/20/2021 12:30:00 PM 15.4 59.72 0.058 7.06 0.19 10.07
5/20/2021 12:45:00 PM 15.69 60.242 0.058 7.08 0.26 10.01
5/20/2021 1:00:00 PM 15.96 60.728 0.058 7.07 0.25 9.94
5/20/2021 1:15:00 PM 16.22 61.196 0.058 7.09 0.23 9.89
5/20/2021 1:30:00 PM 16.42 61.556 0.058 7.08 0.14 9.83
5/20/2021 1:45:00 PM 16.54 61.772 0.058 7.08 0.22 9.79
5/20/2021 2:00:00 PM 16.65 61.97 0.058 7.07 0.19 9.75
5/20/2021 2:15:00 PM 16.74 62.132 0.058 7.08 0.19 9.74
5/20/2021 2:30:00 PM 16.76 62.168 0.058 7.07 0.33 9.7
5/20/2021 2:45:00 PM 16.87 62.366 0.058 7.07 0.24 9.68
5/20/2021 3:00:00 PM 16.88 62.384 0.058 7.08 0.16 9.66
5/20/2021 3:15:00 PM 16.88 62.384 0.058 6.99 0.26 9.64
5/20/2021 3:30:00 PM 16.88 62.384 0.058 7.06 0.26 9.62
5/20/2021 3:45:00 PM 16.83 62.294 0.058 7.06 0.13 9.6
5/20/2021 4:00:00 PM 16.78 62.204 0.058 7 0.16 9.58
5/20/2021 4:15:00 PM 16.77 62.186 0.058 7.04 0.17 9.58
5/20/2021 4:30:00 PM 16.74 62.132 0.059 6.91 0.25 9.58
5/20/2021 4:45:00 PM 16.74 62.132 0.059 7.03 0.18 9.55
5/20/2021 5:00:00 PM 16.72 62.096 0.059 7.01 0.19 9.52
5/20/2021 5:15:00 PM 16.72 62.096 0.059 6.99 0.27 9.52
5/20/2021 5:30:00 PM 16.71 62.078 0.059 6.91 0.17 9.5
5/20/2021 5:45:00 PM 16.69 62.042 0.059 6.96 0.17 9.48
5/20/2021 6:00:00 PM 16.67 62.006 0.059 6.96 0.18 9.47
5/20/2021 6:15:00 PM 16.62 61.916 0.059 6.96 0.26 9.47
5/20/2021 6:30:00 PM 16.57 61.826 0.059 6.94 0.14 9.46
5/20/2021 6:45:00 PM 16.51 61.718 0.059 6.95 0.2 9.43
5/20/2021 7:00:00 PM 16.45 61.61 0.06 6.92 0.2 9.41
5/20/2021 7:15:00 PM 16.38 61.484 0.06 6.89 0.19 9.4
5/20/2021 7:30:00 PM 16.31 61.358 0.06 6.87 0.25 9.4
5/20/2021 7:45:00 PM 16.24 61.232 0.06 6.88 0.25 9.41
5/20/2021 8:00:00 PM 16.17 61.106 0.06 6.87 0.26 9.41
5/20/2021 8:15:00 PM 16.09 60.962 0.06 6.86 0.27 9.42
5/20/2021 8:30:00 PM 16.01 60.818 0.06 6.86 0.34 9.42
5/20/2021 8:45:00 PM 15.93 60.674 0.06 6.85 0.32 9.43
5/20/2021 9:00:00 PM 15.85 60.53 0.06 6.84 0.33 9.44
5/20/2021 9:15:00 PM 15.77 60.386 0.06 6.83 0.36 9.45
5/20/2021 9:30:00 PM 15.7 60.26 0.06 6.83 0.5 9.47
5/20/2021 9:45:00 PM 15.62 60.116 0.06 6.81 0.27 9.49
5/20/2021 10:00:00 PM 15.55 59.99 0.06 6.84 0.25 9.51
5/20/2021 10:15:00 PM 15.48 59.864 0.06 6.83 0.29 9.52
5/20/2021 10:30:00 PM 15.4 59.72 0.06 6.82 0.32 9.54
5/20/2021 10:45:00 PM 15.33 59.594 0.06 6.85 0.32 9.56
5/20/2021 11:00:00 PM 15.27 59.486 0.06 6.84 0.36 9.58
5/20/2021 11:15:00 PM 15.2 59.36 0.06 6.84 0.28 9.59
5/20/2021 11:30:00 PM 15.14 59.252 0.06 6.84 0.34 9.61
5/20/2021 11:45:00 PM 15.08 59.144 0.06 6.84 0.36 9.62
5/21/2021 12:00:00 AM 15.02 59.036 0.06 6.83 0.27 9.63
5/21/2021 12:15:00 AM 14.96 58.928 0.06 6.83 0.48 9.65
5/21/2021 12:30:00 AM 14.91 58.838 0.06 6.82 0.3 9.66
5/21/2021 12:45:00 AM 14.85 58.73 0.06 6.82 0.3 9.68
5/21/2021 1:00:00 AM 14.79 58.622 0.06 6.84 0.43 9.69
5/21/2021 1:15:00 AM 14.73 58.514 0.06 6.82 0.33 9.71
5/21/2021 1:30:00 AM 14.67 58.406 0.06 6.83 0.37 9.72
5/21/2021 1:45:00 AM 14.61 58.298 0.06 6.83 0.37 9.73
5/21/2021 2:00:00 AM 14.55 58.19 0.06 6.83 0.36 9.75
5/21/2021 2:15:00 AM 14.49 58.082 0.06 6.84 0.32 9.76
5/21/2021 2:30:00 AM 14.43 57.974 0.06 6.82 0.34 9.77
5/21/2021 2:45:00 AM 14.37 57.866 0.06 6.81 0.45 9.78
5/21/2021 3:00:00 AM 14.3 57.74 0.06 6.83 0.32 9.8
5/21/2021 3:15:00 AM 14.24 57.632 0.06 6.82 0.41 9.82
5/21/2021 3:30:00 AM 14.18 57.524 0.06 6.83 0.44 9.83
5/21/2021 3:45:00 AM 14.12 57.416 0.06 6.83 0.31 9.85
5/21/2021 4:00:00 AM 14.06 57.308 0.06 6.83 0.31 9.86
5/21/2021 4:15:00 AM 13.99 57.182 0.06 6.84 0.38 9.88
5/21/2021 4:30:00 AM 13.93 57.074 0.06 6.82 0.38 9.89
5/21/2021 4:45:00 AM 13.87 56.966 0.06 6.82 0.32 9.91
5/21/2021 5:00:00 AM 13.81 56.858 0.06 6.83 0.44 9.92
5/21/2021 5:15:00 AM 13.75 56.75 0.06 6.82 0.45 9.94
5/21/2021 5:30:00 AM 13.69 56.642 0.06 6.83 0.34 9.95
5/21/2021 5:45:00 AM 13.63 56.534 0.06 6.8 0.42 9.97
5/21/2021 6:00:00 AM 13.57 56.426 0.06 6.83 0.44 9.99
5/21/2021 6:15:00 AM 13.51 56.318 0.06 6.75 0.38 10.02
5/21/2021 6:30:00 AM 13.46 56.228 0.06 6.85 0.34 10.05
5/21/2021 6:45:00 AM 13.42 56.156 0.06 6.83 0.36 10.08
5/21/2021 7:00:00 AM 13.39 56.102 0.06 6.85 0.41 10.11
5/21/2021 7:15:00 AM 13.36 56.048 0.06 6.84 0.39 10.14
5/21/2021 7:30:00 AM 13.34 56.012 0.06 6.85 0.33 10.16
5/21/2021 7:45:00 AM 13.32 55.976 0.06 6.85 0.3 10.19
5/21/2021 8:00:00 AM 13.32 55.976 0.06 6.87 0.33 10.21
5/21/2021 8:15:00 AM 13.33 55.994 0.06 6.88 0.34 10.24
5/21/2021 8:30:00 AM 13.36 56.048 0.06 6.9 0.29 10.27
5/21/2021 8:45:00 AM 13.4 56.12 0.06 6.91 0.31 10.29
5/21/2021 9:00:00 AM 13.45 56.21 0.06 6.92 0.33 10.31
5/21/2021 9:15:00 AM 13.52 56.336 0.06 6.94 0.28 10.31
5/21/2021 9:30:00 AM 13.6 56.48 0.06 6.95 0.29 10.32
5/21/2021 9:45:00 AM 13.69 56.642 0.059 6.96 0.26 10.33
5/21/2021 10:00:00 AM 13.8 56.84 0.059 6.99 0.3 10.32
5/21/2021 10:15:00 AM 13.92 57.056 0.059 6.98 0.25 10.32
5/21/2021 10:30:00 AM 14.04 57.272 0.059 7 0.34 10.31
5/21/2021 10:45:00 AM 14.19 57.542 0.059 7.02 0.29 10.28
5/21/2021 11:00:00 AM 14.36 57.848 0.059 7.02 0.29 10.26
5/21/2021 11:15:00 AM 14.55 58.19 0.059 7.04 0.32 10.23
5/21/2021 11:30:00 AM 14.75 58.55 0.059 7.04 0.31 10.19
5/21/2021 11:45:00 AM 14.98 58.964 0.059 7.05 0.27 10.14
5/21/2021 12:00:00 PM 15.25 59.45 0.059 7.05 0.26 10.08
5/21/2021 12:15:00 PM 15.54 59.972 0.059 7.07 0.24 10.02
5/21/2021 12:30:00 PM 15.84 60.512 0.059 7.05 0.31 9.96
5/21/2021 12:45:00 PM 16.14 61.052 0.059 7.08 0.2 9.9
5/21/2021 1:00:00 PM 16.4 61.52 0.059 7.06 0.2 9.84
5/21/2021 1:15:00 PM 16.64 61.952 0.059 7.07 0.18 9.78
5/21/2021 1:30:00 PM 16.85 62.33 0.059 7.07 0.13 9.73
5/21/2021 1:45:00 PM 17.01 62.618 0.059 7.07 0.22 9.67
5/21/2021 2:00:00 PM 17.15 62.87 0.059 7.06 0.15 9.62
5/21/2021 2:15:00 PM 17.23 63.014 0.059 7.06 0.12 9.59
5/21/2021 2:30:00 PM 17.29 63.122 0.059 7.06 0.1 9.56
5/21/2021 2:45:00 PM 17.32 63.176 0.059 7.05 0.2 9.54
5/21/2021 3:00:00 PM 17.33 63.194 0.059 6.98 0.14 9.52
5/21/2021 3:15:00 PM 17.33 63.194 0.059 7.04 0.25 9.5
5/21/2021 3:30:00 PM 17.29 63.122 0.059 7.04 0.17 9.49
5/21/2021 3:45:00 PM 17.24 63.032 0.059 7.02 0.18 9.48
5/21/2021 4:00:00 PM 17.19 62.942 0.059 7.02 0.13 9.47
5/21/2021 4:15:00 PM 17.13 62.834 0.059 7 0.15 9.46
5/21/2021 4:30:00 PM 17.1 62.78 0.059 6.99 0.28 9.44
5/21/2021 4:45:00 PM 17.07 62.726 0.059 6.98 0.3 9.43
5/21/2021 5:00:00 PM 17.03 62.654 0.059 6.98 0.19 9.41
5/21/2021 5:15:00 PM 17.01 62.618 0.059 6.93 0.22 9.42
5/21/2021 5:30:00 PM 16.99 62.582 0.059 6.96 0.22 9.4
5/21/2021 5:45:00 PM 16.96 62.528 0.059 6.95 0.21 9.38
5/21/2021 6:00:00 PM 16.94 62.492 0.059 6.92 0.24 9.37
5/21/2021 6:15:00 PM 16.91 62.438 0.059 6.93 0.1 9.36
5/21/2021 6:30:00 PM 16.89 62.402 0.059 6.93 0.14 9.36
5/21/2021 6:45:00 PM 16.86 62.348 0.06 6.85 0.29 9.35
5/21/2021 7:00:00 PM 16.82 62.276 0.06 6.9 0.2 9.34
5/21/2021 7:15:00 PM 16.78 62.204 0.06 6.9 0.17 9.34
5/21/2021 7:30:00 PM 16.73 62.114 0.06 6.89 0.18 9.34
5/21/2021 7:45:00 PM 16.68 62.024 0.06 6.88 0.17 9.34
5/21/2021 8:00:00 PM 16.63 61.934 0.06 6.88 0.2 9.32
5/21/2021 8:15:00 PM 16.57 61.826 0.06 6.87 0.25 9.31
5/21/2021 8:30:00 PM 16.51 61.718 0.06 6.86 0.28 9.3
5/21/2021 8:45:00 PM 16.45 61.61 0.06 6.86 0.29 9.29
5/21/2021 9:00:00 PM 16.38 61.484 0.06 6.8 0.28 9.3
5/21/2021 9:15:00 PM 16.32 61.376 0.06 6.84 0.24 9.31
5/21/2021 9:30:00 PM 16.25 61.25 0.061 6.81 0.29 9.33
5/21/2021 9:45:00 PM 16.18 61.124 0.061 6.85 0.25 9.34
5/21/2021 10:00:00 PM 16.11 60.998 0.061 6.83 0.23 9.36
5/21/2021 10:15:00 PM 16.04 60.872 0.061 6.85 0.31 9.37
5/21/2021 10:30:00 PM 15.97 60.746 0.061 6.84 0.32 9.39
5/21/2021 10:45:00 PM 15.9 60.62 0.061 6.83 0.23 9.41
5/21/2021 11:00:00 PM 15.84 60.512 0.061 6.84 0.24 9.42
5/21/2021 11:15:00 PM 15.77 60.386 0.061 6.84 0.28 9.43
5/21/2021 11:30:00 PM 15.71 60.278 0.061 6.81 0.3 9.45
5/21/2021 11:45:00 PM 15.65 60.17 0.061 6.85 0.34 9.46
5/22/2021 12:00:00 AM 15.59 60.062 0.061 6.83 0.39 9.47
5/22/2021 12:15:00 AM 15.53 59.954 0.061 6.83 0.41 9.48
5/22/2021 12:30:00 AM 15.47 59.846 0.061 6.83 0.29 9.49
5/22/2021 12:45:00 AM 15.42 59.756 0.061 6.83 0.43 9.51
5/22/2021 1:00:00 AM 15.37 59.666 0.061 6.83 0.43 9.51
5/22/2021 1:15:00 AM 15.32 59.576 0.061 6.83 0.3 9.52
5/22/2021 1:30:00 AM 15.27 59.486 0.061 6.82 0.34 9.53
5/22/2021 1:45:00 AM 15.23 59.414 0.061 6.82 0.27 9.54
5/22/2021 2:00:00 AM 15.19 59.342 0.061 6.81 0.27 9.55
5/22/2021 2:15:00 AM 15.15 59.27 0.061 6.76 0.38 9.56
5/22/2021 2:30:00 AM 15.11 59.198 0.061 6.82 0.25 9.57
5/22/2021 2:45:00 AM 15.07 59.126 0.061 6.82 0.38 9.57
5/22/2021 3:00:00 AM 15.03 59.054 0.061 6.81 0.22 9.58
5/22/2021 3:15:00 AM 15 59 0.061 6.81 0.32 9.59
5/22/2021 3:30:00 AM 14.97 58.946 0.061 6.81 0.35 9.6
5/22/2021 3:45:00 AM 14.94 58.892 0.061 6.81 0.22 9.6
5/22/2021 4:00:00 AM 14.91 58.838 0.061 6.79 0.31 9.61
5/22/2021 4:15:00 AM 14.88 58.784 0.061 6.8 0.42 9.62
5/22/2021 4:30:00 AM 14.85 58.73 0.061 6.73 0.33 9.63
5/22/2021 4:45:00 AM 14.82 58.676 0.061 6.8 0.3 9.63
5/22/2021 5:00:00 AM 14.79 58.622 0.061 6.8 0.41 9.64
5/22/2021 5:15:00 AM 14.75 58.55 0.061 6.8 0.35 9.65
5/22/2021 5:30:00 AM 14.72 58.496 0.061 6.75 0.29 9.65
5/22/2021 5:45:00 AM 14.68 58.424 0.061 6.8 0.33 9.66
5/22/2021 6:00:00 AM 14.65 58.37 0.061 6.8 0.28 9.68
5/22/2021 6:15:00 AM 14.62 58.316 0.061 6.81 0.38 9.7
5/22/2021 6:30:00 AM 14.59 58.262 0.061 6.8 0.31 9.73
5/22/2021 6:45:00 AM 14.57 58.226 0.061 6.81 0.31 9.75
5/22/2021 7:00:00 AM 14.55 58.19 0.061 6.8 0.3 9.78
5/22/2021 7:15:00 AM 14.53 58.154 0.061 6.84 0.24 9.81
5/22/2021 7:30:00 AM 14.53 58.154 0.061 6.83 0.28 9.86
5/22/2021 7:45:00 AM 14.54 58.172 0.061 6.86 0.34 9.91
5/22/2021 8:00:00 AM 14.55 58.19 0.061 6.87 0.31 9.92
5/22/2021 8:15:00 AM 14.57 58.226 0.061 6.87 0.34 9.94
5/22/2021 8:30:00 AM 14.59 58.262 0.061 6.89 0.28 9.96
5/22/2021 8:45:00 AM 14.63 58.334 0.061 6.89 0.32 9.99
5/22/2021 9:00:00 AM 14.66 58.388 0.061 6.9 0.25 9.99
5/22/2021 9:15:00 AM 14.7 58.46 0.061 6.91 0.29 10
5/22/2021 9:30:00 AM 14.75 58.55 0.061 6.93 0.29 10.01
5/22/2021 9:45:00 AM 14.81 58.658 0.061 6.94 0.35 10.01
5/22/2021 10:00:00 AM 14.85 58.73 0.061 6.95 0.27 9.99
5/22/2021 10:15:00 AM 14.9 58.82 0.061 6.95 0.29 9.99
5/22/2021 10:30:00 AM 14.98 58.964 0.061 6.96 0.17 10
5/22/2021 10:45:00 AM 15.13 59.234 0.061 6.99 0.22 10
5/22/2021 11:00:00 AM 15.3 59.54 0.061 7.01 0.23 10
5/22/2021 11:15:00 AM 15.49 59.882 0.06 7.03 0.22 9.98
5/22/2021 11:30:00 AM 15.53 59.954 0.06 7.05 0.26 9.93
5/22/2021 11:45:00 AM 15.64 60.152 0.06 7.06 0.28 9.91
5/22/2021 12:00:00 PM 15.79 60.422 0.06 7.05 0.27 9.89
5/22/2021 12:15:00 PM 15.95 60.71 0.06 7.08 0.44 9.87
5/22/2021 12:30:00 PM 16.09 60.962 0.06 7.09 0.33 9.82
5/22/2021 12:45:00 PM 16.2 61.16 0.06 7.07 0.34 9.77
5/22/2021 1:00:00 PM 16.28 61.304 0.06 7.07 0.34 9.74
5/22/2021 1:15:00 PM 16.34 61.412 0.06 7.08 0.32 9.73
5/22/2021 1:30:00 PM 16.37 61.466 0.06 7.08 0.24 9.71
5/22/2021 1:45:00 PM 16.42 61.556 0.06 7.07 0.28 9.7
5/22/2021 2:00:00 PM 16.48 61.664 0.06 7.08 0.3 9.68
5/22/2021 2:15:00 PM 16.54 61.772 0.06 7.08 0.27 9.68
5/22/2021 2:30:00 PM 16.6 61.88 0.06 7.09 0.3 9.66
5/22/2021 2:45:00 PM 16.72 62.096 0.06 7.1 0.25 9.64
5/22/2021 3:00:00 PM 16.77 62.186 0.06 7.08 0.29 9.61
5/22/2021 3:15:00 PM 16.81 62.258 0.06 7.08 0.38 9.59
5/22/2021 3:30:00 PM 16.84 62.312 0.06 7.08 0.28 9.55
5/22/2021 3:45:00 PM 16.87 62.366 0.06 7.06 0.36 9.53
5/22/2021 4:00:00 PM 16.89 62.402 0.06 7.06 0.27 9.5
5/22/2021 4:15:00 PM 16.92 62.456 0.06 7.05 0.35 9.49
5/22/2021 4:30:00 PM 16.97 62.546 0.06 7.04 0.29 9.47
5/22/2021 4:45:00 PM 16.99 62.582 0.06 7.05 0.31 9.46
5/22/2021 5:00:00 PM 17.01 62.618 0.06 7.03 0.37 9.43
5/22/2021 5:15:00 PM 17 62.6 0.06 7.02 0.31 9.37
5/22/2021 5:30:00 PM 16.97 62.546 0.06 7 0.36 9.34
5/22/2021 5:45:00 PM 16.94 62.492 0.06 6.97 0.31 9.31
5/22/2021 6:00:00 PM 16.94 62.492 0.06 6.96 0.39 9.33
5/22/2021 6:15:00 PM 16.95 62.51 0.06 6.98 0.43 9.34
5/22/2021 6:30:00 PM 16.94 62.492 0.06 6.96 0.5 9.34
5/22/2021 6:45:00 PM 16.94 62.492 0.06 6.96 0.37 9.3
5/22/2021 7:00:00 PM 16.92 62.456 0.061 6.96 0.35 9.29
5/22/2021 7:15:00 PM 16.89 62.402 0.061 6.94 0.37 9.25
5/22/2021 7:30:00 PM 16.85 62.33 0.061 6.92 0.38 9.23
5/22/2021 7:45:00 PM 16.81 62.258 0.061 6.91 0.47 9.21
5/22/2021 8:00:00 PM 16.75 62.15 0.061 6.91 0.39 9.19
5/22/2021 8:15:00 PM 16.7 62.06 0.061 6.89 0.39 9.18
5/22/2021 8:30:00 PM 16.66 61.988 0.061 6.88 0.41 9.17
5/22/2021 8:45:00 PM 16.6 61.88 0.061 6.88 0.45 9.17
5/22/2021 9:00:00 PM 16.54 61.772 0.061 6.86 0.43 9.18
5/22/2021 9:15:00 PM 16.49 61.682 0.061 6.87 0.53 9.19
5/22/2021 9:30:00 PM 16.43 61.574 0.061 6.85 0.51 9.19
5/22/2021 9:45:00 PM 16.38 61.484 0.061 6.85 0.5 9.21
5/22/2021 10:00:00 PM 16.34 61.412 0.061 6.85 0.49 9.21
5/22/2021 10:15:00 PM 16.29 61.322 0.061 6.85 0.44 9.22
5/22/2021 10:30:00 PM 16.25 61.25 0.061 6.84 0.42 9.23
5/22/2021 10:45:00 PM 16.21 61.178 0.061 6.77 0.49 9.24
5/22/2021 11:00:00 PM 16.17 61.106 0.061 6.84 0.49 9.25
5/22/2021 11:15:00 PM 16.14 61.052 0.061 6.83 0.43 9.26
5/22/2021 11:30:00 PM 16.11 60.998 0.061 6.83 0.38 9.26
5/22/2021 11:45:00 PM 16.07 60.926 0.061 6.84 0.33 9.27
5/23/2021 12:00:00 AM 16.03 60.854 0.061 6.84 0.49 9.28
5/23/2021 12:15:00 AM 16 60.8 0.061 6.83 0.42 9.28
5/23/2021 12:30:00 AM 15.96 60.728 0.062 6.84 0.43 9.29
5/23/2021 12:45:00 AM 15.93 60.674 0.062 6.85 0.46 9.3
5/23/2021 1:00:00 AM 15.9 60.62 0.062 6.84 0.5 9.3
5/23/2021 1:15:00 AM 15.87 60.566 0.062 6.84 0.44 9.31
5/23/2021 1:30:00 AM 15.84 60.512 0.062 6.84 0.43 9.32
5/23/2021 1:45:00 AM 15.81 60.458 0.062 6.81 0.43 9.32
5/23/2021 2:00:00 AM 15.78 60.404 0.062 6.83 0.54 9.32
5/23/2021 2:15:00 AM 15.75 60.35 0.062 6.84 0.46 9.33
5/23/2021 2:30:00 AM 15.72 60.296 0.062 6.83 0.43 9.33
5/23/2021 2:45:00 AM 15.69 60.242 0.062 6.84 0.29 9.34
5/23/2021 3:00:00 AM 15.65 60.17 0.062 6.83 0.3 9.34
5/23/2021 3:15:00 AM 15.62 60.116 0.062 6.82 0.25 9.36
5/23/2021 3:30:00 AM 15.58 60.044 0.062 6.84 0.3 9.36
5/23/2021 3:45:00 AM 15.55 59.99 0.062 6.84 0.3 9.38
5/23/2021 4:00:00 AM 15.51 59.918 0.062 6.84 0.42 9.38
5/23/2021 4:15:00 AM 15.48 59.864 0.062 6.85 0.27 9.39
5/23/2021 4:30:00 AM 15.45 59.81 0.062 6.85 0.52 9.4
5/23/2021 4:45:00 AM 15.41 59.738 0.062 6.85 0.3 9.4
5/23/2021 5:00:00 AM 15.37 59.666 0.062 6.85 0.34 9.41
5/23/2021 5:15:00 AM 15.34 59.612 0.062 6.85 0.43 9.42
5/23/2021 5:30:00 AM 15.3 59.54 0.062 6.85 0.45 9.43
5/23/2021 5:45:00 AM 15.27 59.486 0.062 6.86 0.31 9.44
5/23/2021 6:00:00 AM 15.24 59.432 0.062 6.86 0.41 9.45
5/23/2021 6:15:00 AM 15.22 59.396 0.062 6.85 0.36 9.47
5/23/2021 6:30:00 AM 15.2 59.36 0.062 6.79 0.34 9.49
5/23/2021 6:45:00 AM 15.18 59.324 0.062 6.88 0.4 9.52
5/23/2021 7:00:00 AM 15.17 59.306 0.062 6.87 0.31 9.54
5/23/2021 7:15:00 AM 15.16 59.288 0.061 6.87 0.37 9.55
5/23/2021 7:30:00 AM 15.16 59.288 0.061 6.88 0.25 9.57
5/23/2021 7:45:00 AM 15.16 59.288 0.061 6.89 0.36 9.58
5/23/2021 8:00:00 AM 15.17 59.306 0.061 6.9 0.32 9.6
5/23/2021 8:15:00 AM 15.19 59.342 0.061 6.91 0.32 9.61
5/23/2021 8:30:00 AM 15.22 59.396 0.061 6.91 0.32 9.63
5/23/2021 8:45:00 AM 15.27 59.486 0.061 6.94 0.34 9.65
5/23/2021 9:00:00 AM 15.33 59.594 0.061 6.96 0.31 9.66
5/23/2021 9:15:00 AM 15.4 59.72 0.061 6.97 0.31 9.68
5/23/2021 9:30:00 AM 15.49 59.882 0.061 6.98 0.28 9.68
5/23/2021 9:45:00 AM 15.58 60.044 0.061 6.99 0.24 9.68
5/23/2021 10:00:00 AM 15.72 60.296 0.061 7.01 0.35 9.68
5/23/2021 10:15:00 AM 15.83 60.494 0.061 7.01 0.29 9.66
5/23/2021 10:30:00 AM 15.9 60.62 0.061 7.03 0.3 9.63
5/23/2021 10:45:00 AM 16.05 60.89 0.061 7.04 0.32 9.65
5/23/2021 11:00:00 AM 16.17 61.106 0.061 7.05 0.37 9.63
5/23/2021 11:15:00 AM 16.32 61.376 0.061 7.06 0.3 9.61
5/23/2021 11:30:00 AM 16.42 61.556 0.061 7.02 0.34 9.56
5/23/2021 11:45:00 AM 16.52 61.736 0.061 7.06 0.3 9.52
5/23/2021 12:00:00 PM 16.66 61.988 0.061 7.06 0.29 9.5
5/23/2021 12:15:00 PM 16.9 62.42 0.061 7.07 0.3 9.5
5/23/2021 12:30:00 PM 17.18 62.924 0.061 7.08 0.28 9.46
5/23/2021 12:45:00 PM 17.49 63.482 0.061 7.06 0.27 9.4
5/23/2021 1:00:00 PM 17.71 63.878 0.061 7.1 0.28 9.35
5/23/2021 1:15:00 PM 17.88 64.184 0.061 7.1 0.24 9.29
5/23/2021 1:30:00 PM 17.99 64.382 0.061 7.1 0.24 9.26
5/23/2021 1:45:00 PM 18.2 64.76 0.061 7.11 0.16 9.25
5/23/2021 2:00:00 PM 18.3 64.94 0.061 7.11 0.16 9.21
5/23/2021 2:15:00 PM 18.28 64.904 0.061 7.07 0.18 9.13
5/23/2021 2:30:00 PM 18.29 64.922 0.061 7.07 0.21 9.14
5/23/2021 2:45:00 PM 18.32 64.976 0.061 7.07 0.2 9.13
5/23/2021 3:00:00 PM 18.24 64.832 0.061 7.07 0.17 9.11
5/23/2021 3:15:00 PM 18.16 64.688 0.061 7.08 0.19 9.12
5/23/2021 3:30:00 PM 18.15 64.67 0.061 7.07 0.21 9.12
5/23/2021 3:45:00 PM 18.12 64.616 0.061 7.06 0.23 9.13
5/23/2021 4:00:00 PM 18.08 64.544 0.061 7.07 0.21 9.14
5/23/2021 4:15:00 PM 18.09 64.562 0.061 7.06 0.19 9.14
5/23/2021 4:30:00 PM 18.05 64.49 0.061 7.05 0.2 9.13
5/23/2021 4:45:00 PM 18.01 64.418 0.061 7.03 0.2 9.1
5/23/2021 5:00:00 PM 17.99 64.382 0.061 7.03 0.18 9.08
5/23/2021 5:15:00 PM 18 64.4 0.061 7.03 0.22 9.09
5/23/2021 5:30:00 PM 18 64.4 0.061 7.03 0.26 9.06
5/23/2021 5:45:00 PM 17.99 64.382 0.061 7.02 0.23 9.05
5/23/2021 6:00:00 PM 17.97 64.346 0.061 7.01 0.22 9.03
5/23/2021 6:15:00 PM 17.95 64.31 0.061 7.01 0.21 9.02
5/23/2021 6:30:00 PM 17.92 64.256 0.061 7 0.21 9
5/23/2021 6:45:00 PM 17.89 64.202 0.061 6.99 0.19 9
5/23/2021 7:00:00 PM 17.86 64.148 0.061 6.98 0.17 8.99
5/23/2021 7:15:00 PM 17.83 64.094 0.061 6.97 0.26 8.97
5/23/2021 7:30:00 PM 17.79 64.022 0.061 6.91 0.16 8.96
5/23/2021 7:45:00 PM 17.75 63.95 0.061 6.94 0.14 8.95
5/23/2021 8:00:00 PM 17.72 63.896 0.061 6.93 0.22 8.94
5/23/2021 8:15:00 PM 17.67 63.806 0.061 6.93 0.23 8.93
5/23/2021 8:30:00 PM 17.62 63.716 0.061 6.91 0.29 8.93
5/23/2021 8:45:00 PM 17.56 63.608 0.061 6.91 0.25 8.92
5/23/2021 9:00:00 PM 17.5 63.5 0.061 6.9 0.32 8.93
5/23/2021 9:15:00 PM 17.44 63.392 0.061 6.91 0.29 8.94
5/23/2021 9:30:00 PM 17.37 63.266 0.061 6.91 0.3 8.96
5/23/2021 9:45:00 PM 17.29 63.122 0.061 6.9 0.36 8.97
5/23/2021 10:00:00 PM 17.21 62.978 0.061 6.91 0.32 9
5/23/2021 10:15:00 PM 17.13 62.834 0.061 6.91 0.27 9.01
5/23/2021 10:30:00 PM 17.05 62.69 0.061 6.91 0.28 9.03
5/23/2021 10:45:00 PM 16.96 62.528 0.061 6.9 0.32 9.05
5/23/2021 11:00:00 PM 16.87 62.366 0.061 6.85 0.28 9.08
5/23/2021 11:15:00 PM 16.79 62.222 0.062 6.91 0.37 9.09
5/23/2021 11:30:00 PM 16.69 62.042 0.062 6.9 0.23 9.12
5/23/2021 11:45:00 PM 16.61 61.898 0.062 6.86 0.2 9.14
5/24/2021 12:00:00 AM 16.52 61.736 0.062 6.9 0.31 9.16
5/24/2021 12:15:00 AM 16.44 61.592 0.062 6.9 0.32 9.18
5/24/2021 12:30:00 AM 16.35 61.43 0.062 6.9 0.29 9.2
5/24/2021 12:45:00 AM 16.27 61.286 0.062 6.89 0.3 9.22
5/24/2021 1:00:00 AM 16.19 61.142 0.062 6.89 0.23 9.24
5/24/2021 1:15:00 AM 16.11 60.998 0.062 6.9 0.37 9.26
5/24/2021 1:30:00 AM 16.03 60.854 0.062 6.91 0.22 9.27
5/24/2021 1:45:00 AM 15.95 60.71 0.062 6.91 0.3 9.29
5/24/2021 2:00:00 AM 15.87 60.566 0.062 6.91 0.31 9.31
5/24/2021 2:15:00 AM 15.8 60.44 0.062 6.9 0.22 9.33
5/24/2021 2:30:00 AM 15.73 60.314 0.062 6.89 0.33 9.34
5/24/2021 2:45:00 AM 15.66 60.188 0.062 6.87 0.37 9.36
5/24/2021 3:00:00 AM 15.59 60.062 0.062 6.92 0.35 9.38
5/24/2021 3:15:00 AM 15.52 59.936 0.062 6.91 0.3 9.4
5/24/2021 3:30:00 AM 15.44 59.792 0.062 6.89 0.32 9.41
5/24/2021 3:45:00 AM 15.37 59.666 0.062 6.91 0.33 9.43
5/24/2021 4:00:00 AM 15.3 59.54 0.062 6.91 0.31 9.44
5/24/2021 4:15:00 AM 15.23 59.414 0.062 6.92 0.42 9.46
5/24/2021 4:30:00 AM 15.16 59.288 0.062 6.91 0.43 9.48
5/24/2021 4:45:00 AM 15.08 59.144 0.062 6.91 0.33 9.5
5/24/2021 5:00:00 AM 15.01 59.018 0.062 6.87 0.37 9.51
5/24/2021 5:15:00 AM 14.94 58.892 0.062 6.91 0.36 9.53
5/24/2021 5:30:00 AM 14.87 58.766 0.062 6.91 0.35 9.55
5/24/2021 5:45:00 AM 14.81 58.658 0.062 6.91 0.48 9.56
5/24/2021 6:00:00 AM 14.75 58.55 0.062 6.91 0.34 9.59
5/24/2021 6:15:00 AM 14.7 58.46 0.062 6.91 0.35 9.61
5/24/2021 6:30:00 AM 14.65 58.37 0.062 6.91 0.3 9.63
5/24/2021 6:45:00 AM 14.61 58.298 0.061 6.91 0.31 9.67
5/24/2021 7:00:00 AM 14.57 58.226 0.061 6.92 0.28 9.7
5/24/2021 7:15:00 AM 14.55 58.19 0.061 6.93 0.23 9.73
5/24/2021 7:30:00 AM 14.54 58.172 0.061 6.92 0.22 9.77
5/24/2021 7:45:00 AM 14.55 58.19 0.061 6.96 0.29 9.81
5/24/2021 8:00:00 AM 14.55 58.19 0.061 6.97 0.28 9.83
5/24/2021 8:15:00 AM 14.56 58.208 0.061 6.97 0.22 9.83
5/24/2021 8:30:00 AM 14.55 58.19 0.061 6.97 0.25 9.86
5/24/2021 8:45:00 AM 14.57 58.226 0.061 7 0.23 9.9
5/24/2021 9:00:00 AM 14.59 58.262 0.061 7 0.23 9.91
5/24/2021 9:15:00 AM 14.59 58.262 0.061 7.02 0.22 9.93
5/24/2021 9:30:00 AM 14.61 58.298 0.061 7.03 0.33 9.95
5/24/2021 9:45:00 AM 14.66 58.388 0.061 7.04 0.25 9.97
5/24/2021 10:00:00 AM 14.7 58.46 0.061 7.06 0.21 9.99
5/24/2021 10:15:00 AM 14.75 58.55 0.061 7.07 0.25 10
5/24/2021 10:30:00 AM 14.79 58.622 0.061 7.08 0.26 9.99
5/24/2021 10:45:00 AM 14.83 58.694 0.061 7.07 0.4 9.99
5/24/2021 11:00:00 AM 14.86 58.748 0.061 7.08 0.29 9.96
5/24/2021 11:15:00 AM 14.93 58.874 0.061 7.08 0.22 9.98
5/24/2021 11:30:00 AM 14.99 58.982 0.061 7.09 0.29 9.97
5/24/2021 11:45:00 AM 15.05 59.09 0.061 7.11 0.23 9.96
5/24/2021 12:00:00 PM 15.13 59.234 0.061 7.1 0.35 9.96
5/24/2021 12:15:00 PM 15.21 59.378 0.061 7.11 0.3 9.94
5/24/2021 12:30:00 PM 15.22 59.396 0.061 7.09 0.22 9.86
5/24/2021 12:45:00 PM 15.19 59.342 0.061 7.06 0.29 9.82
5/24/2021 1:00:00 PM 15.19 59.342 0.061 7.06 0.4 9.81
5/24/2021 1:15:00 PM 15.19 59.342 0.061 7.06 0.23 9.81
5/24/2021 1:30:00 PM 15.18 59.324 0.061 7.06 0.29 9.82
5/24/2021 1:45:00 PM 15.16 59.288 0.061 7.06 0.19 9.82
5/24/2021 2:00:00 PM 15.15 59.27 0.061 7.04 0.28 9.81
5/24/2021 2:15:00 PM 15.14 59.252 0.061 7.05 0.21 9.8
5/24/2021 2:30:00 PM 15.12 59.216 0.061 7.03 0.25 9.77
5/24/2021 2:45:00 PM 15.08 59.144 0.061 7.02 0.23 9.74
5/24/2021 3:00:00 PM 15.05 59.09 0.061 7.01 0.2 9.76
5/24/2021 3:15:00 PM 15.03 59.054 0.061 7 0.21 9.78
5/24/2021 3:30:00 PM 15 59 0.061 7.01 0.17 9.79
5/24/2021 3:45:00 PM 14.99 58.982 0.061 7.01 0.16 9.79
5/24/2021 4:00:00 PM 14.96 58.928 0.061 7 0.17 9.78
5/24/2021 4:15:00 PM 14.94 58.892 0.061 7 0.15 9.75
5/24/2021 4:30:00 PM 14.91 58.838 0.061 6.99 0.22 9.74
5/24/2021 4:45:00 PM 14.88 58.784 0.061 6.99 0.21 9.73
5/24/2021 5:00:00 PM 14.84 58.712 0.061 6.97 0.23 9.72
5/24/2021 5:15:00 PM 14.81 58.658 0.061 6.97 0.23 9.71
5/24/2021 5:30:00 PM 14.78 58.604 0.061 6.96 0.28 9.7
5/24/2021 5:45:00 PM 14.76 58.568 0.061 6.96 0.28 9.7
5/24/2021 6:00:00 PM 14.73 58.514 0.061 6.94 0.28 9.7
5/24/2021 6:15:00 PM 14.7 58.46 0.061 6.96 0.22 9.71
5/24/2021 6:30:00 PM 14.67 58.406 0.062 6.95 0.41 9.7
5/24/2021 6:45:00 PM 14.63 58.334 0.062 6.92 0.23 9.7
5/24/2021 7:00:00 PM 14.6 58.28 0.062 6.94 0.2 9.71
5/24/2021 7:15:00 PM 14.58 58.244 0.062 6.95 0.17 9.7
5/24/2021 7:30:00 PM 14.55 58.19 0.062 6.91 0.27 9.69
5/24/2021 7:45:00 PM 14.52 58.136 0.062 6.94 0.25 9.71
5/24/2021 8:00:00 PM 14.49 58.082 0.062 6.92 0.19 9.7
5/24/2021 8:15:00 PM 14.46 58.028 0.062 6.91 0.25 9.7
5/24/2021 8:30:00 PM 14.44 57.992 0.062 6.92 0.23 9.7
5/24/2021 8:45:00 PM 14.41 57.938 0.062 6.9 0.28 9.71
5/24/2021 9:00:00 PM 14.38 57.884 0.062 6.91 0.32 9.71
5/24/2021 9:15:00 PM 14.35 57.83 0.062 6.91 0.37 9.72
5/24/2021 9:30:00 PM 14.32 57.776 0.062 6.92 0.26 9.72
5/24/2021 9:45:00 PM 14.29 57.722 0.062 6.92 0.43 9.73
5/24/2021 10:00:00 PM 14.26 57.668 0.062 6.92 0.25 9.73
5/24/2021 10:15:00 PM 14.23 57.614 0.062 6.91 0.38 9.75
5/24/2021 10:30:00 PM 14.2 57.56 0.062 6.92 0.32 9.76
5/24/2021 10:45:00 PM 14.18 57.524 0.062 6.9 0.25 9.77
5/24/2021 11:00:00 PM 14.15 57.47 0.062 6.91 0.28 9.77
5/24/2021 11:15:00 PM 14.12 57.416 0.062 6.92 0.24 9.78
5/24/2021 11:30:00 PM 14.09 57.362 0.062 6.92 0.37 9.79
5/24/2021 11:45:00 PM 14.06 57.308 0.062 6.91 0.24 9.79
5/25/2021 12:00:00 AM 14.03 57.254 0.062 6.92 0.3 9.8
5/25/2021 12:15:00 AM 14 57.2 0.062 6.91 0.29 9.8
5/25/2021 12:30:00 AM 13.97 57.146 0.062 6.91 0.28 9.81
5/25/2021 12:45:00 AM 13.94 57.092 0.062 6.91 0.35 9.82
5/25/2021 1:00:00 AM 13.91 57.038 0.062 6.91 0.29 9.83
5/25/2021 1:15:00 AM 13.88 56.984 0.062 6.91 0.41 9.83
5/25/2021 1:30:00 AM 13.85 56.93 0.062 6.92 0.28 9.83
5/25/2021 1:45:00 AM 13.83 56.894 0.062 6.91 0.36 9.84
5/25/2021 2:00:00 AM 13.8 56.84 0.062 6.91 0.31 9.85
5/25/2021 2:15:00 AM 13.77 56.786 0.062 6.91 0.28 9.85
5/25/2021 2:30:00 AM 13.75 56.75 0.062 6.92 0.25 9.86
5/25/2021 2:45:00 AM 13.72 56.696 0.062 6.86 0.3 9.87
5/25/2021 3:00:00 AM 13.69 56.642 0.062 6.92 0.31 9.87
5/25/2021 3:15:00 AM 13.66 56.588 0.062 6.92 0.32 9.88
5/25/2021 3:30:00 AM 13.64 56.552 0.062 6.92 0.35 9.88
5/25/2021 3:45:00 AM 13.61 56.498 0.062 6.92 0.23 9.89
5/25/2021 4:00:00 AM 13.59 56.462 0.062 6.9 0.26 9.9
5/25/2021 4:15:00 AM 13.57 56.426 0.062 6.92 0.22 9.9
5/25/2021 4:30:00 AM 13.55 56.39 0.062 6.91 0.35 9.91
5/25/2021 4:45:00 AM 13.52 56.336 0.062 6.82 0.23 9.91
5/25/2021 5:00:00 AM 13.5 56.3 0.062 6.91 0.22 9.91
5/25/2021 5:15:00 AM 13.48 56.264 0.062 6.91 0.27 9.93
5/25/2021 5:30:00 AM 13.46 56.228 0.062 6.92 0.22 9.93
5/25/2021 5:45:00 AM 13.44 56.192 0.062 6.92 0.26 9.94
5/25/2021 6:00:00 AM 13.41 56.138 0.062 6.92 0.28 9.94
5/25/2021 6:15:00 AM 13.4 56.12 0.062 6.91 0.23 9.97
5/25/2021 6:30:00 AM 13.38 56.084 0.062 6.92 0.21 9.98
5/25/2021 6:45:00 AM 13.37 56.066 0.062 6.92 0.22 10
5/25/2021 7:00:00 AM 13.36 56.048 0.062 6.94 0.31 10.03
5/25/2021 7:15:00 AM 13.36 56.048 0.062 6.93 0.21 10.04
5/25/2021 7:30:00 AM 13.36 56.048 0.062 6.95 0.16 10.08
5/25/2021 7:45:00 AM 13.37 56.066 0.062 6.97 0.23 10.12
5/25/2021 8:00:00 AM 13.38 56.084 0.062 6.97 0.19 10.14
5/25/2021 8:15:00 AM 13.39 56.102 0.062 6.97 0.24 10.15
5/25/2021 8:30:00 AM 13.41 56.138 0.062 6.99 0.23 10.15
5/25/2021 8:45:00 AM 13.43 56.174 0.062 7 0.22 10.15
5/25/2021 9:00:00 AM 13.45 56.21 0.062 7.01 0.21 10.17
5/25/2021 9:15:00 AM 13.48 56.264 0.062 7.01 0.24 10.18
5/25/2021 9:30:00 AM 13.52 56.336 0.061 7.02 0.21 10.18
5/25/2021 9:45:00 AM 13.55 56.39 0.061 7.03 0.27 10.19
5/25/2021 10:00:00 AM 13.6 56.48 0.061 7.04 0.27 10.19
5/25/2021 10:15:00 AM 13.64 56.552 0.061 7.03 0.22 10.2
5/25/2021 10:30:00 AM 13.68 56.624 0.061 7.02 0.29 10.18
5/25/2021 10:45:00 AM 13.72 56.696 0.061 7.04 0.15 10.18
5/25/2021 11:00:00 AM 13.76 56.768 0.061 7.05 0.2 10.16
5/25/2021 11:15:00 AM 13.8 56.84 0.061 7.05 0.2 10.15
5/25/2021 11:30:00 AM 13.84 56.912 0.061 7.05 0.25 10.14
5/25/2021 11:45:00 AM 13.89 57.002 0.061 7.06 0.23 10.15
5/25/2021 12:00:00 PM 13.95 57.11 0.061 7.06 0.24 10.15
5/25/2021 12:15:00 PM 14 57.2 0.061 7.07 0.18 10.15
5/25/2021 12:30:00 PM 14.06 57.308 0.061 7.08 0.14 10.14
5/25/2021 12:45:00 PM 14.13 57.434 0.061 7.08 0.19 10.13
5/25/2021 1:00:00 PM 14.2 57.56 0.061 7.06 0.18 10.12
5/25/2021 1:15:00 PM 14.28 57.704 0.061 7.1 0.29 10.11
5/25/2021 1:30:00 PM 14.36 57.848 0.061 7.09 0.15 10.1
5/25/2021 1:45:00 PM 14.44 57.992 0.061 7.1 0.13 10.09
5/25/2021 2:00:00 PM 14.54 58.172 0.061 7.09 0.15 10.07
5/25/2021 2:15:00 PM 14.65 58.37 0.061 7.11 0.17 10.04
5/25/2021 2:30:00 PM 14.73 58.514 0.061 7.1 0.12 10.02
5/25/2021 2:45:00 PM 14.82 58.676 0.061 7.11 0.13 9.99
5/25/2021 3:00:00 PM 14.93 58.874 0.061 7.12 0.17 9.96
5/25/2021 3:15:00 PM 15.04 59.072 0.061 7.11 0.17 9.93
5/25/2021 3:30:00 PM 15.09 59.162 0.061 7.11 0.17 9.91
5/25/2021 3:45:00 PM 15.14 59.252 0.061 7.1 0.26 9.88
5/25/2021 4:00:00 PM 15.17 59.306 0.061 7.1 0.15 9.82
5/25/2021 4:15:00 PM 15.2 59.36 0.061 7.05 0.15 9.8
5/25/2021 4:30:00 PM 15.22 59.396 0.061 7.07 0.11 9.77
5/25/2021 4:45:00 PM 15.24 59.432 0.061 7.06 0.09 9.75
5/25/2021 5:00:00 PM 15.24 59.432 0.061 7.06 0.19 9.72
5/25/2021 5:15:00 PM 15.24 59.432 0.061 7.04 0.27 9.7
5/25/2021 5:30:00 PM 15.24 59.432 0.061 7.03 0.15 9.68
5/25/2021 5:45:00 PM 15.25 59.45 0.061 7.02 0.17 9.67
5/25/2021 6:00:00 PM 15.24 59.432 0.061 7.02 0.15 9.65
5/25/2021 6:15:00 PM 15.22 59.396 0.062 7.01 0.24 9.64
5/25/2021 6:30:00 PM 15.2 59.36 0.062 7 0.15 9.62
5/25/2021 6:45:00 PM 15.19 59.342 0.062 6.99 0.13 9.6
5/25/2021 7:00:00 PM 15.16 59.288 0.062 6.98 0.11 9.59
5/25/2021 7:15:00 PM 15.14 59.252 0.062 6.97 0.21 9.57
5/25/2021 7:30:00 PM 15.12 59.216 0.062 6.96 0.15 9.57
5/25/2021 7:45:00 PM 15.1 59.18 0.062 6.94 0.17 9.55
5/25/2021 8:00:00 PM 15.07 59.126 0.063 6.94 0.14 9.54
5/25/2021 8:15:00 PM 15.06 59.108 0.063 6.92 0.25 9.53
5/25/2021 8:30:00 PM 15.04 59.072 0.063 6.92 0.23 9.53
5/25/2021 8:45:00 PM 15.01 59.018 0.063 6.92 0.21 9.53
5/25/2021 9:00:00 PM 14.99 58.982 0.063 6.92 0.21 9.53
5/25/2021 9:15:00 PM 14.95 58.91 0.063 6.9 0.26 9.53
5/25/2021 9:30:00 PM 14.91 58.838 0.063 6.91 0.27 9.54
5/25/2021 9:45:00 PM 14.88 58.784 0.063 6.9 0.27 9.55
5/25/2021 10:00:00 PM 14.85 58.73 0.063 6.91 0.45 9.55
5/25/2021 10:15:00 PM 14.81 58.658 0.063 6.89 0.24 9.57
5/25/2021 10:30:00 PM 14.78 58.604 0.064 6.91 0.22 9.58
5/25/2021 10:45:00 PM 14.75 58.55 0.064 6.91 0.21 9.58
5/25/2021 11:00:00 PM 14.71 58.478 0.064 6.91 0.24 9.59
5/25/2021 11:15:00 PM 14.68 58.424 0.064 6.91 0.19 9.6
5/25/2021 11:30:00 PM 14.65 58.37 0.064 6.91 0.28 9.6
5/25/2021 11:45:00 PM 14.61 58.298 0.064 6.9 0.31 9.62
5/26/2021 12:00:00 AM 14.58 58.244 0.064 6.89 0.26 9.62
5/26/2021 12:15:00 AM 14.55 58.19 0.064 6.9 0.2 9.62
5/26/2021 12:30:00 AM 14.51 58.118 0.064 6.9 0.2 9.63
5/26/2021 12:45:00 AM 14.48 58.064 0.064 6.9 0.22 9.64
5/26/2021 1:00:00 AM 14.45 58.01 0.064 6.88 0.24 9.65
5/26/2021 1:15:00 AM 14.42 57.956 0.064 6.9 0.28 9.66
5/26/2021 1:30:00 AM 14.39 57.902 0.064 6.89 0.27 9.66
5/26/2021 1:45:00 AM 14.35 57.83 0.064 6.89 0.22 9.67
5/26/2021 2:00:00 AM 14.32 57.776 0.064 6.9 0.24 9.68
5/26/2021 2:15:00 AM 14.29 57.722 0.064 6.9 0.24 9.68
5/26/2021 2:30:00 AM 14.26 57.668 0.064 6.89 0.21 9.68
5/26/2021 2:45:00 AM 14.23 57.614 0.064 6.89 0.28 9.7
5/26/2021 3:00:00 AM 14.2 57.56 0.064 6.89 0.22 9.7
5/26/2021 3:15:00 AM 14.17 57.506 0.064 6.89 0.27 9.7
5/26/2021 3:30:00 AM 14.14 57.452 0.064 6.89 0.33 9.71
5/26/2021 3:45:00 AM 14.11 57.398 0.064 6.89 0.17 9.72
5/26/2021 4:00:00 AM 14.09 57.362 0.064 6.89 0.18 9.72
5/26/2021 4:15:00 AM 14.06 57.308 0.064 6.89 0.17 9.73
5/26/2021 4:30:00 AM 14.03 57.254 0.064 6.89 0.16 9.74
5/26/2021 4:45:00 AM 14 57.2 0.064 6.89 0.7 9.74
5/26/2021 5:00:00 AM 13.97 57.146 0.064 6.88 0.25 9.75
5/26/2021 5:15:00 AM 13.94 57.092 0.064 6.88 0.21 9.75
5/26/2021 5:30:00 AM 13.91 57.038 0.064 6.89 0.22 9.76
5/26/2021 5:45:00 AM 13.88 56.984 0.064 6.89 0.18 9.77
5/26/2021 6:00:00 AM 13.86 56.948 0.064 6.82 0.22 9.79
5/26/2021 6:15:00 AM 13.83 56.894 0.064 6.87 0.15 9.81
5/26/2021 6:30:00 AM 13.81 56.858 0.064 6.89 0.18 9.82
5/26/2021 6:45:00 AM 13.8 56.84 0.064 6.9 0.17 9.85
5/26/2021 7:00:00 AM 13.81 56.858 0.064 6.91 0.18 9.88
5/26/2021 7:15:00 AM 13.81 56.858 0.064 6.91 0.17 9.91
5/26/2021 7:30:00 AM 13.83 56.894 0.064 6.93 0.12 9.94
5/26/2021 7:45:00 AM 13.86 56.948 0.064 6.92 0.11 9.96
5/26/2021 8:00:00 AM 13.88 56.984 0.064 6.93 0.15 9.96
5/26/2021 8:15:00 AM 13.91 57.038 0.064 6.93 0.16 9.97
5/26/2021 8:30:00 AM 13.95 57.11 0.064 6.94 0.12 9.98
5/26/2021 8:45:00 AM 14.01 57.218 0.064 6.96 0.12 10
5/26/2021 9:00:00 AM 14.06 57.308 0.064 6.95 0.13 9.99
5/26/2021 9:15:00 AM 14.11 57.398 0.064 6.97 0.13 9.98
5/26/2021 9:30:00 AM 14.17 57.506 0.064 6.98 0.13 9.97
5/26/2021 9:45:00 AM 14.23 57.614 0.064 6.98 0.09 9.97
5/26/2021 10:00:00 AM 14.3 57.74 0.064 6.97 0.1 9.97
5/26/2021 10:15:00 AM 14.44 57.992 0.064 7.04 0.08 10
5/26/2021 10:30:00 AM 14.5 58.1 0.063 7.05 0.14 9.98
5/26/2021 10:45:00 AM 14.62 58.316 0.063 7.07 0.11 9.99
5/26/2021 11:00:00 AM 14.73 58.514 0.063 7.08 0.11 9.97
5/26/2021 11:15:00 AM 14.86 58.748 0.063 7.09 0.2 9.94
5/26/2021 11:30:00 AM 15.04 59.072 0.063 7.1 0.1 9.93
5/26/2021 11:45:00 AM 15.25 59.45 0.063 7.11 0.14 9.88
5/26/2021 12:00:00 PM 15.46 59.828 0.063 7.11 0.13 9.83
5/26/2021 12:15:00 PM 15.72 60.296 0.063 7.11 0.12 9.77
5/26/2021 12:30:00 PM 16.02 60.836 0.063 7.11 0.03 9.7
5/26/2021 12:45:00 PM 16.32 61.376 0.063 7.11 0.03 9.63
5/26/2021 1:00:00 PM 16.63 61.934 0.063 7.12 0.05 9.56
5/26/2021 1:15:00 PM 16.91 62.438 0.063 7.08 0.01 9.49
5/26/2021 1:30:00 PM 17.17 62.906 0.063 7.12 0.06 9.43
5/26/2021 1:45:00 PM 17.42 63.356 0.063 7.12 0.06 9.37
5/26/2021 2:00:00 PM 17.62 63.716 0.063 7.13 0.08 9.31
5/26/2021 2:15:00 PM 17.76 63.968 0.063 7.11 0.12 9.26
5/26/2021 2:30:00 PM 17.89 64.202 0.063 7.13 0.1 9.24
5/26/2021 2:45:00 PM 17.89 64.202 0.063 7.11 0.07 9.15
5/26/2021 3:00:00 PM 17.73 63.914 0.063 7.05 0.1 9.07
5/26/2021 3:15:00 PM 17.75 63.95 0.063 7.04 1.15 9.07
5/26/2021 3:30:00 PM 17.76 63.968 0.063 7.03 1.13 9.07
5/26/2021 3:45:00 PM 17.63 63.734 0.063 6.99 0.94 8.97
5/26/2021 4:00:00 PM 17.53 63.554 0.062 6.95 1.43 8.88
5/26/2021 4:15:00 PM 17.47 63.446 0.062 6.94 1.19 8.87
5/26/2021 4:30:00 PM 17.39 63.302 0.062 6.93 1.36 8.91
5/26/2021 4:45:00 PM 17.33 63.194 0.061 6.94 1.63 9
5/26/2021 5:00:00 PM 17.26 63.068 0.061 6.94 2.26 9.02
5/26/2021 5:15:00 PM 17.2 62.96 0.061 6.93 2.11 9.02
5/26/2021 5:30:00 PM 17.15 62.87 0.061 6.92 3.11 9.01
5/26/2021 5:45:00 PM 17.12 62.816 0.06 6.93 3.66 9
5/26/2021 6:00:00 PM 17.11 62.798 0.06 6.91 3.83 9
5/26/2021 6:15:00 PM 17.11 62.798 0.06 6.91 3.46 9.01
5/26/2021 6:30:00 PM 17.11 62.798 0.06 6.9 4.19 9.03
5/26/2021 6:45:00 PM 17.09 62.762 0.06 6.91 6.1 8.98
5/26/2021 7:00:00 PM 17.04 62.672 0.06 6.9 7.42 8.99
5/26/2021 7:15:00 PM 16.98 62.564 0.06 6.89 7.31 8.98
5/26/2021 7:30:00 PM 16.92 62.456 0.06 6.89 6.81 8.96
5/26/2021 7:45:00 PM 16.88 62.384 0.06 6.9 5.51 8.97
5/26/2021 8:00:00 PM 16.83 62.294 0.061 6.9 4.37 8.97
5/26/2021 8:15:00 PM 16.77 62.186 0.061 6.88 4 8.96
5/26/2021 8:30:00 PM 16.73 62.114 0.062 6.87 3.57 8.97
5/26/2021 8:45:00 PM 16.69 62.042 0.062 6.85 3.29 8.97
5/26/2021 9:00:00 PM 16.65 61.97 0.062 6.85 3.19 8.97
5/26/2021 9:15:00 PM 16.66 61.988 0.061 6.84 3.47 8.99
5/26/2021 9:30:00 PM 16.62 61.916 0.061 6.85 3.03 8.99
5/26/2021 9:45:00 PM 16.56 61.808 0.061 6.85 3.6 9
5/26/2021 10:00:00 PM 16.49 61.682 0.061 6.84 3.18 9.03
5/26/2021 10:15:00 PM 16.45 61.61 0.061 6.85 3.86 9.05
5/26/2021 10:30:00 PM 16.41 61.538 0.061 6.83 4.34 9.07
5/26/2021 10:45:00 PM 16.38 61.484 0.061 6.84 4.57 9.09
5/26/2021 11:00:00 PM 16.33 61.394 0.062 6.84 4.5 9.1
5/26/2021 11:15:00 PM 16.29 61.322 0.062 6.83 4.91 9.11
5/26/2021 11:30:00 PM 16.26 61.268 0.063 6.82 4.72 9.12
5/26/2021 11:45:00 PM 16.24 61.232 0.063 6.81 4.81 9.14
5/27/2021 12:00:00 AM 16.23 61.214 0.063 6.82 4.94 9.15
5/27/2021 12:15:00 AM 16.22 61.196 0.063 6.83 4.32 9.17
5/27/2021 12:30:00 AM 16.2 61.16 0.063 6.84 4.14 9.18
5/27/2021 12:45:00 AM 16.17 61.106 0.063 6.85 4.02 9.19
5/27/2021 1:00:00 AM 16.15 61.07 0.064 6.86 3.71 9.2
5/27/2021 1:15:00 AM 16.13 61.034 0.064 6.88 4.32 9.21
5/27/2021 1:30:00 AM 16.11 60.998 0.064 6.86 3.17 9.21
5/27/2021 1:45:00 AM 16.08 60.944 0.064 6.88 2.84 9.22
5/27/2021 2:00:00 AM 16.05 60.89 0.065 6.88 2.7 9.24
5/27/2021 2:15:00 AM 16.02 60.836 0.065 6.85 2.82 9.25
5/27/2021 2:30:00 AM 16 60.8 0.065 6.9 2.64 9.25
5/27/2021 2:45:00 AM 15.98 60.764 0.065 6.88 2.54 9.26
5/27/2021 3:00:00 AM 15.94 60.692 0.065 6.91 2.4 9.27
5/27/2021 3:15:00 AM 15.91 60.638 0.065 6.88 2.34 9.28
5/27/2021 3:30:00 AM 15.87 60.566 0.066 6.92 2.45 9.29
5/27/2021 3:45:00 AM 15.84 60.512 0.066 6.89 2.08 9.3
5/27/2021 4:00:00 AM 15.8 60.44 0.066 6.91 2.04 9.31
5/27/2021 4:15:00 AM 15.76 60.368 0.066 6.8 1.99 9.31
5/27/2021 4:30:00 AM 15.71 60.278 0.066 6.91 1.94 9.33
5/27/2021 4:45:00 AM 15.67 60.206 0.066 6.83 1.89 9.34
5/27/2021 5:00:00 AM 15.63 60.134 0.066 6.91 1.97 9.35
5/27/2021 5:15:00 AM 15.58 60.044 0.066 6.9 1.8 9.36
5/27/2021 5:30:00 AM 15.53 59.954 0.066 6.9 1.83 9.37
5/27/2021 5:45:00 AM 15.48 59.864 0.066 6.91 1.74 9.39
5/27/2021 6:00:00 AM 15.43 59.774 0.066 6.9 1.78 9.4
5/27/2021 6:15:00 AM 15.39 59.702 0.065 6.9 1.8 9.42
5/27/2021 6:30:00 AM 15.35 59.63 0.065 6.91 1.72 9.44
5/27/2021 6:45:00 AM 15.32 59.576 0.065 6.91 1.61 9.46
5/27/2021 7:00:00 AM 15.29 59.522 0.066 6.83 1.5 9.48
5/27/2021 7:15:00 AM 15.26 59.468 0.066 6.93 1.43 9.5
5/27/2021 7:30:00 AM 15.23 59.414 0.066 6.92 1.36 9.52
5/27/2021 7:45:00 AM 15.21 59.378 0.066 6.92 1.35 9.53
5/27/2021 8:00:00 AM 15.2 59.36 0.066 6.94 1.31 9.54
5/27/2021 8:15:00 AM 15.18 59.324 0.066 6.92 1.25 9.54
5/27/2021 8:30:00 AM 15.18 59.324 0.066 6.93 1.22 9.56
5/27/2021 8:45:00 AM 15.2 59.36 0.066 6.91 1.05 9.58
5/27/2021 9:00:00 AM 15.22 59.396 0.065 6.96 1.22 9.59
5/27/2021 9:15:00 AM 15.26 59.468 0.065 6.97 1.09 9.6
5/27/2021 9:30:00 AM 15.3 59.54 0.065 6.99 1 9.61
5/27/2021 9:45:00 AM 15.36 59.648 0.065 6.99 1.01 9.62
5/27/2021 10:00:00 AM 15.42 59.756 0.065 6.98 0.96 9.62
5/27/2021 10:15:00 AM 15.5 59.9 0.065 7.01 0.94 9.62
5/27/2021 10:30:00 AM 15.59 60.062 0.065 7.01 0.94 9.61
5/27/2021 10:45:00 AM 15.69 60.242 0.065 7.02 0.99 9.61
5/27/2021 11:00:00 AM 15.82 60.476 0.064 6.97 0.98 9.59
5/27/2021 11:15:00 AM 15.97 60.746 0.064 7.03 0.86 9.57
5/27/2021 11:30:00 AM 16.14 61.052 0.064 7.04 0.87 9.54
5/27/2021 11:45:00 AM 16.32 61.376 0.064 7.02 0.84 9.5
5/27/2021 12:00:00 PM 16.52 61.736 0.064 7.05 0.95 9.47
5/27/2021 12:15:00 PM 16.73 62.114 0.063 7.05 0.77 9.43
5/27/2021 12:30:00 PM 16.95 62.51 0.063 7.04 0.73 9.4
5/27/2021 12:45:00 PM 17.16 62.888 0.063 7.06 0.76 9.35
5/27/2021 1:00:00 PM 17.37 63.266 0.063 7.06 0.72 9.31
5/27/2021 1:15:00 PM 17.54 63.572 0.063 7.06 0.7 9.26
5/27/2021 1:30:00 PM 17.69 63.842 0.063 7.06 0.72 9.23
5/27/2021 1:45:00 PM 17.79 64.022 0.063 7.03 0.67 9.19
5/27/2021 2:00:00 PM 17.83 64.094 0.063 7.03 0.72 9.17
5/27/2021 2:15:00 PM 17.85 64.13 0.063 7.05 0.61 9.15
5/27/2021 2:30:00 PM 17.86 64.148 0.062 7.05 0.66 9.13
5/27/2021 2:45:00 PM 17.84 64.112 0.062 7.05 0.58 9.13
5/27/2021 3:00:00 PM 17.79 64.022 0.062 7.03 0.63 9.12
5/27/2021 3:15:00 PM 17.73 63.914 0.062 7.05 0.67 9.12
5/27/2021 3:30:00 PM 17.68 63.824 0.062 6.95 0.55 9.11
5/27/2021 3:45:00 PM 17.61 63.698 0.062 6.99 0.6 9.1
5/27/2021 4:00:00 PM 17.52 63.536 0.062 6.99 0.57 9.11
5/27/2021 4:15:00 PM 17.45 63.41 0.062 7.03 0.61 9.15
5/27/2021 4:30:00 PM 17.41 63.338 0.062 6.98 0.52 9.16
5/27/2021 4:45:00 PM 17.37 63.266 0.062 7 0.52 9.14
5/27/2021 5:00:00 PM 17.32 63.176 0.062 7 0.63 9.12
5/27/2021 5:15:00 PM 17.28 63.104 0.062 6.97 0.58 9.11
5/27/2021 5:30:00 PM 17.23 63.014 0.062 7 0.46 9.11
5/27/2021 5:45:00 PM 17.18 62.924 0.062 6.96 0.59 9.13
5/27/2021 6:00:00 PM 17.15 62.87 0.062 6.96 0.44 9.16
5/27/2021 6:15:00 PM 17.12 62.816 0.062 6.97 0.5 9.14
5/27/2021 6:30:00 PM 17.08 62.744 0.062 6.97 0.54 9.12
5/27/2021 6:45:00 PM 17.01 62.618 0.063 6.97 0.53 9.11
5/27/2021 7:00:00 PM 16.94 62.492 0.063 6.96 0.59 9.11
5/27/2021 7:15:00 PM 16.88 62.384 0.063 6.95 0.56 9.11
5/27/2021 7:30:00 PM 16.81 62.258 0.063 6.94 0.43 9.12
5/27/2021 7:45:00 PM 16.73 62.114 0.063 6.94 0.48 9.13
5/27/2021 8:00:00 PM 16.66 61.988 0.063 6.94 0.5 9.14
5/27/2021 8:15:00 PM 16.58 61.844 0.063 6.93 0.51 9.14
5/27/2021 8:30:00 PM 16.5 61.7 0.063 6.93 0.49 9.16
5/27/2021 8:45:00 PM 16.43 61.574 0.063 6.93 0.66 9.16
5/27/2021 9:00:00 PM 16.35 61.43 0.063 6.93 0.6 9.18
5/27/2021 9:15:00 PM 16.27 61.286 0.063 6.94 0.51 9.2
5/27/2021 9:30:00 PM 16.19 61.142 0.063 6.92 0.58 9.22
5/27/2021 9:45:00 PM 16.11 60.998 0.063 6.89 0.54 9.24
5/27/2021 10:00:00 PM 16.02 60.836 0.063 6.93 0.67 9.26
5/27/2021 10:15:00 PM 15.94 60.692 0.063 6.93 0.51 9.27
5/27/2021 10:30:00 PM 15.85 60.53 0.063 6.93 0.62 9.3
5/27/2021 10:45:00 PM 15.77 60.386 0.063 6.93 0.55 9.32
5/27/2021 11:00:00 PM 15.68 60.224 0.063 6.9 0.55 9.34
5/27/2021 11:15:00 PM 15.59 60.062 0.063 6.94 0.58 9.36
5/27/2021 11:30:00 PM 15.51 59.918 0.063 6.94 0.51 9.38
5/27/2021 11:45:00 PM 15.42 59.756 0.063 6.94 0.56 9.4
5/28/2021 12:00:00 AM 15.34 59.612 0.063 6.93 0.54 9.42
5/28/2021 12:15:00 AM 15.26 59.468 0.063 6.93 0.49 9.43
5/28/2021 12:30:00 AM 15.18 59.324 0.063 6.94 0.52 9.45
5/28/2021 12:45:00 AM 15.11 59.198 0.063 6.94 0.56 9.47
5/28/2021 1:00:00 AM 15.04 59.072 0.063 6.92 0.52 9.48
5/28/2021 1:15:00 AM 14.96 58.928 0.063 6.91 0.51 9.5
5/28/2021 1:30:00 AM 14.89 58.802 0.063 6.92 0.51 9.52
5/28/2021 1:45:00 AM 14.82 58.676 0.063 6.93 0.69 9.53
5/28/2021 2:00:00 AM 14.76 58.568 0.062 6.92 0.52 9.54
5/28/2021 2:15:00 AM 14.69 58.442 0.062 6.92 0.47 9.56
5/28/2021 2:30:00 AM 14.62 58.316 0.062 6.93 0.41 9.57
5/28/2021 2:45:00 AM 14.56 58.208 0.062 6.91 0.47 9.58
5/28/2021 3:00:00 AM 14.5 58.1 0.062 6.88 0.47 9.59
5/28/2021 3:15:00 AM 14.44 57.992 0.062 6.92 0.45 9.61
5/28/2021 3:30:00 AM 14.39 57.902 0.062 6.91 0.42 9.62
5/28/2021 3:45:00 AM 14.33 57.794 0.062 6.92 0.37 9.63
5/28/2021 4:00:00 AM 14.27 57.686 0.062 6.91 0.49 9.65
5/28/2021 4:15:00 AM 14.21 57.578 0.062 6.91 0.46 9.66
5/28/2021 4:30:00 AM 14.15 57.47 0.062 6.9 0.51 9.68
5/28/2021 4:45:00 AM 14.09 57.362 0.062 6.91 0.51 9.69
5/28/2021 5:00:00 AM 14.02 57.236 0.062 6.85 0.44 9.71
5/28/2021 5:15:00 AM 13.95 57.11 0.062 6.9 0.41 9.72
5/28/2021 5:30:00 AM 13.88 56.984 0.062 6.9 0.52 9.74
5/28/2021 5:45:00 AM 13.81 56.858 0.062 6.84 0.4 9.76
5/28/2021 6:00:00 AM 13.74 56.732 0.062 6.91 0.44 9.78
5/28/2021 6:15:00 AM 13.66 56.588 0.062 6.91 0.46 9.8
5/28/2021 6:30:00 AM 13.6 56.48 0.062 6.85 0.35 9.85
5/28/2021 6:45:00 AM 13.56 56.408 0.062 6.92 0.38 9.88
5/28/2021 7:00:00 AM 13.52 56.336 0.062 6.93 0.4 9.91
5/28/2021 7:15:00 AM 13.48 56.264 0.062 6.88 0.42 9.94
5/28/2021 7:30:00 AM 13.47 56.246 0.062 6.95 0.38 9.97
5/28/2021 7:45:00 AM 13.46 56.228 0.062 6.95 0.37 9.99
5/28/2021 8:00:00 AM 13.45 56.21 0.062 6.94 0.34 10.01
5/28/2021 8:15:00 AM 13.44 56.192 0.062 6.97 0.31 10.02
5/28/2021 8:30:00 AM 13.43 56.174 0.062 6.96 0.3 10.01
5/28/2021 8:45:00 AM 13.44 56.192 0.062 6.98 0.29 10.04
5/28/2021 9:00:00 AM 13.45 56.21 0.062 6.98 0.34 10.06
5/28/2021 9:15:00 AM 13.47 56.246 0.062 6.99 0.31 10.06
5/28/2021 9:30:00 AM 13.49 56.282 0.062 6.99 0.27 10.08
5/28/2021 9:45:00 AM 13.53 56.354 0.062 7.01 0.34 10.1
5/28/2021 10:00:00 AM 13.56 56.408 0.062 7.02 0.31 10.1
5/28/2021 10:15:00 AM 13.6 56.48 0.062 7.03